<?xml version="1.0" encoding="UTF-8" standalone="no" ?>
<gpx xmlns="http://www.topografix.com/GPX/1/1" xmlns:xsi="http://www.w3.org/2001/XMLSchema-instance" xsi:schemaLocation="http://www.topografix.com/GPX/1/1 http://www.topografix.com/GPX/1/1/gpx.xsd" version="1.1" creator="VisuGPX - https://www.visugpx.com">
  <metadata>
    <name>Saint George de Luzencon - Saint Geniez de bertrand</name>
    <desc><![CDATA[Petite séance de 100m de dénivélé]]></desc>
  </metadata>
  <trk>
    <name><![CDATA[Saint Geniez de bertrand]]></name>
    <trkseg>
      <trkpt lat="44.05782" lon="2.98747">
        <ele>388</ele>
        <time>2016-07-02T04:27:05Z</time>
      </trkpt>
      <trkpt lat="44.0578" lon="2.98745">
        <ele>388.1</ele>
        <time>2016-07-02T04:27:06Z</time>
      </trkpt>
      <trkpt lat="44.05778" lon="2.98743">
        <ele>388.1</ele>
        <time>2016-07-02T04:27:07Z</time>
      </trkpt>
      <trkpt lat="44.05776" lon="2.98741">
        <ele>388.1</ele>
        <time>2016-07-02T04:27:08Z</time>
      </trkpt>
      <trkpt lat="44.05774" lon="2.98739">
        <ele>388.1</ele>
        <time>2016-07-02T04:27:09Z</time>
      </trkpt>
      <trkpt lat="44.05772" lon="2.98737">
        <ele>388.1</ele>
        <time>2016-07-02T04:27:10Z</time>
      </trkpt>
      <trkpt lat="44.0577" lon="2.98735">
        <ele>388.1</ele>
        <time>2016-07-02T04:27:11Z</time>
      </trkpt>
      <trkpt lat="44.05767" lon="2.98733">
        <ele>388.1</ele>
        <time>2016-07-02T04:27:12Z</time>
      </trkpt>
      <trkpt lat="44.05765" lon="2.98732">
        <ele>388.1</ele>
        <time>2016-07-02T04:27:13Z</time>
      </trkpt>
      <trkpt lat="44.05762" lon="2.9873">
        <ele>388.1</ele>
        <time>2016-07-02T04:27:14Z</time>
      </trkpt>
      <trkpt lat="44.0576" lon="2.98728">
        <ele>388.1</ele>
        <time>2016-07-02T04:27:15Z</time>
      </trkpt>
      <trkpt lat="44.05758" lon="2.98726">
        <ele>388.1</ele>
        <time>2016-07-02T04:27:16Z</time>
      </trkpt>
      <trkpt lat="44.05755" lon="2.98725">
        <ele>388.1</ele>
        <time>2016-07-02T04:27:17Z</time>
      </trkpt>
      <trkpt lat="44.05753" lon="2.98723">
        <ele>388.1</ele>
        <time>2016-07-02T04:27:18Z</time>
      </trkpt>
      <trkpt lat="44.0575" lon="2.98721">
        <ele>388.1</ele>
        <time>2016-07-02T04:27:19Z</time>
      </trkpt>
      <trkpt lat="44.05747" lon="2.98719">
        <ele>388.1</ele>
        <time>2016-07-02T04:27:20Z</time>
      </trkpt>
      <trkpt lat="44.05744" lon="2.98718">
        <ele>388</ele>
        <time>2016-07-02T04:27:21Z</time>
      </trkpt>
      <trkpt lat="44.05742" lon="2.98716">
        <ele>388</ele>
        <time>2016-07-02T04:27:22Z</time>
      </trkpt>
      <trkpt lat="44.05739" lon="2.98715">
        <ele>388</ele>
        <time>2016-07-02T04:27:23Z</time>
      </trkpt>
      <trkpt lat="44.05736" lon="2.98713">
        <ele>388</ele>
        <time>2016-07-02T04:27:24Z</time>
      </trkpt>
      <trkpt lat="44.05733" lon="2.98711">
        <ele>387.9</ele>
        <time>2016-07-02T04:27:25Z</time>
      </trkpt>
      <trkpt lat="44.0573" lon="2.9871">
        <ele>387.9</ele>
        <time>2016-07-02T04:27:26Z</time>
      </trkpt>
      <trkpt lat="44.05727" lon="2.98708">
        <ele>387.9</ele>
        <time>2016-07-02T04:27:27Z</time>
      </trkpt>
      <trkpt lat="44.05724" lon="2.98707">
        <ele>387.8</ele>
        <time>2016-07-02T04:27:28Z</time>
      </trkpt>
      <trkpt lat="44.05722" lon="2.98705">
        <ele>387.8</ele>
        <time>2016-07-02T04:27:29Z</time>
      </trkpt>
      <trkpt lat="44.05719" lon="2.98704">
        <ele>387.8</ele>
        <time>2016-07-02T04:27:30Z</time>
      </trkpt>
      <trkpt lat="44.05716" lon="2.98702">
        <ele>387.7</ele>
        <time>2016-07-02T04:27:31Z</time>
      </trkpt>
      <trkpt lat="44.05713" lon="2.98701">
        <ele>387.7</ele>
        <time>2016-07-02T04:27:32Z</time>
      </trkpt>
      <trkpt lat="44.0571" lon="2.98699">
        <ele>387.7</ele>
        <time>2016-07-02T04:27:33Z</time>
      </trkpt>
      <trkpt lat="44.05708" lon="2.98698">
        <ele>387.7</ele>
        <time>2016-07-02T04:27:34Z</time>
      </trkpt>
      <trkpt lat="44.05705" lon="2.98696">
        <ele>387.7</ele>
        <time>2016-07-02T04:27:35Z</time>
      </trkpt>
      <trkpt lat="44.05702" lon="2.98695">
        <ele>387.6</ele>
        <time>2016-07-02T04:27:36Z</time>
      </trkpt>
      <trkpt lat="44.05699" lon="2.98693">
        <ele>387.6</ele>
        <time>2016-07-02T04:27:37Z</time>
      </trkpt>
      <trkpt lat="44.05696" lon="2.98692">
        <ele>387.6</ele>
        <time>2016-07-02T04:27:38Z</time>
      </trkpt>
      <trkpt lat="44.05693" lon="2.9869">
        <ele>387.6</ele>
        <time>2016-07-02T04:27:39Z</time>
      </trkpt>
      <trkpt lat="44.05691" lon="2.98689">
        <ele>387.6</ele>
        <time>2016-07-02T04:27:40Z</time>
      </trkpt>
      <trkpt lat="44.05688" lon="2.98688">
        <ele>387.6</ele>
        <time>2016-07-02T04:27:41Z</time>
      </trkpt>
      <trkpt lat="44.05685" lon="2.98686">
        <ele>387.6</ele>
        <time>2016-07-02T04:27:42Z</time>
      </trkpt>
      <trkpt lat="44.05682" lon="2.98685">
        <ele>387.6</ele>
        <time>2016-07-02T04:27:43Z</time>
      </trkpt>
      <trkpt lat="44.05679" lon="2.98684">
        <ele>387.7</ele>
        <time>2016-07-02T04:27:44Z</time>
      </trkpt>
      <trkpt lat="44.05677" lon="2.98682">
        <ele>387.7</ele>
        <time>2016-07-02T04:27:45Z</time>
      </trkpt>
      <trkpt lat="44.05674" lon="2.98681">
        <ele>387.7</ele>
        <time>2016-07-02T04:27:46Z</time>
      </trkpt>
      <trkpt lat="44.05671" lon="2.9868">
        <ele>387.7</ele>
        <time>2016-07-02T04:27:47Z</time>
      </trkpt>
      <trkpt lat="44.05668" lon="2.98679">
        <ele>387.7</ele>
        <time>2016-07-02T04:27:48Z</time>
      </trkpt>
      <trkpt lat="44.05665" lon="2.98678">
        <ele>387.7</ele>
        <time>2016-07-02T04:27:49Z</time>
      </trkpt>
      <trkpt lat="44.05662" lon="2.98677">
        <ele>387.7</ele>
        <time>2016-07-02T04:27:50Z</time>
      </trkpt>
      <trkpt lat="44.05659" lon="2.98676">
        <ele>387.8</ele>
        <time>2016-07-02T04:27:51Z</time>
      </trkpt>
      <trkpt lat="44.05656" lon="2.98675">
        <ele>387.8</ele>
        <time>2016-07-02T04:27:52Z</time>
      </trkpt>
      <trkpt lat="44.05654" lon="2.98674">
        <ele>387.8</ele>
        <time>2016-07-02T04:27:53Z</time>
      </trkpt>
      <trkpt lat="44.05651" lon="2.98673">
        <ele>387.9</ele>
        <time>2016-07-02T04:27:54Z</time>
      </trkpt>
      <trkpt lat="44.05648" lon="2.98672">
        <ele>387.9</ele>
        <time>2016-07-02T04:27:55Z</time>
      </trkpt>
      <trkpt lat="44.05645" lon="2.98671">
        <ele>387.9</ele>
        <time>2016-07-02T04:27:56Z</time>
      </trkpt>
      <trkpt lat="44.05642" lon="2.9867">
        <ele>387.9</ele>
        <time>2016-07-02T04:27:57Z</time>
      </trkpt>
      <trkpt lat="44.05639" lon="2.98669">
        <ele>388</ele>
        <time>2016-07-02T04:27:58Z</time>
      </trkpt>
      <trkpt lat="44.05636" lon="2.98668">
        <ele>388</ele>
        <time>2016-07-02T04:27:59Z</time>
      </trkpt>
      <trkpt lat="44.05634" lon="2.98668">
        <ele>388.1</ele>
        <time>2016-07-02T04:28:00Z</time>
      </trkpt>
      <trkpt lat="44.05631" lon="2.98667">
        <ele>388.2</ele>
        <time>2016-07-02T04:28:01Z</time>
      </trkpt>
      <trkpt lat="44.05628" lon="2.98666">
        <ele>388.3</ele>
        <time>2016-07-02T04:28:02Z</time>
      </trkpt>
      <trkpt lat="44.05625" lon="2.98665">
        <ele>388.3</ele>
        <time>2016-07-02T04:28:03Z</time>
      </trkpt>
      <trkpt lat="44.05622" lon="2.98664">
        <ele>388.4</ele>
        <time>2016-07-02T04:28:04Z</time>
      </trkpt>
      <trkpt lat="44.05619" lon="2.98663">
        <ele>388.5</ele>
        <time>2016-07-02T04:28:05Z</time>
      </trkpt>
      <trkpt lat="44.05616" lon="2.98662">
        <ele>388.6</ele>
        <time>2016-07-02T04:28:06Z</time>
      </trkpt>
      <trkpt lat="44.05614" lon="2.98662">
        <ele>388.6</ele>
        <time>2016-07-02T04:28:07Z</time>
      </trkpt>
      <trkpt lat="44.05611" lon="2.98661">
        <ele>388.7</ele>
        <time>2016-07-02T04:28:08Z</time>
      </trkpt>
      <trkpt lat="44.05608" lon="2.9866">
        <ele>388.8</ele>
        <time>2016-07-02T04:28:09Z</time>
      </trkpt>
      <trkpt lat="44.05605" lon="2.9866">
        <ele>388.9</ele>
        <time>2016-07-02T04:28:10Z</time>
      </trkpt>
      <trkpt lat="44.05602" lon="2.98659">
        <ele>388.9</ele>
        <time>2016-07-02T04:28:11Z</time>
      </trkpt>
      <trkpt lat="44.056" lon="2.98659">
        <ele>389</ele>
        <time>2016-07-02T04:28:12Z</time>
      </trkpt>
      <trkpt lat="44.05597" lon="2.98658">
        <ele>389</ele>
        <time>2016-07-02T04:28:13Z</time>
      </trkpt>
      <trkpt lat="44.05594" lon="2.98658">
        <ele>389.1</ele>
        <time>2016-07-02T04:28:14Z</time>
      </trkpt>
      <trkpt lat="44.05591" lon="2.98658">
        <ele>389.2</ele>
        <time>2016-07-02T04:28:15Z</time>
      </trkpt>
      <trkpt lat="44.05589" lon="2.98658">
        <ele>389.2</ele>
        <time>2016-07-02T04:28:16Z</time>
      </trkpt>
      <trkpt lat="44.05585" lon="2.98658">
        <ele>389.3</ele>
        <time>2016-07-02T04:28:17Z</time>
      </trkpt>
      <trkpt lat="44.05583" lon="2.98658">
        <ele>389.3</ele>
        <time>2016-07-02T04:28:18Z</time>
      </trkpt>
      <trkpt lat="44.0558" lon="2.98659">
        <ele>389.4</ele>
        <time>2016-07-02T04:28:19Z</time>
      </trkpt>
      <trkpt lat="44.05577" lon="2.98659">
        <ele>389.4</ele>
        <time>2016-07-02T04:28:20Z</time>
      </trkpt>
      <trkpt lat="44.05574" lon="2.9866">
        <ele>389.5</ele>
        <time>2016-07-02T04:28:21Z</time>
      </trkpt>
      <trkpt lat="44.05572" lon="2.9866">
        <ele>389.5</ele>
        <time>2016-07-02T04:28:22Z</time>
      </trkpt>
      <trkpt lat="44.05569" lon="2.98661">
        <ele>389.6</ele>
        <time>2016-07-02T04:28:23Z</time>
      </trkpt>
      <trkpt lat="44.05566" lon="2.98662">
        <ele>389.6</ele>
        <time>2016-07-02T04:28:24Z</time>
      </trkpt>
      <trkpt lat="44.05564" lon="2.98663">
        <ele>389.7</ele>
        <time>2016-07-02T04:28:25Z</time>
      </trkpt>
      <trkpt lat="44.05561" lon="2.98664">
        <ele>389.7</ele>
        <time>2016-07-02T04:28:26Z</time>
      </trkpt>
      <trkpt lat="44.05558" lon="2.98664">
        <ele>389.7</ele>
        <time>2016-07-02T04:28:27Z</time>
      </trkpt>
      <trkpt lat="44.05556" lon="2.98666">
        <ele>389.8</ele>
        <time>2016-07-02T04:28:28Z</time>
      </trkpt>
      <trkpt lat="44.05553" lon="2.98667">
        <ele>389.8</ele>
        <time>2016-07-02T04:28:29Z</time>
      </trkpt>
      <trkpt lat="44.0555" lon="2.98668">
        <ele>389.8</ele>
        <time>2016-07-02T04:28:30Z</time>
      </trkpt>
      <trkpt lat="44.05548" lon="2.98669">
        <ele>389.8</ele>
        <time>2016-07-02T04:28:31Z</time>
      </trkpt>
      <trkpt lat="44.05545" lon="2.9867">
        <ele>389.8</ele>
        <time>2016-07-02T04:28:32Z</time>
      </trkpt>
      <trkpt lat="44.05543" lon="2.98671">
        <ele>389.9</ele>
        <time>2016-07-02T04:28:33Z</time>
      </trkpt>
      <trkpt lat="44.0554" lon="2.98673">
        <ele>389.9</ele>
        <time>2016-07-02T04:28:34Z</time>
      </trkpt>
      <trkpt lat="44.05537" lon="2.98674">
        <ele>389.9</ele>
        <time>2016-07-02T04:28:35Z</time>
      </trkpt>
      <trkpt lat="44.05535" lon="2.98675">
        <ele>389.9</ele>
        <time>2016-07-02T04:28:36Z</time>
      </trkpt>
      <trkpt lat="44.05532" lon="2.98677">
        <ele>389.9</ele>
        <time>2016-07-02T04:28:37Z</time>
      </trkpt>
      <trkpt lat="44.0553" lon="2.98678">
        <ele>389.9</ele>
        <time>2016-07-02T04:28:38Z</time>
      </trkpt>
      <trkpt lat="44.05527" lon="2.9868">
        <ele>389.9</ele>
        <time>2016-07-02T04:28:39Z</time>
      </trkpt>
      <trkpt lat="44.05524" lon="2.98681">
        <ele>389.9</ele>
        <time>2016-07-02T04:28:40Z</time>
      </trkpt>
      <trkpt lat="44.05522" lon="2.98683">
        <ele>389.9</ele>
        <time>2016-07-02T04:28:41Z</time>
      </trkpt>
      <trkpt lat="44.05519" lon="2.98684">
        <ele>390</ele>
        <time>2016-07-02T04:28:42Z</time>
      </trkpt>
      <trkpt lat="44.05517" lon="2.98686">
        <ele>390</ele>
        <time>2016-07-02T04:28:43Z</time>
      </trkpt>
      <trkpt lat="44.05514" lon="2.98687">
        <ele>390</ele>
        <time>2016-07-02T04:28:44Z</time>
      </trkpt>
      <trkpt lat="44.05511" lon="2.98688">
        <ele>390</ele>
        <time>2016-07-02T04:28:45Z</time>
      </trkpt>
      <trkpt lat="44.05509" lon="2.9869">
        <ele>390</ele>
        <time>2016-07-02T04:28:46Z</time>
      </trkpt>
      <trkpt lat="44.05506" lon="2.98691">
        <ele>390</ele>
        <time>2016-07-02T04:28:47Z</time>
      </trkpt>
      <trkpt lat="44.05504" lon="2.98692">
        <ele>390</ele>
        <time>2016-07-02T04:28:48Z</time>
      </trkpt>
      <trkpt lat="44.05501" lon="2.98693">
        <ele>390</ele>
        <time>2016-07-02T04:28:49Z</time>
      </trkpt>
      <trkpt lat="44.05499" lon="2.98694">
        <ele>390</ele>
        <time>2016-07-02T04:28:50Z</time>
      </trkpt>
      <trkpt lat="44.05496" lon="2.98695">
        <ele>390</ele>
        <time>2016-07-02T04:28:51Z</time>
      </trkpt>
      <trkpt lat="44.05493" lon="2.98696">
        <ele>390</ele>
        <time>2016-07-02T04:28:52Z</time>
      </trkpt>
      <trkpt lat="44.0549" lon="2.98697">
        <ele>390</ele>
        <time>2016-07-02T04:28:53Z</time>
      </trkpt>
      <trkpt lat="44.05488" lon="2.98698">
        <ele>390</ele>
        <time>2016-07-02T04:28:54Z</time>
      </trkpt>
      <trkpt lat="44.05485" lon="2.98699">
        <ele>390</ele>
        <time>2016-07-02T04:28:55Z</time>
      </trkpt>
      <trkpt lat="44.05482" lon="2.987">
        <ele>390</ele>
        <time>2016-07-02T04:28:56Z</time>
      </trkpt>
      <trkpt lat="44.05479" lon="2.98701">
        <ele>390</ele>
        <time>2016-07-02T04:28:57Z</time>
      </trkpt>
      <trkpt lat="44.05477" lon="2.98702">
        <ele>390</ele>
        <time>2016-07-02T04:28:58Z</time>
      </trkpt>
      <trkpt lat="44.05474" lon="2.98702">
        <ele>390</ele>
        <time>2016-07-02T04:28:59Z</time>
      </trkpt>
      <trkpt lat="44.05471" lon="2.98703">
        <ele>390</ele>
        <time>2016-07-02T04:29:00Z</time>
      </trkpt>
      <trkpt lat="44.05469" lon="2.98704">
        <ele>390</ele>
        <time>2016-07-02T04:29:01Z</time>
      </trkpt>
      <trkpt lat="44.05466" lon="2.98705">
        <ele>390</ele>
        <time>2016-07-02T04:29:02Z</time>
      </trkpt>
      <trkpt lat="44.05463" lon="2.98706">
        <ele>390</ele>
        <time>2016-07-02T04:29:03Z</time>
      </trkpt>
      <trkpt lat="44.05461" lon="2.98707">
        <ele>390</ele>
        <time>2016-07-02T04:29:04Z</time>
      </trkpt>
      <trkpt lat="44.05458" lon="2.98708">
        <ele>390</ele>
        <time>2016-07-02T04:29:05Z</time>
      </trkpt>
      <trkpt lat="44.05455" lon="2.98708">
        <ele>390</ele>
        <time>2016-07-02T04:29:06Z</time>
      </trkpt>
      <trkpt lat="44.05452" lon="2.98709">
        <ele>390</ele>
        <time>2016-07-02T04:29:07Z</time>
      </trkpt>
      <trkpt lat="44.0545" lon="2.9871">
        <ele>390</ele>
        <time>2016-07-02T04:29:08Z</time>
      </trkpt>
      <trkpt lat="44.05447" lon="2.98711">
        <ele>390</ele>
        <time>2016-07-02T04:29:09Z</time>
      </trkpt>
      <trkpt lat="44.05444" lon="2.98712">
        <ele>389.9</ele>
        <time>2016-07-02T04:29:10Z</time>
      </trkpt>
      <trkpt lat="44.05442" lon="2.98713">
        <ele>389.9</ele>
        <time>2016-07-02T04:29:11Z</time>
      </trkpt>
      <trkpt lat="44.05439" lon="2.98714">
        <ele>389.9</ele>
        <time>2016-07-02T04:29:12Z</time>
      </trkpt>
      <trkpt lat="44.05436" lon="2.98715">
        <ele>389.9</ele>
        <time>2016-07-02T04:29:13Z</time>
      </trkpt>
      <trkpt lat="44.05434" lon="2.98716">
        <ele>389.9</ele>
        <time>2016-07-02T04:29:14Z</time>
      </trkpt>
      <trkpt lat="44.05431" lon="2.98717">
        <ele>389.9</ele>
        <time>2016-07-02T04:29:15Z</time>
      </trkpt>
      <trkpt lat="44.05428" lon="2.98718">
        <ele>389.9</ele>
        <time>2016-07-02T04:29:16Z</time>
      </trkpt>
      <trkpt lat="44.05426" lon="2.98719">
        <ele>389.9</ele>
        <time>2016-07-02T04:29:17Z</time>
      </trkpt>
      <trkpt lat="44.05423" lon="2.9872">
        <ele>389.9</ele>
        <time>2016-07-02T04:29:18Z</time>
      </trkpt>
      <trkpt lat="44.0542" lon="2.98721">
        <ele>389.9</ele>
        <time>2016-07-02T04:29:19Z</time>
      </trkpt>
      <trkpt lat="44.05418" lon="2.98722">
        <ele>389.9</ele>
        <time>2016-07-02T04:29:20Z</time>
      </trkpt>
      <trkpt lat="44.05415" lon="2.98724">
        <ele>389.9</ele>
        <time>2016-07-02T04:29:21Z</time>
      </trkpt>
      <trkpt lat="44.05413" lon="2.98725">
        <ele>389.9</ele>
        <time>2016-07-02T04:29:22Z</time>
      </trkpt>
      <trkpt lat="44.0541" lon="2.98726">
        <ele>389.8</ele>
        <time>2016-07-02T04:29:23Z</time>
      </trkpt>
      <trkpt lat="44.05408" lon="2.98727">
        <ele>389.8</ele>
        <time>2016-07-02T04:29:24Z</time>
      </trkpt>
      <trkpt lat="44.05405" lon="2.98728">
        <ele>389.8</ele>
        <time>2016-07-02T04:29:25Z</time>
      </trkpt>
      <trkpt lat="44.05403" lon="2.98729">
        <ele>389.8</ele>
        <time>2016-07-02T04:29:26Z</time>
      </trkpt>
      <trkpt lat="44.054" lon="2.9873">
        <ele>389.8</ele>
        <time>2016-07-02T04:29:27Z</time>
      </trkpt>
      <trkpt lat="44.05398" lon="2.98731">
        <ele>389.8</ele>
        <time>2016-07-02T04:29:28Z</time>
      </trkpt>
      <trkpt lat="44.05396" lon="2.98732">
        <ele>389.7</ele>
        <time>2016-07-02T04:29:29Z</time>
      </trkpt>
      <trkpt lat="44.05393" lon="2.98734">
        <ele>389.7</ele>
        <time>2016-07-02T04:29:30Z</time>
      </trkpt>
      <trkpt lat="44.05391" lon="2.98735">
        <ele>389.7</ele>
        <time>2016-07-02T04:29:31Z</time>
      </trkpt>
      <trkpt lat="44.05388" lon="2.98736">
        <ele>389.7</ele>
        <time>2016-07-02T04:29:32Z</time>
      </trkpt>
      <trkpt lat="44.05386" lon="2.98737">
        <ele>389.6</ele>
        <time>2016-07-02T04:29:33Z</time>
      </trkpt>
      <trkpt lat="44.05383" lon="2.98738">
        <ele>389.6</ele>
        <time>2016-07-02T04:29:34Z</time>
      </trkpt>
      <trkpt lat="44.05381" lon="2.98739">
        <ele>389.6</ele>
        <time>2016-07-02T04:29:35Z</time>
      </trkpt>
      <trkpt lat="44.05378" lon="2.98741">
        <ele>389.6</ele>
        <time>2016-07-02T04:29:36Z</time>
      </trkpt>
      <trkpt lat="44.05376" lon="2.98742">
        <ele>389.6</ele>
        <time>2016-07-02T04:29:37Z</time>
      </trkpt>
      <trkpt lat="44.05374" lon="2.98743">
        <ele>389.5</ele>
        <time>2016-07-02T04:29:38Z</time>
      </trkpt>
      <trkpt lat="44.05371" lon="2.98744">
        <ele>389.5</ele>
        <time>2016-07-02T04:29:39Z</time>
      </trkpt>
      <trkpt lat="44.05369" lon="2.98745">
        <ele>389.5</ele>
        <time>2016-07-02T04:29:40Z</time>
      </trkpt>
      <trkpt lat="44.05366" lon="2.98746">
        <ele>389.5</ele>
        <time>2016-07-02T04:29:41Z</time>
      </trkpt>
      <trkpt lat="44.05364" lon="2.98747">
        <ele>389.4</ele>
        <time>2016-07-02T04:29:42Z</time>
      </trkpt>
      <trkpt lat="44.05361" lon="2.98748">
        <ele>389.4</ele>
        <time>2016-07-02T04:29:43Z</time>
      </trkpt>
      <trkpt lat="44.05359" lon="2.98749">
        <ele>389.4</ele>
        <time>2016-07-02T04:29:44Z</time>
      </trkpt>
      <trkpt lat="44.05356" lon="2.9875">
        <ele>389.4</ele>
        <time>2016-07-02T04:29:45Z</time>
      </trkpt>
      <trkpt lat="44.05354" lon="2.98751">
        <ele>389.4</ele>
        <time>2016-07-02T04:29:46Z</time>
      </trkpt>
      <trkpt lat="44.05351" lon="2.98753">
        <ele>389.3</ele>
        <time>2016-07-02T04:29:47Z</time>
      </trkpt>
      <trkpt lat="44.05349" lon="2.98754">
        <ele>389.3</ele>
        <time>2016-07-02T04:29:48Z</time>
      </trkpt>
      <trkpt lat="44.05346" lon="2.98755">
        <ele>389.3</ele>
        <time>2016-07-02T04:29:49Z</time>
      </trkpt>
      <trkpt lat="44.05343" lon="2.98756">
        <ele>389.3</ele>
        <time>2016-07-02T04:29:50Z</time>
      </trkpt>
      <trkpt lat="44.05341" lon="2.98757">
        <ele>389.3</ele>
        <time>2016-07-02T04:29:51Z</time>
      </trkpt>
      <trkpt lat="44.05338" lon="2.98758">
        <ele>389.3</ele>
        <time>2016-07-02T04:29:52Z</time>
      </trkpt>
      <trkpt lat="44.05336" lon="2.98759">
        <ele>389.3</ele>
        <time>2016-07-02T04:29:53Z</time>
      </trkpt>
      <trkpt lat="44.05333" lon="2.9876">
        <ele>389.3</ele>
        <time>2016-07-02T04:29:54Z</time>
      </trkpt>
      <trkpt lat="44.0533" lon="2.9876">
        <ele>389.3</ele>
        <time>2016-07-02T04:29:55Z</time>
      </trkpt>
      <trkpt lat="44.05328" lon="2.98761">
        <ele>389.3</ele>
        <time>2016-07-02T04:29:56Z</time>
      </trkpt>
      <trkpt lat="44.05325" lon="2.98762">
        <ele>389.3</ele>
        <time>2016-07-02T04:29:57Z</time>
      </trkpt>
      <trkpt lat="44.05322" lon="2.98762">
        <ele>389.3</ele>
        <time>2016-07-02T04:29:58Z</time>
      </trkpt>
      <trkpt lat="44.0532" lon="2.98763">
        <ele>389.3</ele>
        <time>2016-07-02T04:29:59Z</time>
      </trkpt>
      <trkpt lat="44.05317" lon="2.98763">
        <ele>389.3</ele>
        <time>2016-07-02T04:30:00Z</time>
      </trkpt>
      <trkpt lat="44.05314" lon="2.98764">
        <ele>389.3</ele>
        <time>2016-07-02T04:30:01Z</time>
      </trkpt>
      <trkpt lat="44.05312" lon="2.98764">
        <ele>389.3</ele>
        <time>2016-07-02T04:30:02Z</time>
      </trkpt>
      <trkpt lat="44.05309" lon="2.98765">
        <ele>389.4</ele>
        <time>2016-07-02T04:30:03Z</time>
      </trkpt>
      <trkpt lat="44.05306" lon="2.98765">
        <ele>389.4</ele>
        <time>2016-07-02T04:30:04Z</time>
      </trkpt>
      <trkpt lat="44.05304" lon="2.98765">
        <ele>389.4</ele>
        <time>2016-07-02T04:30:05Z</time>
      </trkpt>
      <trkpt lat="44.05301" lon="2.98766">
        <ele>389.4</ele>
        <time>2016-07-02T04:30:06Z</time>
      </trkpt>
      <trkpt lat="44.05298" lon="2.98766">
        <ele>389.5</ele>
        <time>2016-07-02T04:30:07Z</time>
      </trkpt>
      <trkpt lat="44.05296" lon="2.98767">
        <ele>389.5</ele>
        <time>2016-07-02T04:30:08Z</time>
      </trkpt>
      <trkpt lat="44.05293" lon="2.98767">
        <ele>389.5</ele>
        <time>2016-07-02T04:30:09Z</time>
      </trkpt>
      <trkpt lat="44.05291" lon="2.98768">
        <ele>389.6</ele>
        <time>2016-07-02T04:30:10Z</time>
      </trkpt>
      <trkpt lat="44.05288" lon="2.98768">
        <ele>389.6</ele>
        <time>2016-07-02T04:30:11Z</time>
      </trkpt>
      <trkpt lat="44.05286" lon="2.98769">
        <ele>389.6</ele>
        <time>2016-07-02T04:30:12Z</time>
      </trkpt>
      <trkpt lat="44.05283" lon="2.9877">
        <ele>389.7</ele>
        <time>2016-07-02T04:30:13Z</time>
      </trkpt>
      <trkpt lat="44.0528" lon="2.98771">
        <ele>389.7</ele>
        <time>2016-07-02T04:30:14Z</time>
      </trkpt>
      <trkpt lat="44.05278" lon="2.98772">
        <ele>389.8</ele>
        <time>2016-07-02T04:30:15Z</time>
      </trkpt>
      <trkpt lat="44.05275" lon="2.98773">
        <ele>389.8</ele>
        <time>2016-07-02T04:30:16Z</time>
      </trkpt>
      <trkpt lat="44.05273" lon="2.98774">
        <ele>389.9</ele>
        <time>2016-07-02T04:30:17Z</time>
      </trkpt>
      <trkpt lat="44.0527" lon="2.98775">
        <ele>389.9</ele>
        <time>2016-07-02T04:30:18Z</time>
      </trkpt>
      <trkpt lat="44.05268" lon="2.98777">
        <ele>390</ele>
        <time>2016-07-02T04:30:19Z</time>
      </trkpt>
      <trkpt lat="44.05265" lon="2.98778">
        <ele>390</ele>
        <time>2016-07-02T04:30:20Z</time>
      </trkpt>
      <trkpt lat="44.05263" lon="2.98779">
        <ele>390.1</ele>
        <time>2016-07-02T04:30:21Z</time>
      </trkpt>
      <trkpt lat="44.05261" lon="2.98781">
        <ele>390.1</ele>
        <time>2016-07-02T04:30:22Z</time>
      </trkpt>
      <trkpt lat="44.05259" lon="2.98782">
        <ele>390.2</ele>
        <time>2016-07-02T04:30:23Z</time>
      </trkpt>
      <trkpt lat="44.05256" lon="2.98784">
        <ele>390.2</ele>
        <time>2016-07-02T04:30:24Z</time>
      </trkpt>
      <trkpt lat="44.05254" lon="2.98786">
        <ele>390.3</ele>
        <time>2016-07-02T04:30:25Z</time>
      </trkpt>
      <trkpt lat="44.05252" lon="2.98788">
        <ele>390.3</ele>
        <time>2016-07-02T04:30:26Z</time>
      </trkpt>
      <trkpt lat="44.05249" lon="2.9879">
        <ele>390.4</ele>
        <time>2016-07-02T04:30:27Z</time>
      </trkpt>
      <trkpt lat="44.05247" lon="2.98792">
        <ele>390.4</ele>
        <time>2016-07-02T04:30:28Z</time>
      </trkpt>
      <trkpt lat="44.05245" lon="2.98794">
        <ele>390.5</ele>
        <time>2016-07-02T04:30:29Z</time>
      </trkpt>
      <trkpt lat="44.05243" lon="2.98796">
        <ele>390.5</ele>
        <time>2016-07-02T04:30:30Z</time>
      </trkpt>
      <trkpt lat="44.05241" lon="2.98798">
        <ele>390.6</ele>
        <time>2016-07-02T04:30:31Z</time>
      </trkpt>
      <trkpt lat="44.05238" lon="2.988">
        <ele>390.6</ele>
        <time>2016-07-02T04:30:32Z</time>
      </trkpt>
      <trkpt lat="44.05236" lon="2.98802">
        <ele>390.7</ele>
        <time>2016-07-02T04:30:33Z</time>
      </trkpt>
      <trkpt lat="44.05234" lon="2.98804">
        <ele>390.8</ele>
        <time>2016-07-02T04:30:34Z</time>
      </trkpt>
      <trkpt lat="44.05232" lon="2.98806">
        <ele>390.8</ele>
        <time>2016-07-02T04:30:35Z</time>
      </trkpt>
      <trkpt lat="44.0523" lon="2.98808">
        <ele>390.9</ele>
        <time>2016-07-02T04:30:36Z</time>
      </trkpt>
      <trkpt lat="44.05228" lon="2.9881">
        <ele>390.9</ele>
        <time>2016-07-02T04:30:37Z</time>
      </trkpt>
      <trkpt lat="44.05226" lon="2.98812">
        <ele>391</ele>
        <time>2016-07-02T04:30:38Z</time>
      </trkpt>
      <trkpt lat="44.05224" lon="2.98814">
        <ele>391</ele>
        <time>2016-07-02T04:30:39Z</time>
      </trkpt>
      <trkpt lat="44.05222" lon="2.98816">
        <ele>391.1</ele>
        <time>2016-07-02T04:30:40Z</time>
      </trkpt>
      <trkpt lat="44.0522" lon="2.98818">
        <ele>391.2</ele>
        <time>2016-07-02T04:30:41Z</time>
      </trkpt>
      <trkpt lat="44.05218" lon="2.9882">
        <ele>391.2</ele>
        <time>2016-07-02T04:30:42Z</time>
      </trkpt>
      <trkpt lat="44.05216" lon="2.98822">
        <ele>391.3</ele>
        <time>2016-07-02T04:30:43Z</time>
      </trkpt>
      <trkpt lat="44.05214" lon="2.98824">
        <ele>391.3</ele>
        <time>2016-07-02T04:30:44Z</time>
      </trkpt>
      <trkpt lat="44.05212" lon="2.98825">
        <ele>391.4</ele>
        <time>2016-07-02T04:30:45Z</time>
      </trkpt>
      <trkpt lat="44.0521" lon="2.98827">
        <ele>391.5</ele>
        <time>2016-07-02T04:30:46Z</time>
      </trkpt>
      <trkpt lat="44.05208" lon="2.98829">
        <ele>391.5</ele>
        <time>2016-07-02T04:30:47Z</time>
      </trkpt>
      <trkpt lat="44.05206" lon="2.98831">
        <ele>391.6</ele>
        <time>2016-07-02T04:30:48Z</time>
      </trkpt>
      <trkpt lat="44.05203" lon="2.98832">
        <ele>391.7</ele>
        <time>2016-07-02T04:30:49Z</time>
      </trkpt>
      <trkpt lat="44.05201" lon="2.98834">
        <ele>391.7</ele>
        <time>2016-07-02T04:30:50Z</time>
      </trkpt>
      <trkpt lat="44.05199" lon="2.98835">
        <ele>391.8</ele>
        <time>2016-07-02T04:30:51Z</time>
      </trkpt>
      <trkpt lat="44.05197" lon="2.98837">
        <ele>391.8</ele>
        <time>2016-07-02T04:30:52Z</time>
      </trkpt>
      <trkpt lat="44.05194" lon="2.98838">
        <ele>391.9</ele>
        <time>2016-07-02T04:30:53Z</time>
      </trkpt>
      <trkpt lat="44.05192" lon="2.98839">
        <ele>392</ele>
        <time>2016-07-02T04:30:54Z</time>
      </trkpt>
      <trkpt lat="44.0519" lon="2.9884">
        <ele>392</ele>
        <time>2016-07-02T04:30:55Z</time>
      </trkpt>
      <trkpt lat="44.05187" lon="2.98841">
        <ele>392</ele>
        <time>2016-07-02T04:30:56Z</time>
      </trkpt>
      <trkpt lat="44.05185" lon="2.98842">
        <ele>391.9</ele>
        <time>2016-07-02T04:30:57Z</time>
      </trkpt>
      <trkpt lat="44.05183" lon="2.98843">
        <ele>391.9</ele>
        <time>2016-07-02T04:30:58Z</time>
      </trkpt>
      <trkpt lat="44.0518" lon="2.98844">
        <ele>391.9</ele>
        <time>2016-07-02T04:30:59Z</time>
      </trkpt>
      <trkpt lat="44.05178" lon="2.98844">
        <ele>391.8</ele>
        <time>2016-07-02T04:31:00Z</time>
      </trkpt>
      <trkpt lat="44.05175" lon="2.98845">
        <ele>391.8</ele>
        <time>2016-07-02T04:31:01Z</time>
      </trkpt>
      <trkpt lat="44.05173" lon="2.98845">
        <ele>391.8</ele>
        <time>2016-07-02T04:31:02Z</time>
      </trkpt>
      <trkpt lat="44.0517" lon="2.98845">
        <ele>391.8</ele>
        <time>2016-07-02T04:31:03Z</time>
      </trkpt>
      <trkpt lat="44.05168" lon="2.98846">
        <ele>391.7</ele>
        <time>2016-07-02T04:31:04Z</time>
      </trkpt>
      <trkpt lat="44.05165" lon="2.98846">
        <ele>391.7</ele>
        <time>2016-07-02T04:31:05Z</time>
      </trkpt>
      <trkpt lat="44.05163" lon="2.98846">
        <ele>391.7</ele>
        <time>2016-07-02T04:31:06Z</time>
      </trkpt>
      <trkpt lat="44.0516" lon="2.98846">
        <ele>391.6</ele>
        <time>2016-07-02T04:31:07Z</time>
      </trkpt>
      <trkpt lat="44.05158" lon="2.98846">
        <ele>391.6</ele>
        <time>2016-07-02T04:31:08Z</time>
      </trkpt>
      <trkpt lat="44.05155" lon="2.98846">
        <ele>391.6</ele>
        <time>2016-07-02T04:31:09Z</time>
      </trkpt>
      <trkpt lat="44.05153" lon="2.98846">
        <ele>391.6</ele>
        <time>2016-07-02T04:31:10Z</time>
      </trkpt>
      <trkpt lat="44.0515" lon="2.98846">
        <ele>391.5</ele>
        <time>2016-07-02T04:31:11Z</time>
      </trkpt>
      <trkpt lat="44.05148" lon="2.98846">
        <ele>391.5</ele>
        <time>2016-07-02T04:31:12Z</time>
      </trkpt>
      <trkpt lat="44.05145" lon="2.98846">
        <ele>391.4</ele>
        <time>2016-07-02T04:31:13Z</time>
      </trkpt>
      <trkpt lat="44.05142" lon="2.98846">
        <ele>391.4</ele>
        <time>2016-07-02T04:31:14Z</time>
      </trkpt>
      <trkpt lat="44.0514" lon="2.98846">
        <ele>391.4</ele>
        <time>2016-07-02T04:31:15Z</time>
      </trkpt>
      <trkpt lat="44.05137" lon="2.98846">
        <ele>391.3</ele>
        <time>2016-07-02T04:31:16Z</time>
      </trkpt>
      <trkpt lat="44.05135" lon="2.98847">
        <ele>391.3</ele>
        <time>2016-07-02T04:31:17Z</time>
      </trkpt>
      <trkpt lat="44.05132" lon="2.98847">
        <ele>391.2</ele>
        <time>2016-07-02T04:31:18Z</time>
      </trkpt>
      <trkpt lat="44.05129" lon="2.98847">
        <ele>391.2</ele>
        <time>2016-07-02T04:31:19Z</time>
      </trkpt>
      <trkpt lat="44.05127" lon="2.98847">
        <ele>391.1</ele>
        <time>2016-07-02T04:31:20Z</time>
      </trkpt>
      <trkpt lat="44.05124" lon="2.98847">
        <ele>391.1</ele>
        <time>2016-07-02T04:31:21Z</time>
      </trkpt>
      <trkpt lat="44.05121" lon="2.98848">
        <ele>391</ele>
        <time>2016-07-02T04:31:22Z</time>
      </trkpt>
      <trkpt lat="44.05119" lon="2.98848">
        <ele>391</ele>
        <time>2016-07-02T04:31:23Z</time>
      </trkpt>
      <trkpt lat="44.05116" lon="2.98848">
        <ele>390.9</ele>
        <time>2016-07-02T04:31:24Z</time>
      </trkpt>
      <trkpt lat="44.05113" lon="2.98849">
        <ele>390.8</ele>
        <time>2016-07-02T04:31:25Z</time>
      </trkpt>
      <trkpt lat="44.05111" lon="2.98849">
        <ele>390.8</ele>
        <time>2016-07-02T04:31:26Z</time>
      </trkpt>
      <trkpt lat="44.05108" lon="2.9885">
        <ele>390.7</ele>
        <time>2016-07-02T04:31:27Z</time>
      </trkpt>
      <trkpt lat="44.05105" lon="2.9885">
        <ele>390.6</ele>
        <time>2016-07-02T04:31:28Z</time>
      </trkpt>
      <trkpt lat="44.05103" lon="2.9885">
        <ele>390.6</ele>
        <time>2016-07-02T04:31:29Z</time>
      </trkpt>
      <trkpt lat="44.051" lon="2.98851">
        <ele>390.5</ele>
        <time>2016-07-02T04:31:30Z</time>
      </trkpt>
      <trkpt lat="44.05097" lon="2.98851">
        <ele>390.5</ele>
        <time>2016-07-02T04:31:31Z</time>
      </trkpt>
      <trkpt lat="44.05095" lon="2.98852">
        <ele>390.4</ele>
        <time>2016-07-02T04:31:32Z</time>
      </trkpt>
      <trkpt lat="44.05092" lon="2.98852">
        <ele>390.3</ele>
        <time>2016-07-02T04:31:33Z</time>
      </trkpt>
      <trkpt lat="44.05089" lon="2.98853">
        <ele>390.3</ele>
        <time>2016-07-02T04:31:34Z</time>
      </trkpt>
      <trkpt lat="44.05087" lon="2.98853">
        <ele>390.2</ele>
        <time>2016-07-02T04:31:35Z</time>
      </trkpt>
      <trkpt lat="44.05084" lon="2.98854">
        <ele>390.1</ele>
        <time>2016-07-02T04:31:36Z</time>
      </trkpt>
      <trkpt lat="44.05082" lon="2.98854">
        <ele>390.1</ele>
        <time>2016-07-02T04:31:37Z</time>
      </trkpt>
      <trkpt lat="44.05079" lon="2.98854">
        <ele>390</ele>
        <time>2016-07-02T04:31:38Z</time>
      </trkpt>
      <trkpt lat="44.05076" lon="2.98855">
        <ele>390</ele>
        <time>2016-07-02T04:31:39Z</time>
      </trkpt>
      <trkpt lat="44.05074" lon="2.98855">
        <ele>389.9</ele>
        <time>2016-07-02T04:31:40Z</time>
      </trkpt>
      <trkpt lat="44.05071" lon="2.98856">
        <ele>389.8</ele>
        <time>2016-07-02T04:31:41Z</time>
      </trkpt>
      <trkpt lat="44.05069" lon="2.98856">
        <ele>389.8</ele>
        <time>2016-07-02T04:31:42Z</time>
      </trkpt>
      <trkpt lat="44.05066" lon="2.98856">
        <ele>389.7</ele>
        <time>2016-07-02T04:31:43Z</time>
      </trkpt>
      <trkpt lat="44.05064" lon="2.98856">
        <ele>389.7</ele>
        <time>2016-07-02T04:31:44Z</time>
      </trkpt>
      <trkpt lat="44.05061" lon="2.98857">
        <ele>389.6</ele>
        <time>2016-07-02T04:31:45Z</time>
      </trkpt>
      <trkpt lat="44.05059" lon="2.98857">
        <ele>389.6</ele>
        <time>2016-07-02T04:31:46Z</time>
      </trkpt>
      <trkpt lat="44.05056" lon="2.98857">
        <ele>389.5</ele>
        <time>2016-07-02T04:31:47Z</time>
      </trkpt>
      <trkpt lat="44.05054" lon="2.98858">
        <ele>389.5</ele>
        <time>2016-07-02T04:31:48Z</time>
      </trkpt>
      <trkpt lat="44.05051" lon="2.98858">
        <ele>389.4</ele>
        <time>2016-07-02T04:31:49Z</time>
      </trkpt>
      <trkpt lat="44.05049" lon="2.98859">
        <ele>389.4</ele>
        <time>2016-07-02T04:31:50Z</time>
      </trkpt>
      <trkpt lat="44.05046" lon="2.98859">
        <ele>389.3</ele>
        <time>2016-07-02T04:31:51Z</time>
      </trkpt>
      <trkpt lat="44.05043" lon="2.9886">
        <ele>389.3</ele>
        <time>2016-07-02T04:31:52Z</time>
      </trkpt>
      <trkpt lat="44.05041" lon="2.98861">
        <ele>389.2</ele>
        <time>2016-07-02T04:31:53Z</time>
      </trkpt>
      <trkpt lat="44.05038" lon="2.98862">
        <ele>389.2</ele>
        <time>2016-07-02T04:31:54Z</time>
      </trkpt>
      <trkpt lat="44.05036" lon="2.98863">
        <ele>389.2</ele>
        <time>2016-07-02T04:31:55Z</time>
      </trkpt>
      <trkpt lat="44.05033" lon="2.98865">
        <ele>389.1</ele>
        <time>2016-07-02T04:31:56Z</time>
      </trkpt>
      <trkpt lat="44.0503" lon="2.98866">
        <ele>389.1</ele>
        <time>2016-07-02T04:31:57Z</time>
      </trkpt>
      <trkpt lat="44.05028" lon="2.98867">
        <ele>389</ele>
        <time>2016-07-02T04:31:58Z</time>
      </trkpt>
      <trkpt lat="44.05025" lon="2.98869">
        <ele>389</ele>
        <time>2016-07-02T04:31:59Z</time>
      </trkpt>
      <trkpt lat="44.05022" lon="2.98871">
        <ele>388.9</ele>
        <time>2016-07-02T04:32:00Z</time>
      </trkpt>
      <trkpt lat="44.0502" lon="2.98872">
        <ele>388.9</ele>
        <time>2016-07-02T04:32:01Z</time>
      </trkpt>
      <trkpt lat="44.05017" lon="2.98874">
        <ele>388.9</ele>
        <time>2016-07-02T04:32:02Z</time>
      </trkpt>
      <trkpt lat="44.05015" lon="2.98876">
        <ele>388.8</ele>
        <time>2016-07-02T04:32:03Z</time>
      </trkpt>
      <trkpt lat="44.05012" lon="2.98878">
        <ele>388.8</ele>
        <time>2016-07-02T04:32:04Z</time>
      </trkpt>
      <trkpt lat="44.05009" lon="2.98879">
        <ele>388.8</ele>
        <time>2016-07-02T04:32:05Z</time>
      </trkpt>
      <trkpt lat="44.05007" lon="2.98881">
        <ele>388.7</ele>
        <time>2016-07-02T04:32:06Z</time>
      </trkpt>
      <trkpt lat="44.05005" lon="2.98883">
        <ele>388.7</ele>
        <time>2016-07-02T04:32:07Z</time>
      </trkpt>
      <trkpt lat="44.05002" lon="2.98885">
        <ele>388.7</ele>
        <time>2016-07-02T04:32:08Z</time>
      </trkpt>
      <trkpt lat="44.05" lon="2.98886">
        <ele>388.7</ele>
        <time>2016-07-02T04:32:09Z</time>
      </trkpt>
      <trkpt lat="44.04997" lon="2.98888">
        <ele>388.6</ele>
        <time>2016-07-02T04:32:10Z</time>
      </trkpt>
      <trkpt lat="44.04995" lon="2.9889">
        <ele>388.6</ele>
        <time>2016-07-02T04:32:11Z</time>
      </trkpt>
      <trkpt lat="44.04992" lon="2.98892">
        <ele>388.6</ele>
        <time>2016-07-02T04:32:12Z</time>
      </trkpt>
      <trkpt lat="44.0499" lon="2.98894">
        <ele>388.6</ele>
        <time>2016-07-02T04:32:13Z</time>
      </trkpt>
      <trkpt lat="44.04987" lon="2.98895">
        <ele>388.6</ele>
        <time>2016-07-02T04:32:14Z</time>
      </trkpt>
      <trkpt lat="44.04985" lon="2.98897">
        <ele>388.6</ele>
        <time>2016-07-02T04:32:15Z</time>
      </trkpt>
      <trkpt lat="44.04982" lon="2.98899">
        <ele>388.6</ele>
        <time>2016-07-02T04:32:16Z</time>
      </trkpt>
      <trkpt lat="44.0498" lon="2.98901">
        <ele>388.6</ele>
        <time>2016-07-02T04:32:17Z</time>
      </trkpt>
      <trkpt lat="44.04977" lon="2.98902">
        <ele>388.6</ele>
        <time>2016-07-02T04:32:18Z</time>
      </trkpt>
      <trkpt lat="44.04975" lon="2.98904">
        <ele>388.6</ele>
        <time>2016-07-02T04:32:19Z</time>
      </trkpt>
      <trkpt lat="44.04973" lon="2.98906">
        <ele>388.6</ele>
        <time>2016-07-02T04:32:20Z</time>
      </trkpt>
      <trkpt lat="44.0497" lon="2.98907">
        <ele>388.6</ele>
        <time>2016-07-02T04:32:21Z</time>
      </trkpt>
      <trkpt lat="44.04968" lon="2.98909">
        <ele>388.6</ele>
        <time>2016-07-02T04:32:22Z</time>
      </trkpt>
      <trkpt lat="44.04966" lon="2.9891">
        <ele>388.6</ele>
        <time>2016-07-02T04:32:23Z</time>
      </trkpt>
      <trkpt lat="44.04963" lon="2.98912">
        <ele>388.6</ele>
        <time>2016-07-02T04:32:24Z</time>
      </trkpt>
      <trkpt lat="44.04961" lon="2.98914">
        <ele>388.6</ele>
        <time>2016-07-02T04:32:25Z</time>
      </trkpt>
      <trkpt lat="44.04958" lon="2.98915">
        <ele>388.6</ele>
        <time>2016-07-02T04:32:26Z</time>
      </trkpt>
      <trkpt lat="44.04956" lon="2.98917">
        <ele>388.7</ele>
        <time>2016-07-02T04:32:27Z</time>
      </trkpt>
      <trkpt lat="44.04954" lon="2.98918">
        <ele>388.7</ele>
        <time>2016-07-02T04:32:28Z</time>
      </trkpt>
      <trkpt lat="44.04951" lon="2.9892">
        <ele>388.7</ele>
        <time>2016-07-02T04:32:29Z</time>
      </trkpt>
      <trkpt lat="44.04949" lon="2.98921">
        <ele>388.7</ele>
        <time>2016-07-02T04:32:30Z</time>
      </trkpt>
      <trkpt lat="44.04947" lon="2.98922">
        <ele>388.8</ele>
        <time>2016-07-02T04:32:31Z</time>
      </trkpt>
      <trkpt lat="44.04945" lon="2.98924">
        <ele>388.8</ele>
        <time>2016-07-02T04:32:32Z</time>
      </trkpt>
      <trkpt lat="44.04942" lon="2.98925">
        <ele>388.8</ele>
        <time>2016-07-02T04:32:33Z</time>
      </trkpt>
      <trkpt lat="44.0494" lon="2.98927">
        <ele>388.9</ele>
        <time>2016-07-02T04:32:34Z</time>
      </trkpt>
      <trkpt lat="44.04937" lon="2.98928">
        <ele>388.9</ele>
        <time>2016-07-02T04:32:35Z</time>
      </trkpt>
      <trkpt lat="44.04935" lon="2.9893">
        <ele>388.9</ele>
        <time>2016-07-02T04:32:36Z</time>
      </trkpt>
      <trkpt lat="44.04933" lon="2.98931">
        <ele>389</ele>
        <time>2016-07-02T04:32:37Z</time>
      </trkpt>
      <trkpt lat="44.0493" lon="2.98932">
        <ele>389</ele>
        <time>2016-07-02T04:32:38Z</time>
      </trkpt>
      <trkpt lat="44.04928" lon="2.98934">
        <ele>388.8</ele>
        <time>2016-07-02T04:32:39Z</time>
      </trkpt>
      <trkpt lat="44.04926" lon="2.98935">
        <ele>388.6</ele>
        <time>2016-07-02T04:32:40Z</time>
      </trkpt>
      <trkpt lat="44.04924" lon="2.98937">
        <ele>388.4</ele>
        <time>2016-07-02T04:32:41Z</time>
      </trkpt>
      <trkpt lat="44.04921" lon="2.98938">
        <ele>388.2</ele>
        <time>2016-07-02T04:32:42Z</time>
      </trkpt>
      <trkpt lat="44.04919" lon="2.9894">
        <ele>388</ele>
        <time>2016-07-02T04:32:43Z</time>
      </trkpt>
      <trkpt lat="44.04917" lon="2.98942">
        <ele>387.8</ele>
        <time>2016-07-02T04:32:44Z</time>
      </trkpt>
      <trkpt lat="44.04914" lon="2.98943">
        <ele>387.6</ele>
        <time>2016-07-02T04:32:45Z</time>
      </trkpt>
      <trkpt lat="44.04912" lon="2.98945">
        <ele>387.4</ele>
        <time>2016-07-02T04:32:46Z</time>
      </trkpt>
      <trkpt lat="44.0491" lon="2.98947">
        <ele>387.3</ele>
        <time>2016-07-02T04:32:47Z</time>
      </trkpt>
      <trkpt lat="44.04908" lon="2.98948">
        <ele>387.1</ele>
        <time>2016-07-02T04:32:48Z</time>
      </trkpt>
      <trkpt lat="44.04905" lon="2.9895">
        <ele>387</ele>
        <time>2016-07-02T04:32:49Z</time>
      </trkpt>
      <trkpt lat="44.04903" lon="2.98952">
        <ele>387.1</ele>
        <time>2016-07-02T04:32:50Z</time>
      </trkpt>
      <trkpt lat="44.04901" lon="2.98954">
        <ele>387.2</ele>
        <time>2016-07-02T04:32:51Z</time>
      </trkpt>
      <trkpt lat="44.04898" lon="2.98956">
        <ele>387.3</ele>
        <time>2016-07-02T04:32:52Z</time>
      </trkpt>
      <trkpt lat="44.04897" lon="2.98958">
        <ele>387.4</ele>
        <time>2016-07-02T04:32:53Z</time>
      </trkpt>
      <trkpt lat="44.04894" lon="2.9896">
        <ele>387.5</ele>
        <time>2016-07-02T04:32:54Z</time>
      </trkpt>
      <trkpt lat="44.04892" lon="2.98962">
        <ele>387.6</ele>
        <time>2016-07-02T04:32:55Z</time>
      </trkpt>
      <trkpt lat="44.0489" lon="2.98963">
        <ele>387.6</ele>
        <time>2016-07-02T04:32:56Z</time>
      </trkpt>
      <trkpt lat="44.04887" lon="2.98965">
        <ele>387.7</ele>
        <time>2016-07-02T04:32:57Z</time>
      </trkpt>
      <trkpt lat="44.04885" lon="2.98967">
        <ele>387.8</ele>
        <time>2016-07-02T04:32:58Z</time>
      </trkpt>
      <trkpt lat="44.04883" lon="2.98969">
        <ele>387.9</ele>
        <time>2016-07-02T04:32:59Z</time>
      </trkpt>
      <trkpt lat="44.04881" lon="2.98971">
        <ele>388</ele>
        <time>2016-07-02T04:33:00Z</time>
      </trkpt>
      <trkpt lat="44.04879" lon="2.98972">
        <ele>388.1</ele>
        <time>2016-07-02T04:33:01Z</time>
      </trkpt>
      <trkpt lat="44.04877" lon="2.98974">
        <ele>388.2</ele>
        <time>2016-07-02T04:33:02Z</time>
      </trkpt>
      <trkpt lat="44.04875" lon="2.98975">
        <ele>388.2</ele>
        <time>2016-07-02T04:33:03Z</time>
      </trkpt>
      <trkpt lat="44.04873" lon="2.98977">
        <ele>388.3</ele>
        <time>2016-07-02T04:33:04Z</time>
      </trkpt>
      <trkpt lat="44.04871" lon="2.98978">
        <ele>388.4</ele>
        <time>2016-07-02T04:33:05Z</time>
      </trkpt>
      <trkpt lat="44.04868" lon="2.98979">
        <ele>388.5</ele>
        <time>2016-07-02T04:33:06Z</time>
      </trkpt>
      <trkpt lat="44.04866" lon="2.9898">
        <ele>388.6</ele>
        <time>2016-07-02T04:33:07Z</time>
      </trkpt>
      <trkpt lat="44.04864" lon="2.98982">
        <ele>388.7</ele>
        <time>2016-07-02T04:33:08Z</time>
      </trkpt>
      <trkpt lat="44.04862" lon="2.98983">
        <ele>388.8</ele>
        <time>2016-07-02T04:33:09Z</time>
      </trkpt>
      <trkpt lat="44.0486" lon="2.98984">
        <ele>388.9</ele>
        <time>2016-07-02T04:33:10Z</time>
      </trkpt>
      <trkpt lat="44.04858" lon="2.98985">
        <ele>389</ele>
        <time>2016-07-02T04:33:11Z</time>
      </trkpt>
      <trkpt lat="44.04856" lon="2.98986">
        <ele>389.1</ele>
        <time>2016-07-02T04:33:12Z</time>
      </trkpt>
      <trkpt lat="44.04853" lon="2.98987">
        <ele>389.2</ele>
        <time>2016-07-02T04:33:13Z</time>
      </trkpt>
      <trkpt lat="44.04851" lon="2.98988">
        <ele>389.3</ele>
        <time>2016-07-02T04:33:14Z</time>
      </trkpt>
      <trkpt lat="44.04849" lon="2.98988">
        <ele>389.4</ele>
        <time>2016-07-02T04:33:15Z</time>
      </trkpt>
      <trkpt lat="44.04847" lon="2.98989">
        <ele>389.5</ele>
        <time>2016-07-02T04:33:16Z</time>
      </trkpt>
      <trkpt lat="44.04844" lon="2.9899">
        <ele>389.6</ele>
        <time>2016-07-02T04:33:17Z</time>
      </trkpt>
      <trkpt lat="44.04842" lon="2.98991">
        <ele>389.7</ele>
        <time>2016-07-02T04:33:18Z</time>
      </trkpt>
      <trkpt lat="44.0484" lon="2.98992">
        <ele>389.8</ele>
        <time>2016-07-02T04:33:19Z</time>
      </trkpt>
      <trkpt lat="44.04837" lon="2.98993">
        <ele>389.9</ele>
        <time>2016-07-02T04:33:20Z</time>
      </trkpt>
      <trkpt lat="44.04835" lon="2.98995">
        <ele>390.1</ele>
        <time>2016-07-02T04:33:21Z</time>
      </trkpt>
      <trkpt lat="44.04832" lon="2.98996">
        <ele>390.2</ele>
        <time>2016-07-02T04:33:22Z</time>
      </trkpt>
      <trkpt lat="44.0483" lon="2.98997">
        <ele>390.3</ele>
        <time>2016-07-02T04:33:23Z</time>
      </trkpt>
      <trkpt lat="44.04828" lon="2.98999">
        <ele>390.4</ele>
        <time>2016-07-02T04:33:24Z</time>
      </trkpt>
      <trkpt lat="44.04826" lon="2.99">
        <ele>390.5</ele>
        <time>2016-07-02T04:33:25Z</time>
      </trkpt>
      <trkpt lat="44.04824" lon="2.99002">
        <ele>390.6</ele>
        <time>2016-07-02T04:33:26Z</time>
      </trkpt>
      <trkpt lat="44.04821" lon="2.99004">
        <ele>390.7</ele>
        <time>2016-07-02T04:33:27Z</time>
      </trkpt>
      <trkpt lat="44.04819" lon="2.99006">
        <ele>390.9</ele>
        <time>2016-07-02T04:33:28Z</time>
      </trkpt>
      <trkpt lat="44.04817" lon="2.99008">
        <ele>391</ele>
        <time>2016-07-02T04:33:29Z</time>
      </trkpt>
      <trkpt lat="44.04815" lon="2.9901">
        <ele>391.1</ele>
        <time>2016-07-02T04:33:30Z</time>
      </trkpt>
      <trkpt lat="44.04813" lon="2.99012">
        <ele>391.2</ele>
        <time>2016-07-02T04:33:31Z</time>
      </trkpt>
      <trkpt lat="44.04811" lon="2.99014">
        <ele>391.3</ele>
        <time>2016-07-02T04:33:32Z</time>
      </trkpt>
      <trkpt lat="44.04809" lon="2.99016">
        <ele>391.5</ele>
        <time>2016-07-02T04:33:33Z</time>
      </trkpt>
      <trkpt lat="44.04807" lon="2.99019">
        <ele>391.6</ele>
        <time>2016-07-02T04:33:34Z</time>
      </trkpt>
      <trkpt lat="44.04805" lon="2.99021">
        <ele>391.7</ele>
        <time>2016-07-02T04:33:35Z</time>
      </trkpt>
      <trkpt lat="44.04803" lon="2.99024">
        <ele>391.8</ele>
        <time>2016-07-02T04:33:36Z</time>
      </trkpt>
      <trkpt lat="44.04801" lon="2.99026">
        <ele>391.9</ele>
        <time>2016-07-02T04:33:37Z</time>
      </trkpt>
      <trkpt lat="44.04799" lon="2.99029">
        <ele>392.1</ele>
        <time>2016-07-02T04:33:38Z</time>
      </trkpt>
      <trkpt lat="44.04797" lon="2.99031">
        <ele>392.2</ele>
        <time>2016-07-02T04:33:39Z</time>
      </trkpt>
      <trkpt lat="44.04795" lon="2.99034">
        <ele>392.3</ele>
        <time>2016-07-02T04:33:40Z</time>
      </trkpt>
      <trkpt lat="44.04794" lon="2.99036">
        <ele>392.4</ele>
        <time>2016-07-02T04:33:41Z</time>
      </trkpt>
      <trkpt lat="44.04792" lon="2.99039">
        <ele>392.6</ele>
        <time>2016-07-02T04:33:42Z</time>
      </trkpt>
      <trkpt lat="44.0479" lon="2.99042">
        <ele>392.7</ele>
        <time>2016-07-02T04:33:43Z</time>
      </trkpt>
      <trkpt lat="44.04788" lon="2.99044">
        <ele>392.8</ele>
        <time>2016-07-02T04:33:44Z</time>
      </trkpt>
      <trkpt lat="44.04786" lon="2.99047">
        <ele>392.9</ele>
        <time>2016-07-02T04:33:45Z</time>
      </trkpt>
      <trkpt lat="44.04784" lon="2.99049">
        <ele>393</ele>
        <time>2016-07-02T04:33:46Z</time>
      </trkpt>
      <trkpt lat="44.04782" lon="2.99052">
        <ele>393.2</ele>
        <time>2016-07-02T04:33:47Z</time>
      </trkpt>
      <trkpt lat="44.04781" lon="2.99054">
        <ele>393.3</ele>
        <time>2016-07-02T04:33:48Z</time>
      </trkpt>
      <trkpt lat="44.04779" lon="2.99057">
        <ele>393.4</ele>
        <time>2016-07-02T04:33:49Z</time>
      </trkpt>
      <trkpt lat="44.04777" lon="2.99059">
        <ele>393.5</ele>
        <time>2016-07-02T04:33:50Z</time>
      </trkpt>
      <trkpt lat="44.04775" lon="2.99062">
        <ele>393.6</ele>
        <time>2016-07-02T04:33:51Z</time>
      </trkpt>
      <trkpt lat="44.04774" lon="2.99064">
        <ele>393.7</ele>
        <time>2016-07-02T04:33:52Z</time>
      </trkpt>
      <trkpt lat="44.04772" lon="2.99066">
        <ele>393.8</ele>
        <time>2016-07-02T04:33:53Z</time>
      </trkpt>
      <trkpt lat="44.0477" lon="2.99069">
        <ele>393.9</ele>
        <time>2016-07-02T04:33:54Z</time>
      </trkpt>
      <trkpt lat="44.04768" lon="2.99071">
        <ele>394</ele>
        <time>2016-07-02T04:33:55Z</time>
      </trkpt>
      <trkpt lat="44.04767" lon="2.99074">
        <ele>394.1</ele>
        <time>2016-07-02T04:33:56Z</time>
      </trkpt>
      <trkpt lat="44.04765" lon="2.99076">
        <ele>394.2</ele>
        <time>2016-07-02T04:33:57Z</time>
      </trkpt>
      <trkpt lat="44.04763" lon="2.99078">
        <ele>394.3</ele>
        <time>2016-07-02T04:33:58Z</time>
      </trkpt>
      <trkpt lat="44.04762" lon="2.9908">
        <ele>394.4</ele>
        <time>2016-07-02T04:33:59Z</time>
      </trkpt>
      <trkpt lat="44.0476" lon="2.99083">
        <ele>394.5</ele>
        <time>2016-07-02T04:34:00Z</time>
      </trkpt>
      <trkpt lat="44.04758" lon="2.99085">
        <ele>394.5</ele>
        <time>2016-07-02T04:34:01Z</time>
      </trkpt>
      <trkpt lat="44.04757" lon="2.99087">
        <ele>394.6</ele>
        <time>2016-07-02T04:34:02Z</time>
      </trkpt>
      <trkpt lat="44.04755" lon="2.9909">
        <ele>394.7</ele>
        <time>2016-07-02T04:34:03Z</time>
      </trkpt>
      <trkpt lat="44.04753" lon="2.99092">
        <ele>394.8</ele>
        <time>2016-07-02T04:34:04Z</time>
      </trkpt>
      <trkpt lat="44.04752" lon="2.99094">
        <ele>394.8</ele>
        <time>2016-07-02T04:34:05Z</time>
      </trkpt>
      <trkpt lat="44.0475" lon="2.99096">
        <ele>394.9</ele>
        <time>2016-07-02T04:34:06Z</time>
      </trkpt>
      <trkpt lat="44.04748" lon="2.99099">
        <ele>395</ele>
        <time>2016-07-02T04:34:07Z</time>
      </trkpt>
      <trkpt lat="44.04747" lon="2.99101">
        <ele>395</ele>
        <time>2016-07-02T04:34:08Z</time>
      </trkpt>
      <trkpt lat="44.04745" lon="2.99103">
        <ele>395.1</ele>
        <time>2016-07-02T04:34:09Z</time>
      </trkpt>
      <trkpt lat="44.04743" lon="2.99106">
        <ele>395.1</ele>
        <time>2016-07-02T04:34:10Z</time>
      </trkpt>
      <trkpt lat="44.04742" lon="2.99108">
        <ele>395.2</ele>
        <time>2016-07-02T04:34:11Z</time>
      </trkpt>
      <trkpt lat="44.0474" lon="2.9911">
        <ele>395.2</ele>
        <time>2016-07-02T04:34:12Z</time>
      </trkpt>
      <trkpt lat="44.04739" lon="2.99112">
        <ele>395.3</ele>
        <time>2016-07-02T04:34:13Z</time>
      </trkpt>
      <trkpt lat="44.04737" lon="2.99115">
        <ele>395.3</ele>
        <time>2016-07-02T04:34:14Z</time>
      </trkpt>
      <trkpt lat="44.04736" lon="2.99117">
        <ele>395.4</ele>
        <time>2016-07-02T04:34:15Z</time>
      </trkpt>
      <trkpt lat="44.04734" lon="2.99119">
        <ele>395.4</ele>
        <time>2016-07-02T04:34:16Z</time>
      </trkpt>
      <trkpt lat="44.04733" lon="2.99122">
        <ele>395.5</ele>
        <time>2016-07-02T04:34:17Z</time>
      </trkpt>
      <trkpt lat="44.04731" lon="2.99124">
        <ele>395.5</ele>
        <time>2016-07-02T04:34:18Z</time>
      </trkpt>
      <trkpt lat="44.0473" lon="2.99127">
        <ele>395.6</ele>
        <time>2016-07-02T04:34:19Z</time>
      </trkpt>
      <trkpt lat="44.04728" lon="2.99129">
        <ele>395.6</ele>
        <time>2016-07-02T04:34:20Z</time>
      </trkpt>
      <trkpt lat="44.04727" lon="2.99131">
        <ele>395.6</ele>
        <time>2016-07-02T04:34:21Z</time>
      </trkpt>
      <trkpt lat="44.04726" lon="2.99134">
        <ele>395.7</ele>
        <time>2016-07-02T04:34:22Z</time>
      </trkpt>
      <trkpt lat="44.04725" lon="2.99136">
        <ele>395.7</ele>
        <time>2016-07-02T04:34:23Z</time>
      </trkpt>
      <trkpt lat="44.04723" lon="2.99139">
        <ele>395.7</ele>
        <time>2016-07-02T04:34:24Z</time>
      </trkpt>
      <trkpt lat="44.04722" lon="2.99142">
        <ele>395.8</ele>
        <time>2016-07-02T04:34:25Z</time>
      </trkpt>
      <trkpt lat="44.04721" lon="2.99144">
        <ele>395.8</ele>
        <time>2016-07-02T04:34:26Z</time>
      </trkpt>
      <trkpt lat="44.0472" lon="2.99147">
        <ele>395.8</ele>
        <time>2016-07-02T04:34:27Z</time>
      </trkpt>
      <trkpt lat="44.04718" lon="2.99149">
        <ele>395.9</ele>
        <time>2016-07-02T04:34:28Z</time>
      </trkpt>
      <trkpt lat="44.04717" lon="2.99152">
        <ele>395.9</ele>
        <time>2016-07-02T04:34:29Z</time>
      </trkpt>
      <trkpt lat="44.04716" lon="2.99155">
        <ele>395.9</ele>
        <time>2016-07-02T04:34:30Z</time>
      </trkpt>
      <trkpt lat="44.04715" lon="2.99158">
        <ele>396</ele>
        <time>2016-07-02T04:34:31Z</time>
      </trkpt>
      <trkpt lat="44.04714" lon="2.9916">
        <ele>396</ele>
        <time>2016-07-02T04:34:32Z</time>
      </trkpt>
      <trkpt lat="44.04713" lon="2.99163">
        <ele>396</ele>
        <time>2016-07-02T04:34:33Z</time>
      </trkpt>
      <trkpt lat="44.04712" lon="2.99166">
        <ele>396</ele>
        <time>2016-07-02T04:34:34Z</time>
      </trkpt>
      <trkpt lat="44.04711" lon="2.99169">
        <ele>396.1</ele>
        <time>2016-07-02T04:34:35Z</time>
      </trkpt>
      <trkpt lat="44.0471" lon="2.99172">
        <ele>396.1</ele>
        <time>2016-07-02T04:34:36Z</time>
      </trkpt>
      <trkpt lat="44.04709" lon="2.99175">
        <ele>396.1</ele>
        <time>2016-07-02T04:34:37Z</time>
      </trkpt>
      <trkpt lat="44.04709" lon="2.99178">
        <ele>396.1</ele>
        <time>2016-07-02T04:34:38Z</time>
      </trkpt>
      <trkpt lat="44.04708" lon="2.99181">
        <ele>396.2</ele>
        <time>2016-07-02T04:34:39Z</time>
      </trkpt>
      <trkpt lat="44.04707" lon="2.99184">
        <ele>396.2</ele>
        <time>2016-07-02T04:34:40Z</time>
      </trkpt>
      <trkpt lat="44.04707" lon="2.99187">
        <ele>396.2</ele>
        <time>2016-07-02T04:34:41Z</time>
      </trkpt>
      <trkpt lat="44.04707" lon="2.9919">
        <ele>396.2</ele>
        <time>2016-07-02T04:34:42Z</time>
      </trkpt>
      <trkpt lat="44.04706" lon="2.99193">
        <ele>396.3</ele>
        <time>2016-07-02T04:34:43Z</time>
      </trkpt>
      <trkpt lat="44.04706" lon="2.99197">
        <ele>396.3</ele>
        <time>2016-07-02T04:34:44Z</time>
      </trkpt>
      <trkpt lat="44.04706" lon="2.992">
        <ele>396.3</ele>
        <time>2016-07-02T04:34:45Z</time>
      </trkpt>
      <trkpt lat="44.04706" lon="2.99203">
        <ele>396.3</ele>
        <time>2016-07-02T04:34:46Z</time>
      </trkpt>
      <trkpt lat="44.04705" lon="2.99206">
        <ele>396.4</ele>
        <time>2016-07-02T04:34:47Z</time>
      </trkpt>
      <trkpt lat="44.04706" lon="2.99209">
        <ele>396.4</ele>
        <time>2016-07-02T04:34:48Z</time>
      </trkpt>
      <trkpt lat="44.04706" lon="2.99213">
        <ele>396.4</ele>
        <time>2016-07-02T04:34:49Z</time>
      </trkpt>
      <trkpt lat="44.04706" lon="2.99216">
        <ele>396.5</ele>
        <time>2016-07-02T04:34:50Z</time>
      </trkpt>
      <trkpt lat="44.04706" lon="2.99219">
        <ele>396.5</ele>
        <time>2016-07-02T04:34:51Z</time>
      </trkpt>
      <trkpt lat="44.04707" lon="2.99222">
        <ele>396.5</ele>
        <time>2016-07-02T04:34:52Z</time>
      </trkpt>
      <trkpt lat="44.04707" lon="2.99226">
        <ele>396.5</ele>
        <time>2016-07-02T04:34:53Z</time>
      </trkpt>
      <trkpt lat="44.04707" lon="2.99229">
        <ele>396.6</ele>
        <time>2016-07-02T04:34:54Z</time>
      </trkpt>
      <trkpt lat="44.04707" lon="2.99232">
        <ele>396.6</ele>
        <time>2016-07-02T04:34:55Z</time>
      </trkpt>
      <trkpt lat="44.04707" lon="2.99236">
        <ele>396.7</ele>
        <time>2016-07-02T04:34:56Z</time>
      </trkpt>
      <trkpt lat="44.04708" lon="2.99239">
        <ele>396.7</ele>
        <time>2016-07-02T04:34:57Z</time>
      </trkpt>
      <trkpt lat="44.04708" lon="2.99242">
        <ele>396.7</ele>
        <time>2016-07-02T04:34:58Z</time>
      </trkpt>
      <trkpt lat="44.04708" lon="2.99246">
        <ele>396.8</ele>
        <time>2016-07-02T04:34:59Z</time>
      </trkpt>
      <trkpt lat="44.04708" lon="2.99249">
        <ele>396.8</ele>
        <time>2016-07-02T04:35:00Z</time>
      </trkpt>
      <trkpt lat="44.04708" lon="2.99253">
        <ele>396.8</ele>
        <time>2016-07-02T04:35:01Z</time>
      </trkpt>
      <trkpt lat="44.04708" lon="2.99256">
        <ele>396.9</ele>
        <time>2016-07-02T04:35:02Z</time>
      </trkpt>
      <trkpt lat="44.04708" lon="2.9926">
        <ele>396.9</ele>
        <time>2016-07-02T04:35:03Z</time>
      </trkpt>
      <trkpt lat="44.04708" lon="2.99263">
        <ele>397</ele>
        <time>2016-07-02T04:35:04Z</time>
      </trkpt>
      <trkpt lat="44.04708" lon="2.99267">
        <ele>397</ele>
        <time>2016-07-02T04:35:05Z</time>
      </trkpt>
      <trkpt lat="44.04707" lon="2.9927">
        <ele>397.1</ele>
        <time>2016-07-02T04:35:06Z</time>
      </trkpt>
      <trkpt lat="44.04707" lon="2.99273">
        <ele>397.1</ele>
        <time>2016-07-02T04:35:07Z</time>
      </trkpt>
      <trkpt lat="44.04707" lon="2.99277">
        <ele>397.2</ele>
        <time>2016-07-02T04:35:08Z</time>
      </trkpt>
      <trkpt lat="44.04706" lon="2.9928">
        <ele>397.2</ele>
        <time>2016-07-02T04:35:09Z</time>
      </trkpt>
      <trkpt lat="44.04705" lon="2.99283">
        <ele>397.3</ele>
        <time>2016-07-02T04:35:10Z</time>
      </trkpt>
      <trkpt lat="44.04704" lon="2.99286">
        <ele>397.3</ele>
        <time>2016-07-02T04:35:11Z</time>
      </trkpt>
      <trkpt lat="44.04703" lon="2.99289">
        <ele>397.4</ele>
        <time>2016-07-02T04:35:12Z</time>
      </trkpt>
      <trkpt lat="44.04702" lon="2.99291">
        <ele>397.4</ele>
        <time>2016-07-02T04:35:13Z</time>
      </trkpt>
      <trkpt lat="44.04701" lon="2.99294">
        <ele>397.5</ele>
        <time>2016-07-02T04:35:14Z</time>
      </trkpt>
      <trkpt lat="44.047" lon="2.99297">
        <ele>397.5</ele>
        <time>2016-07-02T04:35:15Z</time>
      </trkpt>
      <trkpt lat="44.04698" lon="2.993">
        <ele>397.6</ele>
        <time>2016-07-02T04:35:16Z</time>
      </trkpt>
      <trkpt lat="44.04697" lon="2.99302">
        <ele>397.6</ele>
        <time>2016-07-02T04:35:17Z</time>
      </trkpt>
      <trkpt lat="44.04696" lon="2.99305">
        <ele>397.7</ele>
        <time>2016-07-02T04:35:18Z</time>
      </trkpt>
      <trkpt lat="44.04694" lon="2.99307">
        <ele>397.7</ele>
        <time>2016-07-02T04:35:19Z</time>
      </trkpt>
      <trkpt lat="44.04692" lon="2.99309">
        <ele>397.8</ele>
        <time>2016-07-02T04:35:20Z</time>
      </trkpt>
      <trkpt lat="44.04691" lon="2.99312">
        <ele>397.8</ele>
        <time>2016-07-02T04:35:21Z</time>
      </trkpt>
      <trkpt lat="44.04689" lon="2.99314">
        <ele>397.9</ele>
        <time>2016-07-02T04:35:22Z</time>
      </trkpt>
      <trkpt lat="44.04688" lon="2.99317">
        <ele>397.9</ele>
        <time>2016-07-02T04:35:23Z</time>
      </trkpt>
      <trkpt lat="44.04686" lon="2.99319">
        <ele>398</ele>
        <time>2016-07-02T04:35:24Z</time>
      </trkpt>
      <trkpt lat="44.04685" lon="2.99321">
        <ele>398.1</ele>
        <time>2016-07-02T04:35:25Z</time>
      </trkpt>
      <trkpt lat="44.04683" lon="2.99324">
        <ele>398.1</ele>
        <time>2016-07-02T04:35:26Z</time>
      </trkpt>
      <trkpt lat="44.04682" lon="2.99326">
        <ele>398.2</ele>
        <time>2016-07-02T04:35:27Z</time>
      </trkpt>
      <trkpt lat="44.0468" lon="2.99328">
        <ele>398.2</ele>
        <time>2016-07-02T04:35:28Z</time>
      </trkpt>
      <trkpt lat="44.04678" lon="2.99331">
        <ele>398.3</ele>
        <time>2016-07-02T04:35:29Z</time>
      </trkpt>
      <trkpt lat="44.04677" lon="2.99333">
        <ele>398.3</ele>
        <time>2016-07-02T04:35:30Z</time>
      </trkpt>
      <trkpt lat="44.04676" lon="2.99335">
        <ele>398.4</ele>
        <time>2016-07-02T04:35:31Z</time>
      </trkpt>
      <trkpt lat="44.04674" lon="2.99338">
        <ele>398.4</ele>
        <time>2016-07-02T04:35:32Z</time>
      </trkpt>
      <trkpt lat="44.04673" lon="2.9934">
        <ele>398.4</ele>
        <time>2016-07-02T04:35:33Z</time>
      </trkpt>
      <trkpt lat="44.04671" lon="2.99343">
        <ele>398.5</ele>
        <time>2016-07-02T04:35:34Z</time>
      </trkpt>
      <trkpt lat="44.0467" lon="2.99345">
        <ele>398.5</ele>
        <time>2016-07-02T04:35:35Z</time>
      </trkpt>
      <trkpt lat="44.04669" lon="2.99348">
        <ele>398.6</ele>
        <time>2016-07-02T04:35:36Z</time>
      </trkpt>
      <trkpt lat="44.04668" lon="2.99351">
        <ele>398.6</ele>
        <time>2016-07-02T04:35:37Z</time>
      </trkpt>
      <trkpt lat="44.04667" lon="2.99353">
        <ele>398.6</ele>
        <time>2016-07-02T04:35:38Z</time>
      </trkpt>
      <trkpt lat="44.04666" lon="2.99356">
        <ele>398.7</ele>
        <time>2016-07-02T04:35:39Z</time>
      </trkpt>
      <trkpt lat="44.04665" lon="2.99359">
        <ele>398.7</ele>
        <time>2016-07-02T04:35:40Z</time>
      </trkpt>
      <trkpt lat="44.04664" lon="2.99361">
        <ele>398.8</ele>
        <time>2016-07-02T04:35:41Z</time>
      </trkpt>
      <trkpt lat="44.04663" lon="2.99364">
        <ele>398.8</ele>
        <time>2016-07-02T04:35:42Z</time>
      </trkpt>
      <trkpt lat="44.04662" lon="2.99367">
        <ele>398.8</ele>
        <time>2016-07-02T04:35:43Z</time>
      </trkpt>
      <trkpt lat="44.04662" lon="2.9937">
        <ele>398.9</ele>
        <time>2016-07-02T04:35:44Z</time>
      </trkpt>
      <trkpt lat="44.04661" lon="2.99373">
        <ele>398.9</ele>
        <time>2016-07-02T04:35:45Z</time>
      </trkpt>
      <trkpt lat="44.0466" lon="2.99376">
        <ele>398.9</ele>
        <time>2016-07-02T04:35:46Z</time>
      </trkpt>
      <trkpt lat="44.0466" lon="2.99379">
        <ele>399</ele>
        <time>2016-07-02T04:35:47Z</time>
      </trkpt>
      <trkpt lat="44.04659" lon="2.99382">
        <ele>399</ele>
        <time>2016-07-02T04:35:48Z</time>
      </trkpt>
      <trkpt lat="44.04659" lon="2.99385">
        <ele>399</ele>
        <time>2016-07-02T04:35:49Z</time>
      </trkpt>
      <trkpt lat="44.04658" lon="2.99388">
        <ele>399</ele>
        <time>2016-07-02T04:35:50Z</time>
      </trkpt>
      <trkpt lat="44.04657" lon="2.99392">
        <ele>399</ele>
        <time>2016-07-02T04:35:51Z</time>
      </trkpt>
      <trkpt lat="44.04657" lon="2.99395">
        <ele>399</ele>
        <time>2016-07-02T04:35:52Z</time>
      </trkpt>
      <trkpt lat="44.04656" lon="2.99398">
        <ele>399</ele>
        <time>2016-07-02T04:35:53Z</time>
      </trkpt>
      <trkpt lat="44.04655" lon="2.99401">
        <ele>399</ele>
        <time>2016-07-02T04:35:54Z</time>
      </trkpt>
      <trkpt lat="44.04655" lon="2.99404">
        <ele>399</ele>
        <time>2016-07-02T04:35:55Z</time>
      </trkpt>
      <trkpt lat="44.04654" lon="2.99408">
        <ele>399.1</ele>
        <time>2016-07-02T04:35:56Z</time>
      </trkpt>
      <trkpt lat="44.04653" lon="2.99411">
        <ele>399.5</ele>
        <time>2016-07-02T04:35:57Z</time>
      </trkpt>
      <trkpt lat="44.04652" lon="2.99414">
        <ele>400</ele>
        <time>2016-07-02T04:35:58Z</time>
      </trkpt>
      <trkpt lat="44.04651" lon="2.99417">
        <ele>400.5</ele>
        <time>2016-07-02T04:35:59Z</time>
      </trkpt>
      <trkpt lat="44.0465" lon="2.9942">
        <ele>401</ele>
        <time>2016-07-02T04:36:00Z</time>
      </trkpt>
      <trkpt lat="44.04648" lon="2.99423">
        <ele>401.4</ele>
        <time>2016-07-02T04:36:01Z</time>
      </trkpt>
      <trkpt lat="44.04647" lon="2.99426">
        <ele>401.9</ele>
        <time>2016-07-02T04:36:02Z</time>
      </trkpt>
      <trkpt lat="44.04646" lon="2.99429">
        <ele>402.4</ele>
        <time>2016-07-02T04:36:03Z</time>
      </trkpt>
      <trkpt lat="44.04644" lon="2.99432">
        <ele>402.8</ele>
        <time>2016-07-02T04:36:04Z</time>
      </trkpt>
      <trkpt lat="44.04643" lon="2.99435">
        <ele>403.3</ele>
        <time>2016-07-02T04:36:05Z</time>
      </trkpt>
      <trkpt lat="44.04641" lon="2.99437">
        <ele>403.7</ele>
        <time>2016-07-02T04:36:06Z</time>
      </trkpt>
      <trkpt lat="44.0464" lon="2.9944">
        <ele>404</ele>
        <time>2016-07-02T04:36:07Z</time>
      </trkpt>
      <trkpt lat="44.04639" lon="2.99442">
        <ele>403.9</ele>
        <time>2016-07-02T04:36:08Z</time>
      </trkpt>
      <trkpt lat="44.04637" lon="2.99445">
        <ele>403.9</ele>
        <time>2016-07-02T04:36:09Z</time>
      </trkpt>
      <trkpt lat="44.04635" lon="2.99447">
        <ele>403.8</ele>
        <time>2016-07-02T04:36:10Z</time>
      </trkpt>
      <trkpt lat="44.04634" lon="2.99449">
        <ele>403.8</ele>
        <time>2016-07-02T04:36:11Z</time>
      </trkpt>
      <trkpt lat="44.04632" lon="2.99451">
        <ele>403.8</ele>
        <time>2016-07-02T04:36:12Z</time>
      </trkpt>
      <trkpt lat="44.0463" lon="2.99453">
        <ele>403.7</ele>
        <time>2016-07-02T04:36:13Z</time>
      </trkpt>
      <trkpt lat="44.04629" lon="2.99455">
        <ele>403.7</ele>
        <time>2016-07-02T04:36:14Z</time>
      </trkpt>
      <trkpt lat="44.04627" lon="2.99457">
        <ele>403.6</ele>
        <time>2016-07-02T04:36:15Z</time>
      </trkpt>
      <trkpt lat="44.04625" lon="2.9946">
        <ele>403.6</ele>
        <time>2016-07-02T04:36:16Z</time>
      </trkpt>
      <trkpt lat="44.04624" lon="2.99462">
        <ele>403.5</ele>
        <time>2016-07-02T04:36:17Z</time>
      </trkpt>
      <trkpt lat="44.04622" lon="2.99464">
        <ele>403.5</ele>
        <time>2016-07-02T04:36:18Z</time>
      </trkpt>
      <trkpt lat="44.0462" lon="2.99467">
        <ele>403.4</ele>
        <time>2016-07-02T04:36:19Z</time>
      </trkpt>
      <trkpt lat="44.04619" lon="2.99469">
        <ele>403.4</ele>
        <time>2016-07-02T04:36:20Z</time>
      </trkpt>
      <trkpt lat="44.04617" lon="2.99472">
        <ele>403.3</ele>
        <time>2016-07-02T04:36:21Z</time>
      </trkpt>
      <trkpt lat="44.04615" lon="2.99474">
        <ele>403.3</ele>
        <time>2016-07-02T04:36:22Z</time>
      </trkpt>
      <trkpt lat="44.04614" lon="2.99477">
        <ele>403.2</ele>
        <time>2016-07-02T04:36:23Z</time>
      </trkpt>
      <trkpt lat="44.04612" lon="2.9948">
        <ele>403.2</ele>
        <time>2016-07-02T04:36:24Z</time>
      </trkpt>
      <trkpt lat="44.04611" lon="2.99482">
        <ele>403.1</ele>
        <time>2016-07-02T04:36:25Z</time>
      </trkpt>
      <trkpt lat="44.04609" lon="2.99485">
        <ele>403</ele>
        <time>2016-07-02T04:36:26Z</time>
      </trkpt>
      <trkpt lat="44.04608" lon="2.99488">
        <ele>403</ele>
        <time>2016-07-02T04:36:27Z</time>
      </trkpt>
      <trkpt lat="44.04606" lon="2.99491">
        <ele>402.9</ele>
        <time>2016-07-02T04:36:28Z</time>
      </trkpt>
      <trkpt lat="44.04605" lon="2.99494">
        <ele>402.9</ele>
        <time>2016-07-02T04:36:29Z</time>
      </trkpt>
      <trkpt lat="44.04604" lon="2.99497">
        <ele>402.8</ele>
        <time>2016-07-02T04:36:30Z</time>
      </trkpt>
      <trkpt lat="44.04602" lon="2.995">
        <ele>402.8</ele>
        <time>2016-07-02T04:36:31Z</time>
      </trkpt>
      <trkpt lat="44.04601" lon="2.99503">
        <ele>402.7</ele>
        <time>2016-07-02T04:36:32Z</time>
      </trkpt>
      <trkpt lat="44.046" lon="2.99507">
        <ele>402.7</ele>
        <time>2016-07-02T04:36:33Z</time>
      </trkpt>
      <trkpt lat="44.04599" lon="2.9951">
        <ele>402.6</ele>
        <time>2016-07-02T04:36:34Z</time>
      </trkpt>
      <trkpt lat="44.04598" lon="2.99513">
        <ele>402.6</ele>
        <time>2016-07-02T04:36:35Z</time>
      </trkpt>
      <trkpt lat="44.04597" lon="2.99516">
        <ele>402.5</ele>
        <time>2016-07-02T04:36:36Z</time>
      </trkpt>
      <trkpt lat="44.04596" lon="2.9952">
        <ele>402.5</ele>
        <time>2016-07-02T04:36:37Z</time>
      </trkpt>
      <trkpt lat="44.04595" lon="2.99523">
        <ele>402.4</ele>
        <time>2016-07-02T04:36:38Z</time>
      </trkpt>
      <trkpt lat="44.04594" lon="2.99526">
        <ele>402.4</ele>
        <time>2016-07-02T04:36:39Z</time>
      </trkpt>
      <trkpt lat="44.04593" lon="2.99529">
        <ele>402.3</ele>
        <time>2016-07-02T04:36:40Z</time>
      </trkpt>
      <trkpt lat="44.04593" lon="2.99533">
        <ele>402.3</ele>
        <time>2016-07-02T04:36:41Z</time>
      </trkpt>
      <trkpt lat="44.04592" lon="2.99536">
        <ele>402.2</ele>
        <time>2016-07-02T04:36:42Z</time>
      </trkpt>
      <trkpt lat="44.04591" lon="2.99539">
        <ele>402.2</ele>
        <time>2016-07-02T04:36:43Z</time>
      </trkpt>
      <trkpt lat="44.04591" lon="2.99543">
        <ele>402.1</ele>
        <time>2016-07-02T04:36:44Z</time>
      </trkpt>
      <trkpt lat="44.0459" lon="2.99546">
        <ele>402.1</ele>
        <time>2016-07-02T04:36:45Z</time>
      </trkpt>
      <trkpt lat="44.04589" lon="2.99549">
        <ele>402</ele>
        <time>2016-07-02T04:36:46Z</time>
      </trkpt>
      <trkpt lat="44.04589" lon="2.99552">
        <ele>402</ele>
        <time>2016-07-02T04:36:47Z</time>
      </trkpt>
      <trkpt lat="44.04588" lon="2.99556">
        <ele>402</ele>
        <time>2016-07-02T04:36:48Z</time>
      </trkpt>
      <trkpt lat="44.04588" lon="2.99559">
        <ele>401.9</ele>
        <time>2016-07-02T04:36:49Z</time>
      </trkpt>
      <trkpt lat="44.04588" lon="2.99562">
        <ele>401.9</ele>
        <time>2016-07-02T04:36:50Z</time>
      </trkpt>
      <trkpt lat="44.04587" lon="2.99566">
        <ele>401.8</ele>
        <time>2016-07-02T04:36:51Z</time>
      </trkpt>
      <trkpt lat="44.04587" lon="2.99569">
        <ele>401.8</ele>
        <time>2016-07-02T04:36:52Z</time>
      </trkpt>
      <trkpt lat="44.04586" lon="2.99572">
        <ele>401.7</ele>
        <time>2016-07-02T04:36:53Z</time>
      </trkpt>
      <trkpt lat="44.04586" lon="2.99576">
        <ele>401.7</ele>
        <time>2016-07-02T04:36:54Z</time>
      </trkpt>
      <trkpt lat="44.04585" lon="2.99579">
        <ele>401.7</ele>
        <time>2016-07-02T04:36:55Z</time>
      </trkpt>
      <trkpt lat="44.04585" lon="2.99583">
        <ele>401.6</ele>
        <time>2016-07-02T04:36:56Z</time>
      </trkpt>
      <trkpt lat="44.04585" lon="2.99586">
        <ele>401.6</ele>
        <time>2016-07-02T04:36:57Z</time>
      </trkpt>
      <trkpt lat="44.04584" lon="2.99589">
        <ele>401.6</ele>
        <time>2016-07-02T04:36:58Z</time>
      </trkpt>
      <trkpt lat="44.04583" lon="2.99593">
        <ele>401.5</ele>
        <time>2016-07-02T04:36:59Z</time>
      </trkpt>
      <trkpt lat="44.04583" lon="2.99596">
        <ele>401.5</ele>
        <time>2016-07-02T04:37:00Z</time>
      </trkpt>
      <trkpt lat="44.04582" lon="2.99599">
        <ele>401.4</ele>
        <time>2016-07-02T04:37:01Z</time>
      </trkpt>
      <trkpt lat="44.04582" lon="2.99603">
        <ele>401.4</ele>
        <time>2016-07-02T04:37:02Z</time>
      </trkpt>
      <trkpt lat="44.04581" lon="2.99606">
        <ele>401.4</ele>
        <time>2016-07-02T04:37:03Z</time>
      </trkpt>
      <trkpt lat="44.0458" lon="2.99609">
        <ele>401.3</ele>
        <time>2016-07-02T04:37:04Z</time>
      </trkpt>
      <trkpt lat="44.0458" lon="2.99612">
        <ele>401.3</ele>
        <time>2016-07-02T04:37:05Z</time>
      </trkpt>
      <trkpt lat="44.04579" lon="2.99616">
        <ele>401.2</ele>
        <time>2016-07-02T04:37:06Z</time>
      </trkpt>
      <trkpt lat="44.04578" lon="2.99619">
        <ele>401.2</ele>
        <time>2016-07-02T04:37:07Z</time>
      </trkpt>
      <trkpt lat="44.04577" lon="2.99622">
        <ele>401.2</ele>
        <time>2016-07-02T04:37:08Z</time>
      </trkpt>
      <trkpt lat="44.04576" lon="2.99625">
        <ele>401.1</ele>
        <time>2016-07-02T04:37:09Z</time>
      </trkpt>
      <trkpt lat="44.04576" lon="2.99628">
        <ele>401.1</ele>
        <time>2016-07-02T04:37:10Z</time>
      </trkpt>
      <trkpt lat="44.04575" lon="2.99632">
        <ele>401.1</ele>
        <time>2016-07-02T04:37:11Z</time>
      </trkpt>
      <trkpt lat="44.04574" lon="2.99635">
        <ele>401</ele>
        <time>2016-07-02T04:37:12Z</time>
      </trkpt>
      <trkpt lat="44.04573" lon="2.99638">
        <ele>401</ele>
        <time>2016-07-02T04:37:13Z</time>
      </trkpt>
      <trkpt lat="44.04572" lon="2.99641">
        <ele>401</ele>
        <time>2016-07-02T04:37:14Z</time>
      </trkpt>
      <trkpt lat="44.04571" lon="2.99644">
        <ele>401</ele>
        <time>2016-07-02T04:37:15Z</time>
      </trkpt>
      <trkpt lat="44.0457" lon="2.99647">
        <ele>401.1</ele>
        <time>2016-07-02T04:37:16Z</time>
      </trkpt>
      <trkpt lat="44.04568" lon="2.9965">
        <ele>401.1</ele>
        <time>2016-07-02T04:37:17Z</time>
      </trkpt>
      <trkpt lat="44.04567" lon="2.99653">
        <ele>401.1</ele>
        <time>2016-07-02T04:37:18Z</time>
      </trkpt>
      <trkpt lat="44.04566" lon="2.99656">
        <ele>401.1</ele>
        <time>2016-07-02T04:37:19Z</time>
      </trkpt>
      <trkpt lat="44.04565" lon="2.99659">
        <ele>401.1</ele>
        <time>2016-07-02T04:37:20Z</time>
      </trkpt>
      <trkpt lat="44.04564" lon="2.99662">
        <ele>401.2</ele>
        <time>2016-07-02T04:37:21Z</time>
      </trkpt>
      <trkpt lat="44.04563" lon="2.99665">
        <ele>401.2</ele>
        <time>2016-07-02T04:37:22Z</time>
      </trkpt>
      <trkpt lat="44.04562" lon="2.99668">
        <ele>401.2</ele>
        <time>2016-07-02T04:37:23Z</time>
      </trkpt>
      <trkpt lat="44.0456" lon="2.99671">
        <ele>401.2</ele>
        <time>2016-07-02T04:37:24Z</time>
      </trkpt>
      <trkpt lat="44.04559" lon="2.99673">
        <ele>401.2</ele>
        <time>2016-07-02T04:37:25Z</time>
      </trkpt>
      <trkpt lat="44.04557" lon="2.99676">
        <ele>401.3</ele>
        <time>2016-07-02T04:37:26Z</time>
      </trkpt>
      <trkpt lat="44.04556" lon="2.99679">
        <ele>401.3</ele>
        <time>2016-07-02T04:37:27Z</time>
      </trkpt>
      <trkpt lat="44.04555" lon="2.99682">
        <ele>401.3</ele>
        <time>2016-07-02T04:37:28Z</time>
      </trkpt>
      <trkpt lat="44.04553" lon="2.99685">
        <ele>401.4</ele>
        <time>2016-07-02T04:37:29Z</time>
      </trkpt>
      <trkpt lat="44.04552" lon="2.99687">
        <ele>401.4</ele>
        <time>2016-07-02T04:37:30Z</time>
      </trkpt>
      <trkpt lat="44.04551" lon="2.9969">
        <ele>401.4</ele>
        <time>2016-07-02T04:37:31Z</time>
      </trkpt>
      <trkpt lat="44.04549" lon="2.99693">
        <ele>401.4</ele>
        <time>2016-07-02T04:37:32Z</time>
      </trkpt>
      <trkpt lat="44.04548" lon="2.99695">
        <ele>401.5</ele>
        <time>2016-07-02T04:37:33Z</time>
      </trkpt>
      <trkpt lat="44.04546" lon="2.99698">
        <ele>401.5</ele>
        <time>2016-07-02T04:37:34Z</time>
      </trkpt>
      <trkpt lat="44.04545" lon="2.99701">
        <ele>401.5</ele>
        <time>2016-07-02T04:37:35Z</time>
      </trkpt>
      <trkpt lat="44.04543" lon="2.99704">
        <ele>401.5</ele>
        <time>2016-07-02T04:37:36Z</time>
      </trkpt>
      <trkpt lat="44.04542" lon="2.99706">
        <ele>401.6</ele>
        <time>2016-07-02T04:37:37Z</time>
      </trkpt>
      <trkpt lat="44.0454" lon="2.99709">
        <ele>401.6</ele>
        <time>2016-07-02T04:37:38Z</time>
      </trkpt>
      <trkpt lat="44.04539" lon="2.99712">
        <ele>401.6</ele>
        <time>2016-07-02T04:37:39Z</time>
      </trkpt>
      <trkpt lat="44.04538" lon="2.99714">
        <ele>401.6</ele>
        <time>2016-07-02T04:37:40Z</time>
      </trkpt>
      <trkpt lat="44.04536" lon="2.99717">
        <ele>401.7</ele>
        <time>2016-07-02T04:37:41Z</time>
      </trkpt>
      <trkpt lat="44.04535" lon="2.9972">
        <ele>401.7</ele>
        <time>2016-07-02T04:37:42Z</time>
      </trkpt>
      <trkpt lat="44.04533" lon="2.99723">
        <ele>401.7</ele>
        <time>2016-07-02T04:37:43Z</time>
      </trkpt>
      <trkpt lat="44.04532" lon="2.99725">
        <ele>401.7</ele>
        <time>2016-07-02T04:37:44Z</time>
      </trkpt>
      <trkpt lat="44.0453" lon="2.99728">
        <ele>401.8</ele>
        <time>2016-07-02T04:37:45Z</time>
      </trkpt>
      <trkpt lat="44.04529" lon="2.99731">
        <ele>401.8</ele>
        <time>2016-07-02T04:37:46Z</time>
      </trkpt>
      <trkpt lat="44.04528" lon="2.99733">
        <ele>401.8</ele>
        <time>2016-07-02T04:37:47Z</time>
      </trkpt>
      <trkpt lat="44.04526" lon="2.99736">
        <ele>401.8</ele>
        <time>2016-07-02T04:37:48Z</time>
      </trkpt>
      <trkpt lat="44.04525" lon="2.99739">
        <ele>401.8</ele>
        <time>2016-07-02T04:37:49Z</time>
      </trkpt>
      <trkpt lat="44.04523" lon="2.99742">
        <ele>401.9</ele>
        <time>2016-07-02T04:37:50Z</time>
      </trkpt>
      <trkpt lat="44.04522" lon="2.99745">
        <ele>401.9</ele>
        <time>2016-07-02T04:37:51Z</time>
      </trkpt>
      <trkpt lat="44.04521" lon="2.99747">
        <ele>401.9</ele>
        <time>2016-07-02T04:37:52Z</time>
      </trkpt>
      <trkpt lat="44.0452" lon="2.9975">
        <ele>401.9</ele>
        <time>2016-07-02T04:37:53Z</time>
      </trkpt>
      <trkpt lat="44.04519" lon="2.99753">
        <ele>401.9</ele>
        <time>2016-07-02T04:37:54Z</time>
      </trkpt>
      <trkpt lat="44.04517" lon="2.99756">
        <ele>402</ele>
        <time>2016-07-02T04:37:55Z</time>
      </trkpt>
      <trkpt lat="44.04516" lon="2.99759">
        <ele>402</ele>
        <time>2016-07-02T04:37:56Z</time>
      </trkpt>
      <trkpt lat="44.04515" lon="2.99762">
        <ele>402</ele>
        <time>2016-07-02T04:37:57Z</time>
      </trkpt>
      <trkpt lat="44.04514" lon="2.99765">
        <ele>402</ele>
        <time>2016-07-02T04:37:58Z</time>
      </trkpt>
      <trkpt lat="44.04513" lon="2.99768">
        <ele>402</ele>
        <time>2016-07-02T04:37:59Z</time>
      </trkpt>
      <trkpt lat="44.04512" lon="2.99771">
        <ele>402</ele>
        <time>2016-07-02T04:38:00Z</time>
      </trkpt>
      <trkpt lat="44.0451" lon="2.99774">
        <ele>402.1</ele>
        <time>2016-07-02T04:38:01Z</time>
      </trkpt>
      <trkpt lat="44.04509" lon="2.99777">
        <ele>402.1</ele>
        <time>2016-07-02T04:38:02Z</time>
      </trkpt>
      <trkpt lat="44.04508" lon="2.9978">
        <ele>402.1</ele>
        <time>2016-07-02T04:38:03Z</time>
      </trkpt>
      <trkpt lat="44.04507" lon="2.99783">
        <ele>402.1</ele>
        <time>2016-07-02T04:38:04Z</time>
      </trkpt>
      <trkpt lat="44.04506" lon="2.99786">
        <ele>402.1</ele>
        <time>2016-07-02T04:38:05Z</time>
      </trkpt>
      <trkpt lat="44.04504" lon="2.99789">
        <ele>402.2</ele>
        <time>2016-07-02T04:38:06Z</time>
      </trkpt>
      <trkpt lat="44.04503" lon="2.99792">
        <ele>402.2</ele>
        <time>2016-07-02T04:38:07Z</time>
      </trkpt>
      <trkpt lat="44.04502" lon="2.99796">
        <ele>402.2</ele>
        <time>2016-07-02T04:38:08Z</time>
      </trkpt>
      <trkpt lat="44.04501" lon="2.99798">
        <ele>402.2</ele>
        <time>2016-07-02T04:38:09Z</time>
      </trkpt>
      <trkpt lat="44.04499" lon="2.99801">
        <ele>402.3</ele>
        <time>2016-07-02T04:38:10Z</time>
      </trkpt>
      <trkpt lat="44.04498" lon="2.99804">
        <ele>402.3</ele>
        <time>2016-07-02T04:38:11Z</time>
      </trkpt>
      <trkpt lat="44.04497" lon="2.99808">
        <ele>402.3</ele>
        <time>2016-07-02T04:38:12Z</time>
      </trkpt>
      <trkpt lat="44.04495" lon="2.9981">
        <ele>402.4</ele>
        <time>2016-07-02T04:38:13Z</time>
      </trkpt>
      <trkpt lat="44.04494" lon="2.99813">
        <ele>402.4</ele>
        <time>2016-07-02T04:38:14Z</time>
      </trkpt>
      <trkpt lat="44.04493" lon="2.99816">
        <ele>402.5</ele>
        <time>2016-07-02T04:38:15Z</time>
      </trkpt>
      <trkpt lat="44.04491" lon="2.99819">
        <ele>402.5</ele>
        <time>2016-07-02T04:38:16Z</time>
      </trkpt>
      <trkpt lat="44.0449" lon="2.99822">
        <ele>402.5</ele>
        <time>2016-07-02T04:38:17Z</time>
      </trkpt>
      <trkpt lat="44.04489" lon="2.99824">
        <ele>402.6</ele>
        <time>2016-07-02T04:38:18Z</time>
      </trkpt>
      <trkpt lat="44.04487" lon="2.99827">
        <ele>402.6</ele>
        <time>2016-07-02T04:38:19Z</time>
      </trkpt>
      <trkpt lat="44.04486" lon="2.9983">
        <ele>402.7</ele>
        <time>2016-07-02T04:38:20Z</time>
      </trkpt>
      <trkpt lat="44.04485" lon="2.99833">
        <ele>402.7</ele>
        <time>2016-07-02T04:38:21Z</time>
      </trkpt>
      <trkpt lat="44.04483" lon="2.99835">
        <ele>402.8</ele>
        <time>2016-07-02T04:38:22Z</time>
      </trkpt>
      <trkpt lat="44.04482" lon="2.99838">
        <ele>402.8</ele>
        <time>2016-07-02T04:38:23Z</time>
      </trkpt>
      <trkpt lat="44.04481" lon="2.99841">
        <ele>402.9</ele>
        <time>2016-07-02T04:38:24Z</time>
      </trkpt>
      <trkpt lat="44.0448" lon="2.99844">
        <ele>402.9</ele>
        <time>2016-07-02T04:38:25Z</time>
      </trkpt>
      <trkpt lat="44.04479" lon="2.99847">
        <ele>403</ele>
        <time>2016-07-02T04:38:26Z</time>
      </trkpt>
      <trkpt lat="44.04478" lon="2.99849">
        <ele>403</ele>
        <time>2016-07-02T04:38:27Z</time>
      </trkpt>
      <trkpt lat="44.04477" lon="2.99852">
        <ele>403.2</ele>
        <time>2016-07-02T04:38:28Z</time>
      </trkpt>
      <trkpt lat="44.04475" lon="2.99855">
        <ele>403.4</ele>
        <time>2016-07-02T04:38:29Z</time>
      </trkpt>
      <trkpt lat="44.04474" lon="2.99858">
        <ele>403.5</ele>
        <time>2016-07-02T04:38:30Z</time>
      </trkpt>
      <trkpt lat="44.04473" lon="2.99861">
        <ele>403.7</ele>
        <time>2016-07-02T04:38:31Z</time>
      </trkpt>
      <trkpt lat="44.04472" lon="2.99864">
        <ele>403.8</ele>
        <time>2016-07-02T04:38:32Z</time>
      </trkpt>
      <trkpt lat="44.04471" lon="2.99866">
        <ele>404</ele>
        <time>2016-07-02T04:38:33Z</time>
      </trkpt>
      <trkpt lat="44.0447" lon="2.99869">
        <ele>404.1</ele>
        <time>2016-07-02T04:38:34Z</time>
      </trkpt>
      <trkpt lat="44.04469" lon="2.99872">
        <ele>404.3</ele>
        <time>2016-07-02T04:38:35Z</time>
      </trkpt>
      <trkpt lat="44.04467" lon="2.99875">
        <ele>404.4</ele>
        <time>2016-07-02T04:38:36Z</time>
      </trkpt>
      <trkpt lat="44.04466" lon="2.99878">
        <ele>404.5</ele>
        <time>2016-07-02T04:38:37Z</time>
      </trkpt>
      <trkpt lat="44.04465" lon="2.99881">
        <ele>404.7</ele>
        <time>2016-07-02T04:38:38Z</time>
      </trkpt>
      <trkpt lat="44.04464" lon="2.99884">
        <ele>404.8</ele>
        <time>2016-07-02T04:38:39Z</time>
      </trkpt>
      <trkpt lat="44.04462" lon="2.99886">
        <ele>405</ele>
        <time>2016-07-02T04:38:40Z</time>
      </trkpt>
      <trkpt lat="44.04461" lon="2.99889">
        <ele>405.1</ele>
        <time>2016-07-02T04:38:41Z</time>
      </trkpt>
      <trkpt lat="44.04459" lon="2.99892">
        <ele>405.2</ele>
        <time>2016-07-02T04:38:42Z</time>
      </trkpt>
      <trkpt lat="44.04458" lon="2.99895">
        <ele>405.3</ele>
        <time>2016-07-02T04:38:43Z</time>
      </trkpt>
      <trkpt lat="44.04457" lon="2.99897">
        <ele>405.4</ele>
        <time>2016-07-02T04:38:44Z</time>
      </trkpt>
      <trkpt lat="44.04456" lon="2.999">
        <ele>405.6</ele>
        <time>2016-07-02T04:38:45Z</time>
      </trkpt>
      <trkpt lat="44.04454" lon="2.99903">
        <ele>405.7</ele>
        <time>2016-07-02T04:38:46Z</time>
      </trkpt>
      <trkpt lat="44.04453" lon="2.99905">
        <ele>405.8</ele>
        <time>2016-07-02T04:38:47Z</time>
      </trkpt>
      <trkpt lat="44.04451" lon="2.99908">
        <ele>405.9</ele>
        <time>2016-07-02T04:38:48Z</time>
      </trkpt>
      <trkpt lat="44.0445" lon="2.9991">
        <ele>406</ele>
        <time>2016-07-02T04:38:49Z</time>
      </trkpt>
      <trkpt lat="44.04449" lon="2.99913">
        <ele>406.1</ele>
        <time>2016-07-02T04:38:50Z</time>
      </trkpt>
      <trkpt lat="44.04447" lon="2.99915">
        <ele>406.2</ele>
        <time>2016-07-02T04:38:51Z</time>
      </trkpt>
      <trkpt lat="44.04446" lon="2.99917">
        <ele>406.3</ele>
        <time>2016-07-02T04:38:52Z</time>
      </trkpt>
      <trkpt lat="44.04445" lon="2.9992">
        <ele>406.4</ele>
        <time>2016-07-02T04:38:53Z</time>
      </trkpt>
      <trkpt lat="44.04443" lon="2.99922">
        <ele>406.5</ele>
        <time>2016-07-02T04:38:54Z</time>
      </trkpt>
      <trkpt lat="44.04442" lon="2.99924">
        <ele>406.6</ele>
        <time>2016-07-02T04:38:55Z</time>
      </trkpt>
      <trkpt lat="44.0444" lon="2.99927">
        <ele>406.7</ele>
        <time>2016-07-02T04:38:56Z</time>
      </trkpt>
      <trkpt lat="44.04439" lon="2.99929">
        <ele>406.8</ele>
        <time>2016-07-02T04:38:57Z</time>
      </trkpt>
      <trkpt lat="44.04438" lon="2.99932">
        <ele>406.9</ele>
        <time>2016-07-02T04:38:58Z</time>
      </trkpt>
      <trkpt lat="44.04436" lon="2.99935">
        <ele>407</ele>
        <time>2016-07-02T04:38:59Z</time>
      </trkpt>
      <trkpt lat="44.04435" lon="2.99938">
        <ele>407</ele>
        <time>2016-07-02T04:39:00Z</time>
      </trkpt>
      <trkpt lat="44.04434" lon="2.9994">
        <ele>407</ele>
        <time>2016-07-02T04:39:01Z</time>
      </trkpt>
      <trkpt lat="44.04432" lon="2.99943">
        <ele>407</ele>
        <time>2016-07-02T04:39:02Z</time>
      </trkpt>
      <trkpt lat="44.04431" lon="2.99946">
        <ele>407</ele>
        <time>2016-07-02T04:39:03Z</time>
      </trkpt>
      <trkpt lat="44.0443" lon="2.99949">
        <ele>407</ele>
        <time>2016-07-02T04:39:04Z</time>
      </trkpt>
      <trkpt lat="44.04429" lon="2.99953">
        <ele>407</ele>
        <time>2016-07-02T04:39:05Z</time>
      </trkpt>
      <trkpt lat="44.04428" lon="2.99956">
        <ele>407</ele>
        <time>2016-07-02T04:39:06Z</time>
      </trkpt>
      <trkpt lat="44.04427" lon="2.99959">
        <ele>407</ele>
        <time>2016-07-02T04:39:07Z</time>
      </trkpt>
      <trkpt lat="44.04425" lon="2.99962">
        <ele>407.1</ele>
        <time>2016-07-02T04:39:08Z</time>
      </trkpt>
      <trkpt lat="44.04425" lon="2.99965">
        <ele>407.1</ele>
        <time>2016-07-02T04:39:09Z</time>
      </trkpt>
      <trkpt lat="44.04424" lon="2.99969">
        <ele>407.2</ele>
        <time>2016-07-02T04:39:10Z</time>
      </trkpt>
      <trkpt lat="44.04423" lon="2.99972">
        <ele>407.2</ele>
        <time>2016-07-02T04:39:11Z</time>
      </trkpt>
      <trkpt lat="44.04422" lon="2.99975">
        <ele>407.3</ele>
        <time>2016-07-02T04:39:12Z</time>
      </trkpt>
      <trkpt lat="44.04422" lon="2.99978">
        <ele>407.3</ele>
        <time>2016-07-02T04:39:13Z</time>
      </trkpt>
      <trkpt lat="44.04421" lon="2.99982">
        <ele>407.4</ele>
        <time>2016-07-02T04:39:14Z</time>
      </trkpt>
      <trkpt lat="44.04421" lon="2.99985">
        <ele>407.4</ele>
        <time>2016-07-02T04:39:15Z</time>
      </trkpt>
      <trkpt lat="44.0442" lon="2.99988">
        <ele>407.5</ele>
        <time>2016-07-02T04:39:16Z</time>
      </trkpt>
      <trkpt lat="44.0442" lon="2.99992">
        <ele>407.5</ele>
        <time>2016-07-02T04:39:17Z</time>
      </trkpt>
      <trkpt lat="44.0442" lon="2.99995">
        <ele>407.6</ele>
        <time>2016-07-02T04:39:18Z</time>
      </trkpt>
      <trkpt lat="44.04419" lon="2.99998">
        <ele>407.6</ele>
        <time>2016-07-02T04:39:19Z</time>
      </trkpt>
      <trkpt lat="44.04419" lon="3.00002">
        <ele>407.7</ele>
        <time>2016-07-02T04:39:20Z</time>
      </trkpt>
      <trkpt lat="44.04419" lon="3.00005">
        <ele>407.7</ele>
        <time>2016-07-02T04:39:21Z</time>
      </trkpt>
      <trkpt lat="44.04419" lon="3.00009">
        <ele>407.8</ele>
        <time>2016-07-02T04:39:22Z</time>
      </trkpt>
      <trkpt lat="44.04419" lon="3.00012">
        <ele>407.8</ele>
        <time>2016-07-02T04:39:23Z</time>
      </trkpt>
      <trkpt lat="44.04418" lon="3.00015">
        <ele>407.9</ele>
        <time>2016-07-02T04:39:24Z</time>
      </trkpt>
      <trkpt lat="44.04418" lon="3.00019">
        <ele>407.9</ele>
        <time>2016-07-02T04:39:25Z</time>
      </trkpt>
      <trkpt lat="44.04418" lon="3.00022">
        <ele>408</ele>
        <time>2016-07-02T04:39:26Z</time>
      </trkpt>
      <trkpt lat="44.04418" lon="3.00025">
        <ele>408</ele>
        <time>2016-07-02T04:39:27Z</time>
      </trkpt>
      <trkpt lat="44.04417" lon="3.00028">
        <ele>408.1</ele>
        <time>2016-07-02T04:39:28Z</time>
      </trkpt>
      <trkpt lat="44.04417" lon="3.00032">
        <ele>408.1</ele>
        <time>2016-07-02T04:39:29Z</time>
      </trkpt>
      <trkpt lat="44.04417" lon="3.00035">
        <ele>408.1</ele>
        <time>2016-07-02T04:39:30Z</time>
      </trkpt>
      <trkpt lat="44.04417" lon="3.00038">
        <ele>408.2</ele>
        <time>2016-07-02T04:39:31Z</time>
      </trkpt>
      <trkpt lat="44.04417" lon="3.00042">
        <ele>408.2</ele>
        <time>2016-07-02T04:39:32Z</time>
      </trkpt>
      <trkpt lat="44.04417" lon="3.00045">
        <ele>408.3</ele>
        <time>2016-07-02T04:39:33Z</time>
      </trkpt>
      <trkpt lat="44.04416" lon="3.00048">
        <ele>408.3</ele>
        <time>2016-07-02T04:39:34Z</time>
      </trkpt>
      <trkpt lat="44.04416" lon="3.00051">
        <ele>408.4</ele>
        <time>2016-07-02T04:39:35Z</time>
      </trkpt>
      <trkpt lat="44.04416" lon="3.00055">
        <ele>408.4</ele>
        <time>2016-07-02T04:39:36Z</time>
      </trkpt>
      <trkpt lat="44.04416" lon="3.00058">
        <ele>408.5</ele>
        <time>2016-07-02T04:39:37Z</time>
      </trkpt>
      <trkpt lat="44.04415" lon="3.00061">
        <ele>408.5</ele>
        <time>2016-07-02T04:39:38Z</time>
      </trkpt>
      <trkpt lat="44.04415" lon="3.00064">
        <ele>408.6</ele>
        <time>2016-07-02T04:39:39Z</time>
      </trkpt>
      <trkpt lat="44.04415" lon="3.00068">
        <ele>408.6</ele>
        <time>2016-07-02T04:39:40Z</time>
      </trkpt>
      <trkpt lat="44.04414" lon="3.00071">
        <ele>408.6</ele>
        <time>2016-07-02T04:39:41Z</time>
      </trkpt>
      <trkpt lat="44.04414" lon="3.00074">
        <ele>408.7</ele>
        <time>2016-07-02T04:39:42Z</time>
      </trkpt>
      <trkpt lat="44.04414" lon="3.00077">
        <ele>408.7</ele>
        <time>2016-07-02T04:39:43Z</time>
      </trkpt>
      <trkpt lat="44.04414" lon="3.0008">
        <ele>408.8</ele>
        <time>2016-07-02T04:39:44Z</time>
      </trkpt>
      <trkpt lat="44.04414" lon="3.00083">
        <ele>408.8</ele>
        <time>2016-07-02T04:39:45Z</time>
      </trkpt>
      <trkpt lat="44.04414" lon="3.00087">
        <ele>408.8</ele>
        <time>2016-07-02T04:39:46Z</time>
      </trkpt>
      <trkpt lat="44.04414" lon="3.0009">
        <ele>408.9</ele>
        <time>2016-07-02T04:39:47Z</time>
      </trkpt>
      <trkpt lat="44.04414" lon="3.00093">
        <ele>408.9</ele>
        <time>2016-07-02T04:39:48Z</time>
      </trkpt>
      <trkpt lat="44.04414" lon="3.00096">
        <ele>408.9</ele>
        <time>2016-07-02T04:39:49Z</time>
      </trkpt>
      <trkpt lat="44.04414" lon="3.00099">
        <ele>409</ele>
        <time>2016-07-02T04:39:50Z</time>
      </trkpt>
      <trkpt lat="44.04414" lon="3.00102">
        <ele>409</ele>
        <time>2016-07-02T04:39:51Z</time>
      </trkpt>
      <trkpt lat="44.04414" lon="3.00105">
        <ele>409</ele>
        <time>2016-07-02T04:39:52Z</time>
      </trkpt>
      <trkpt lat="44.04414" lon="3.00108">
        <ele>409.1</ele>
        <time>2016-07-02T04:39:53Z</time>
      </trkpt>
      <trkpt lat="44.04414" lon="3.00111">
        <ele>409.1</ele>
        <time>2016-07-02T04:39:54Z</time>
      </trkpt>
      <trkpt lat="44.04414" lon="3.00114">
        <ele>409.1</ele>
        <time>2016-07-02T04:39:55Z</time>
      </trkpt>
      <trkpt lat="44.04414" lon="3.00118">
        <ele>409.2</ele>
        <time>2016-07-02T04:39:56Z</time>
      </trkpt>
      <trkpt lat="44.04415" lon="3.00121">
        <ele>409.2</ele>
        <time>2016-07-02T04:39:57Z</time>
      </trkpt>
      <trkpt lat="44.04415" lon="3.00124">
        <ele>409.2</ele>
        <time>2016-07-02T04:39:58Z</time>
      </trkpt>
      <trkpt lat="44.04415" lon="3.00127">
        <ele>409.3</ele>
        <time>2016-07-02T04:39:59Z</time>
      </trkpt>
      <trkpt lat="44.04415" lon="3.0013">
        <ele>409.3</ele>
        <time>2016-07-02T04:40:00Z</time>
      </trkpt>
      <trkpt lat="44.04415" lon="3.00133">
        <ele>409.3</ele>
        <time>2016-07-02T04:40:01Z</time>
      </trkpt>
      <trkpt lat="44.04416" lon="3.00136">
        <ele>409.4</ele>
        <time>2016-07-02T04:40:02Z</time>
      </trkpt>
      <trkpt lat="44.04416" lon="3.00139">
        <ele>409.4</ele>
        <time>2016-07-02T04:40:03Z</time>
      </trkpt>
      <trkpt lat="44.04416" lon="3.00143">
        <ele>409.5</ele>
        <time>2016-07-02T04:40:04Z</time>
      </trkpt>
      <trkpt lat="44.04416" lon="3.00146">
        <ele>409.5</ele>
        <time>2016-07-02T04:40:05Z</time>
      </trkpt>
      <trkpt lat="44.04416" lon="3.00149">
        <ele>409.6</ele>
        <time>2016-07-02T04:40:06Z</time>
      </trkpt>
      <trkpt lat="44.04416" lon="3.00152">
        <ele>409.6</ele>
        <time>2016-07-02T04:40:07Z</time>
      </trkpt>
      <trkpt lat="44.04416" lon="3.00155">
        <ele>409.7</ele>
        <time>2016-07-02T04:40:08Z</time>
      </trkpt>
      <trkpt lat="44.04416" lon="3.00159">
        <ele>409.7</ele>
        <time>2016-07-02T04:40:09Z</time>
      </trkpt>
      <trkpt lat="44.04416" lon="3.00162">
        <ele>409.8</ele>
        <time>2016-07-02T04:40:10Z</time>
      </trkpt>
      <trkpt lat="44.04416" lon="3.00165">
        <ele>409.8</ele>
        <time>2016-07-02T04:40:11Z</time>
      </trkpt>
      <trkpt lat="44.04416" lon="3.00168">
        <ele>409.9</ele>
        <time>2016-07-02T04:40:12Z</time>
      </trkpt>
      <trkpt lat="44.04415" lon="3.00171">
        <ele>409.9</ele>
        <time>2016-07-02T04:40:13Z</time>
      </trkpt>
      <trkpt lat="44.04415" lon="3.00175">
        <ele>410</ele>
        <time>2016-07-02T04:40:14Z</time>
      </trkpt>
      <trkpt lat="44.04415" lon="3.00178">
        <ele>410</ele>
        <time>2016-07-02T04:40:15Z</time>
      </trkpt>
      <trkpt lat="44.04414" lon="3.00181">
        <ele>410.1</ele>
        <time>2016-07-02T04:40:16Z</time>
      </trkpt>
      <trkpt lat="44.04414" lon="3.00184">
        <ele>410.2</ele>
        <time>2016-07-02T04:40:17Z</time>
      </trkpt>
      <trkpt lat="44.04413" lon="3.00187">
        <ele>410.2</ele>
        <time>2016-07-02T04:40:18Z</time>
      </trkpt>
      <trkpt lat="44.04412" lon="3.0019">
        <ele>410.3</ele>
        <time>2016-07-02T04:40:19Z</time>
      </trkpt>
      <trkpt lat="44.04412" lon="3.00193">
        <ele>410.3</ele>
        <time>2016-07-02T04:40:20Z</time>
      </trkpt>
      <trkpt lat="44.04411" lon="3.00196">
        <ele>410.4</ele>
        <time>2016-07-02T04:40:21Z</time>
      </trkpt>
      <trkpt lat="44.0441" lon="3.00199">
        <ele>410.4</ele>
        <time>2016-07-02T04:40:22Z</time>
      </trkpt>
      <trkpt lat="44.04409" lon="3.00202">
        <ele>410.5</ele>
        <time>2016-07-02T04:40:23Z</time>
      </trkpt>
      <trkpt lat="44.04408" lon="3.00205">
        <ele>410.5</ele>
        <time>2016-07-02T04:40:24Z</time>
      </trkpt>
      <trkpt lat="44.04407" lon="3.00208">
        <ele>410.6</ele>
        <time>2016-07-02T04:40:25Z</time>
      </trkpt>
      <trkpt lat="44.04406" lon="3.00211">
        <ele>410.7</ele>
        <time>2016-07-02T04:40:26Z</time>
      </trkpt>
      <trkpt lat="44.04405" lon="3.00213">
        <ele>410.7</ele>
        <time>2016-07-02T04:40:27Z</time>
      </trkpt>
      <trkpt lat="44.04404" lon="3.00216">
        <ele>410.8</ele>
        <time>2016-07-02T04:40:28Z</time>
      </trkpt>
      <trkpt lat="44.04403" lon="3.00219">
        <ele>410.8</ele>
        <time>2016-07-02T04:40:29Z</time>
      </trkpt>
      <trkpt lat="44.04402" lon="3.00222">
        <ele>410.9</ele>
        <time>2016-07-02T04:40:30Z</time>
      </trkpt>
      <trkpt lat="44.04401" lon="3.00225">
        <ele>410.9</ele>
        <time>2016-07-02T04:40:31Z</time>
      </trkpt>
      <trkpt lat="44.04401" lon="3.00228">
        <ele>411</ele>
        <time>2016-07-02T04:40:32Z</time>
      </trkpt>
      <trkpt lat="44.044" lon="3.00231">
        <ele>411</ele>
        <time>2016-07-02T04:40:33Z</time>
      </trkpt>
      <trkpt lat="44.04399" lon="3.00234">
        <ele>411.1</ele>
        <time>2016-07-02T04:40:34Z</time>
      </trkpt>
      <trkpt lat="44.04398" lon="3.00236">
        <ele>411.1</ele>
        <time>2016-07-02T04:40:35Z</time>
      </trkpt>
      <trkpt lat="44.04398" lon="3.00239">
        <ele>411.2</ele>
        <time>2016-07-02T04:40:36Z</time>
      </trkpt>
      <trkpt lat="44.04397" lon="3.00242">
        <ele>411.2</ele>
        <time>2016-07-02T04:40:37Z</time>
      </trkpt>
      <trkpt lat="44.04397" lon="3.00245">
        <ele>411.2</ele>
        <time>2016-07-02T04:40:38Z</time>
      </trkpt>
      <trkpt lat="44.04396" lon="3.00249">
        <ele>411.3</ele>
        <time>2016-07-02T04:40:39Z</time>
      </trkpt>
      <trkpt lat="44.04396" lon="3.00252">
        <ele>411.3</ele>
        <time>2016-07-02T04:40:40Z</time>
      </trkpt>
      <trkpt lat="44.04396" lon="3.00255">
        <ele>411.3</ele>
        <time>2016-07-02T04:40:41Z</time>
      </trkpt>
      <trkpt lat="44.04395" lon="3.00258">
        <ele>411.4</ele>
        <time>2016-07-02T04:40:42Z</time>
      </trkpt>
      <trkpt lat="44.04395" lon="3.00261">
        <ele>411.4</ele>
        <time>2016-07-02T04:40:43Z</time>
      </trkpt>
      <trkpt lat="44.04395" lon="3.00264">
        <ele>411.4</ele>
        <time>2016-07-02T04:40:44Z</time>
      </trkpt>
      <trkpt lat="44.04395" lon="3.00267">
        <ele>411.4</ele>
        <time>2016-07-02T04:40:45Z</time>
      </trkpt>
      <trkpt lat="44.04395" lon="3.0027">
        <ele>411.4</ele>
        <time>2016-07-02T04:40:46Z</time>
      </trkpt>
      <trkpt lat="44.04394" lon="3.00274">
        <ele>411.4</ele>
        <time>2016-07-02T04:40:47Z</time>
      </trkpt>
      <trkpt lat="44.04394" lon="3.00277">
        <ele>411.5</ele>
        <time>2016-07-02T04:40:48Z</time>
      </trkpt>
      <trkpt lat="44.04394" lon="3.0028">
        <ele>411.5</ele>
        <time>2016-07-02T04:40:49Z</time>
      </trkpt>
      <trkpt lat="44.04394" lon="3.00283">
        <ele>411.5</ele>
        <time>2016-07-02T04:40:50Z</time>
      </trkpt>
      <trkpt lat="44.04394" lon="3.00286">
        <ele>411.5</ele>
        <time>2016-07-02T04:40:51Z</time>
      </trkpt>
      <trkpt lat="44.04394" lon="3.0029">
        <ele>411.5</ele>
        <time>2016-07-02T04:40:52Z</time>
      </trkpt>
      <trkpt lat="44.04393" lon="3.00293">
        <ele>411.5</ele>
        <time>2016-07-02T04:40:53Z</time>
      </trkpt>
      <trkpt lat="44.04393" lon="3.00296">
        <ele>411.5</ele>
        <time>2016-07-02T04:40:54Z</time>
      </trkpt>
      <trkpt lat="44.04393" lon="3.00299">
        <ele>411.5</ele>
        <time>2016-07-02T04:40:55Z</time>
      </trkpt>
      <trkpt lat="44.04393" lon="3.00302">
        <ele>411.6</ele>
        <time>2016-07-02T04:40:56Z</time>
      </trkpt>
      <trkpt lat="44.04392" lon="3.00306">
        <ele>411.6</ele>
        <time>2016-07-02T04:40:57Z</time>
      </trkpt>
      <trkpt lat="44.04392" lon="3.00309">
        <ele>411.6</ele>
        <time>2016-07-02T04:40:58Z</time>
      </trkpt>
      <trkpt lat="44.04391" lon="3.00312">
        <ele>411.6</ele>
        <time>2016-07-02T04:40:59Z</time>
      </trkpt>
      <trkpt lat="44.04391" lon="3.00315">
        <ele>411.6</ele>
        <time>2016-07-02T04:41:00Z</time>
      </trkpt>
      <trkpt lat="44.0439" lon="3.00318">
        <ele>411.6</ele>
        <time>2016-07-02T04:41:01Z</time>
      </trkpt>
      <trkpt lat="44.04389" lon="3.00321">
        <ele>411.6</ele>
        <time>2016-07-02T04:41:02Z</time>
      </trkpt>
      <trkpt lat="44.04388" lon="3.00324">
        <ele>411.6</ele>
        <time>2016-07-02T04:41:03Z</time>
      </trkpt>
      <trkpt lat="44.04388" lon="3.00327">
        <ele>411.7</ele>
        <time>2016-07-02T04:41:04Z</time>
      </trkpt>
      <trkpt lat="44.04387" lon="3.0033">
        <ele>411.7</ele>
        <time>2016-07-02T04:41:05Z</time>
      </trkpt>
      <trkpt lat="44.04386" lon="3.00333">
        <ele>411.7</ele>
        <time>2016-07-02T04:41:06Z</time>
      </trkpt>
      <trkpt lat="44.04385" lon="3.00336">
        <ele>411.7</ele>
        <time>2016-07-02T04:41:07Z</time>
      </trkpt>
      <trkpt lat="44.04383" lon="3.00339">
        <ele>411.7</ele>
        <time>2016-07-02T04:41:08Z</time>
      </trkpt>
      <trkpt lat="44.04382" lon="3.00342">
        <ele>411.7</ele>
        <time>2016-07-02T04:41:09Z</time>
      </trkpt>
      <trkpt lat="44.04381" lon="3.00345">
        <ele>411.8</ele>
        <time>2016-07-02T04:41:10Z</time>
      </trkpt>
      <trkpt lat="44.0438" lon="3.00348">
        <ele>411.8</ele>
        <time>2016-07-02T04:41:11Z</time>
      </trkpt>
      <trkpt lat="44.04379" lon="3.00351">
        <ele>411.8</ele>
        <time>2016-07-02T04:41:12Z</time>
      </trkpt>
      <trkpt lat="44.04377" lon="3.00354">
        <ele>411.8</ele>
        <time>2016-07-02T04:41:13Z</time>
      </trkpt>
      <trkpt lat="44.04376" lon="3.00357">
        <ele>411.8</ele>
        <time>2016-07-02T04:41:14Z</time>
      </trkpt>
      <trkpt lat="44.04374" lon="3.00359">
        <ele>411.9</ele>
        <time>2016-07-02T04:41:15Z</time>
      </trkpt>
      <trkpt lat="44.04373" lon="3.00362">
        <ele>411.9</ele>
        <time>2016-07-02T04:41:16Z</time>
      </trkpt>
      <trkpt lat="44.04372" lon="3.00365">
        <ele>411.9</ele>
        <time>2016-07-02T04:41:17Z</time>
      </trkpt>
      <trkpt lat="44.0437" lon="3.00368">
        <ele>412</ele>
        <time>2016-07-02T04:41:18Z</time>
      </trkpt>
      <trkpt lat="44.04369" lon="3.0037">
        <ele>412</ele>
        <time>2016-07-02T04:41:19Z</time>
      </trkpt>
      <trkpt lat="44.04368" lon="3.00373">
        <ele>412</ele>
        <time>2016-07-02T04:41:20Z</time>
      </trkpt>
      <trkpt lat="44.04367" lon="3.00376">
        <ele>412</ele>
        <time>2016-07-02T04:41:21Z</time>
      </trkpt>
      <trkpt lat="44.04365" lon="3.00378">
        <ele>412.1</ele>
        <time>2016-07-02T04:41:22Z</time>
      </trkpt>
      <trkpt lat="44.04364" lon="3.00381">
        <ele>412.1</ele>
        <time>2016-07-02T04:41:23Z</time>
      </trkpt>
      <trkpt lat="44.04363" lon="3.00384">
        <ele>412.1</ele>
        <time>2016-07-02T04:41:24Z</time>
      </trkpt>
      <trkpt lat="44.04361" lon="3.00387">
        <ele>412.2</ele>
        <time>2016-07-02T04:41:25Z</time>
      </trkpt>
      <trkpt lat="44.0436" lon="3.0039">
        <ele>412.2</ele>
        <time>2016-07-02T04:41:26Z</time>
      </trkpt>
      <trkpt lat="44.04359" lon="3.00392">
        <ele>412.2</ele>
        <time>2016-07-02T04:41:27Z</time>
      </trkpt>
      <trkpt lat="44.04358" lon="3.00395">
        <ele>412.3</ele>
        <time>2016-07-02T04:41:28Z</time>
      </trkpt>
      <trkpt lat="44.04357" lon="3.00398">
        <ele>412.3</ele>
        <time>2016-07-02T04:41:29Z</time>
      </trkpt>
      <trkpt lat="44.04356" lon="3.00401">
        <ele>412.3</ele>
        <time>2016-07-02T04:41:30Z</time>
      </trkpt>
      <trkpt lat="44.04354" lon="3.00405">
        <ele>412.4</ele>
        <time>2016-07-02T04:41:31Z</time>
      </trkpt>
      <trkpt lat="44.04354" lon="3.00408">
        <ele>412.4</ele>
        <time>2016-07-02T04:41:32Z</time>
      </trkpt>
      <trkpt lat="44.04353" lon="3.00411">
        <ele>412.5</ele>
        <time>2016-07-02T04:41:33Z</time>
      </trkpt>
      <trkpt lat="44.04352" lon="3.00414">
        <ele>412.5</ele>
        <time>2016-07-02T04:41:34Z</time>
      </trkpt>
      <trkpt lat="44.04351" lon="3.00418">
        <ele>412.5</ele>
        <time>2016-07-02T04:41:35Z</time>
      </trkpt>
      <trkpt lat="44.0435" lon="3.00421">
        <ele>412.6</ele>
        <time>2016-07-02T04:41:36Z</time>
      </trkpt>
      <trkpt lat="44.04349" lon="3.00425">
        <ele>412.6</ele>
        <time>2016-07-02T04:41:37Z</time>
      </trkpt>
      <trkpt lat="44.04348" lon="3.00428">
        <ele>412.6</ele>
        <time>2016-07-02T04:41:38Z</time>
      </trkpt>
      <trkpt lat="44.04348" lon="3.00432">
        <ele>412.7</ele>
        <time>2016-07-02T04:41:39Z</time>
      </trkpt>
      <trkpt lat="44.04347" lon="3.00435">
        <ele>412.7</ele>
        <time>2016-07-02T04:41:40Z</time>
      </trkpt>
      <trkpt lat="44.04346" lon="3.00439">
        <ele>412.7</ele>
        <time>2016-07-02T04:41:41Z</time>
      </trkpt>
      <trkpt lat="44.04346" lon="3.00442">
        <ele>412.8</ele>
        <time>2016-07-02T04:41:42Z</time>
      </trkpt>
      <trkpt lat="44.04345" lon="3.00446">
        <ele>412.8</ele>
        <time>2016-07-02T04:41:43Z</time>
      </trkpt>
      <trkpt lat="44.04345" lon="3.00449">
        <ele>412.8</ele>
        <time>2016-07-02T04:41:44Z</time>
      </trkpt>
      <trkpt lat="44.04344" lon="3.00453">
        <ele>412.9</ele>
        <time>2016-07-02T04:41:45Z</time>
      </trkpt>
      <trkpt lat="44.04343" lon="3.00456">
        <ele>412.9</ele>
        <time>2016-07-02T04:41:46Z</time>
      </trkpt>
      <trkpt lat="44.04343" lon="3.0046">
        <ele>412.9</ele>
        <time>2016-07-02T04:41:47Z</time>
      </trkpt>
      <trkpt lat="44.04343" lon="3.00464">
        <ele>413</ele>
        <time>2016-07-02T04:41:48Z</time>
      </trkpt>
      <trkpt lat="44.04342" lon="3.00467">
        <ele>413</ele>
        <time>2016-07-02T04:41:49Z</time>
      </trkpt>
      <trkpt lat="44.04341" lon="3.0047">
        <ele>413</ele>
        <time>2016-07-02T04:41:50Z</time>
      </trkpt>
      <trkpt lat="44.04341" lon="3.00474">
        <ele>413.1</ele>
        <time>2016-07-02T04:41:51Z</time>
      </trkpt>
      <trkpt lat="44.0434" lon="3.00477">
        <ele>413.1</ele>
        <time>2016-07-02T04:41:52Z</time>
      </trkpt>
      <trkpt lat="44.04339" lon="3.00481">
        <ele>413.1</ele>
        <time>2016-07-02T04:41:53Z</time>
      </trkpt>
      <trkpt lat="44.04338" lon="3.00484">
        <ele>413.1</ele>
        <time>2016-07-02T04:41:54Z</time>
      </trkpt>
      <trkpt lat="44.04338" lon="3.00488">
        <ele>413.2</ele>
        <time>2016-07-02T04:41:55Z</time>
      </trkpt>
      <trkpt lat="44.04337" lon="3.00491">
        <ele>413.2</ele>
        <time>2016-07-02T04:41:56Z</time>
      </trkpt>
      <trkpt lat="44.04336" lon="3.00494">
        <ele>413.2</ele>
        <time>2016-07-02T04:41:57Z</time>
      </trkpt>
      <trkpt lat="44.04335" lon="3.00498">
        <ele>413.3</ele>
        <time>2016-07-02T04:41:58Z</time>
      </trkpt>
      <trkpt lat="44.04334" lon="3.00501">
        <ele>413.3</ele>
        <time>2016-07-02T04:41:59Z</time>
      </trkpt>
      <trkpt lat="44.04333" lon="3.00504">
        <ele>413.4</ele>
        <time>2016-07-02T04:42:00Z</time>
      </trkpt>
      <trkpt lat="44.04332" lon="3.00508">
        <ele>413.4</ele>
        <time>2016-07-02T04:42:01Z</time>
      </trkpt>
      <trkpt lat="44.04331" lon="3.00511">
        <ele>413.5</ele>
        <time>2016-07-02T04:42:02Z</time>
      </trkpt>
      <trkpt lat="44.0433" lon="3.00514">
        <ele>413.5</ele>
        <time>2016-07-02T04:42:03Z</time>
      </trkpt>
      <trkpt lat="44.04329" lon="3.00517">
        <ele>413.6</ele>
        <time>2016-07-02T04:42:04Z</time>
      </trkpt>
      <trkpt lat="44.04328" lon="3.00521">
        <ele>413.6</ele>
        <time>2016-07-02T04:42:05Z</time>
      </trkpt>
      <trkpt lat="44.04327" lon="3.00524">
        <ele>413.7</ele>
        <time>2016-07-02T04:42:06Z</time>
      </trkpt>
      <trkpt lat="44.04326" lon="3.00527">
        <ele>413.8</ele>
        <time>2016-07-02T04:42:07Z</time>
      </trkpt>
      <trkpt lat="44.04325" lon="3.0053">
        <ele>413.8</ele>
        <time>2016-07-02T04:42:08Z</time>
      </trkpt>
      <trkpt lat="44.04324" lon="3.00534">
        <ele>413.9</ele>
        <time>2016-07-02T04:42:09Z</time>
      </trkpt>
      <trkpt lat="44.04324" lon="3.00537">
        <ele>414</ele>
        <time>2016-07-02T04:42:10Z</time>
      </trkpt>
      <trkpt lat="44.04322" lon="3.0054">
        <ele>414</ele>
        <time>2016-07-02T04:42:11Z</time>
      </trkpt>
      <trkpt lat="44.04322" lon="3.00543">
        <ele>414.1</ele>
        <time>2016-07-02T04:42:12Z</time>
      </trkpt>
      <trkpt lat="44.04321" lon="3.00547">
        <ele>414.2</ele>
        <time>2016-07-02T04:42:13Z</time>
      </trkpt>
      <trkpt lat="44.0432" lon="3.0055">
        <ele>414.3</ele>
        <time>2016-07-02T04:42:14Z</time>
      </trkpt>
      <trkpt lat="44.04319" lon="3.00553">
        <ele>414.3</ele>
        <time>2016-07-02T04:42:15Z</time>
      </trkpt>
      <trkpt lat="44.04319" lon="3.00557">
        <ele>414.4</ele>
        <time>2016-07-02T04:42:16Z</time>
      </trkpt>
      <trkpt lat="44.04318" lon="3.0056">
        <ele>414.5</ele>
        <time>2016-07-02T04:42:17Z</time>
      </trkpt>
      <trkpt lat="44.04318" lon="3.00564">
        <ele>414.6</ele>
        <time>2016-07-02T04:42:18Z</time>
      </trkpt>
      <trkpt lat="44.04317" lon="3.00567">
        <ele>414.7</ele>
        <time>2016-07-02T04:42:19Z</time>
      </trkpt>
      <trkpt lat="44.04317" lon="3.00571">
        <ele>414.7</ele>
        <time>2016-07-02T04:42:20Z</time>
      </trkpt>
      <trkpt lat="44.04316" lon="3.00574">
        <ele>414.8</ele>
        <time>2016-07-02T04:42:21Z</time>
      </trkpt>
      <trkpt lat="44.04316" lon="3.00578">
        <ele>414.9</ele>
        <time>2016-07-02T04:42:22Z</time>
      </trkpt>
      <trkpt lat="44.04316" lon="3.00581">
        <ele>415</ele>
        <time>2016-07-02T04:42:23Z</time>
      </trkpt>
      <trkpt lat="44.04316" lon="3.00585">
        <ele>415.1</ele>
        <time>2016-07-02T04:42:24Z</time>
      </trkpt>
      <trkpt lat="44.04316" lon="3.00588">
        <ele>415.2</ele>
        <time>2016-07-02T04:42:25Z</time>
      </trkpt>
      <trkpt lat="44.04316" lon="3.00592">
        <ele>415.2</ele>
        <time>2016-07-02T04:42:26Z</time>
      </trkpt>
      <trkpt lat="44.04316" lon="3.00595">
        <ele>415.3</ele>
        <time>2016-07-02T04:42:27Z</time>
      </trkpt>
      <trkpt lat="44.04316" lon="3.00599">
        <ele>415.4</ele>
        <time>2016-07-02T04:42:28Z</time>
      </trkpt>
      <trkpt lat="44.04316" lon="3.00602">
        <ele>415.4</ele>
        <time>2016-07-02T04:42:29Z</time>
      </trkpt>
      <trkpt lat="44.04316" lon="3.00605">
        <ele>415.5</ele>
        <time>2016-07-02T04:42:30Z</time>
      </trkpt>
      <trkpt lat="44.04316" lon="3.00609">
        <ele>415.6</ele>
        <time>2016-07-02T04:42:31Z</time>
      </trkpt>
      <trkpt lat="44.04317" lon="3.00612">
        <ele>415.6</ele>
        <time>2016-07-02T04:42:32Z</time>
      </trkpt>
      <trkpt lat="44.04317" lon="3.00615">
        <ele>415.7</ele>
        <time>2016-07-02T04:42:33Z</time>
      </trkpt>
      <trkpt lat="44.04318" lon="3.00619">
        <ele>415.8</ele>
        <time>2016-07-02T04:42:34Z</time>
      </trkpt>
      <trkpt lat="44.04318" lon="3.00622">
        <ele>415.8</ele>
        <time>2016-07-02T04:42:35Z</time>
      </trkpt>
      <trkpt lat="44.04319" lon="3.00625">
        <ele>415.9</ele>
        <time>2016-07-02T04:42:36Z</time>
      </trkpt>
      <trkpt lat="44.04319" lon="3.00629">
        <ele>416</ele>
        <time>2016-07-02T04:42:37Z</time>
      </trkpt>
      <trkpt lat="44.0432" lon="3.00632">
        <ele>416</ele>
        <time>2016-07-02T04:42:38Z</time>
      </trkpt>
      <trkpt lat="44.04321" lon="3.00635">
        <ele>416.1</ele>
        <time>2016-07-02T04:42:39Z</time>
      </trkpt>
      <trkpt lat="44.04321" lon="3.00639">
        <ele>416.2</ele>
        <time>2016-07-02T04:42:40Z</time>
      </trkpt>
      <trkpt lat="44.04322" lon="3.00642">
        <ele>416.2</ele>
        <time>2016-07-02T04:42:41Z</time>
      </trkpt>
      <trkpt lat="44.04322" lon="3.00645">
        <ele>416.3</ele>
        <time>2016-07-02T04:42:42Z</time>
      </trkpt>
      <trkpt lat="44.04323" lon="3.00649">
        <ele>416.3</ele>
        <time>2016-07-02T04:42:43Z</time>
      </trkpt>
      <trkpt lat="44.04324" lon="3.00652">
        <ele>416.4</ele>
        <time>2016-07-02T04:42:44Z</time>
      </trkpt>
      <trkpt lat="44.04324" lon="3.00655">
        <ele>416.4</ele>
        <time>2016-07-02T04:42:45Z</time>
      </trkpt>
      <trkpt lat="44.04325" lon="3.00659">
        <ele>416.5</ele>
        <time>2016-07-02T04:42:46Z</time>
      </trkpt>
      <trkpt lat="44.04325" lon="3.00662">
        <ele>416.6</ele>
        <time>2016-07-02T04:42:47Z</time>
      </trkpt>
      <trkpt lat="44.04326" lon="3.00665">
        <ele>416.6</ele>
        <time>2016-07-02T04:42:48Z</time>
      </trkpt>
      <trkpt lat="44.04326" lon="3.00669">
        <ele>416.7</ele>
        <time>2016-07-02T04:42:49Z</time>
      </trkpt>
      <trkpt lat="44.04327" lon="3.00672">
        <ele>416.7</ele>
        <time>2016-07-02T04:42:50Z</time>
      </trkpt>
      <trkpt lat="44.04327" lon="3.00675">
        <ele>416.8</ele>
        <time>2016-07-02T04:42:51Z</time>
      </trkpt>
      <trkpt lat="44.04327" lon="3.00679">
        <ele>416.8</ele>
        <time>2016-07-02T04:42:52Z</time>
      </trkpt>
      <trkpt lat="44.04328" lon="3.00682">
        <ele>416.9</ele>
        <time>2016-07-02T04:42:53Z</time>
      </trkpt>
      <trkpt lat="44.04328" lon="3.00686">
        <ele>417</ele>
        <time>2016-07-02T04:42:54Z</time>
      </trkpt>
      <trkpt lat="44.04328" lon="3.00689">
        <ele>417</ele>
        <time>2016-07-02T04:42:55Z</time>
      </trkpt>
      <trkpt lat="44.04329" lon="3.00692">
        <ele>417.1</ele>
        <time>2016-07-02T04:42:56Z</time>
      </trkpt>
      <trkpt lat="44.04329" lon="3.00696">
        <ele>417.1</ele>
        <time>2016-07-02T04:42:57Z</time>
      </trkpt>
      <trkpt lat="44.04329" lon="3.00699">
        <ele>417.2</ele>
        <time>2016-07-02T04:42:58Z</time>
      </trkpt>
      <trkpt lat="44.04329" lon="3.00703">
        <ele>417.2</ele>
        <time>2016-07-02T04:42:59Z</time>
      </trkpt>
      <trkpt lat="44.04329" lon="3.00706">
        <ele>417.3</ele>
        <time>2016-07-02T04:43:00Z</time>
      </trkpt>
      <trkpt lat="44.04329" lon="3.00709">
        <ele>417.4</ele>
        <time>2016-07-02T04:43:01Z</time>
      </trkpt>
      <trkpt lat="44.04329" lon="3.00713">
        <ele>417.4</ele>
        <time>2016-07-02T04:43:02Z</time>
      </trkpt>
      <trkpt lat="44.0433" lon="3.00716">
        <ele>417.5</ele>
        <time>2016-07-02T04:43:03Z</time>
      </trkpt>
      <trkpt lat="44.0433" lon="3.0072">
        <ele>417.5</ele>
        <time>2016-07-02T04:43:04Z</time>
      </trkpt>
      <trkpt lat="44.0433" lon="3.00723">
        <ele>417.6</ele>
        <time>2016-07-02T04:43:05Z</time>
      </trkpt>
      <trkpt lat="44.0433" lon="3.00726">
        <ele>417.6</ele>
        <time>2016-07-02T04:43:06Z</time>
      </trkpt>
      <trkpt lat="44.0433" lon="3.0073">
        <ele>417.6</ele>
        <time>2016-07-02T04:43:07Z</time>
      </trkpt>
      <trkpt lat="44.0433" lon="3.00733">
        <ele>417.7</ele>
        <time>2016-07-02T04:43:08Z</time>
      </trkpt>
      <trkpt lat="44.0433" lon="3.00736">
        <ele>417.7</ele>
        <time>2016-07-02T04:43:09Z</time>
      </trkpt>
      <trkpt lat="44.0433" lon="3.0074">
        <ele>417.8</ele>
        <time>2016-07-02T04:43:10Z</time>
      </trkpt>
      <trkpt lat="44.0433" lon="3.00743">
        <ele>417.8</ele>
        <time>2016-07-02T04:43:11Z</time>
      </trkpt>
      <trkpt lat="44.0433" lon="3.00747">
        <ele>417.9</ele>
        <time>2016-07-02T04:43:12Z</time>
      </trkpt>
      <trkpt lat="44.0433" lon="3.0075">
        <ele>417.9</ele>
        <time>2016-07-02T04:43:13Z</time>
      </trkpt>
      <trkpt lat="44.0433" lon="3.00754">
        <ele>418</ele>
        <time>2016-07-02T04:43:14Z</time>
      </trkpt>
      <trkpt lat="44.0433" lon="3.00757">
        <ele>418</ele>
        <time>2016-07-02T04:43:15Z</time>
      </trkpt>
      <trkpt lat="44.0433" lon="3.0076">
        <ele>418.1</ele>
        <time>2016-07-02T04:43:16Z</time>
      </trkpt>
      <trkpt lat="44.0433" lon="3.00764">
        <ele>418.1</ele>
        <time>2016-07-02T04:43:17Z</time>
      </trkpt>
      <trkpt lat="44.04331" lon="3.00767">
        <ele>418.2</ele>
        <time>2016-07-02T04:43:18Z</time>
      </trkpt>
      <trkpt lat="44.04331" lon="3.00771">
        <ele>418.2</ele>
        <time>2016-07-02T04:43:19Z</time>
      </trkpt>
      <trkpt lat="44.04331" lon="3.00774">
        <ele>418.3</ele>
        <time>2016-07-02T04:43:20Z</time>
      </trkpt>
      <trkpt lat="44.04331" lon="3.00777">
        <ele>418.4</ele>
        <time>2016-07-02T04:43:21Z</time>
      </trkpt>
      <trkpt lat="44.04332" lon="3.00781">
        <ele>418.4</ele>
        <time>2016-07-02T04:43:22Z</time>
      </trkpt>
      <trkpt lat="44.04332" lon="3.00784">
        <ele>418.5</ele>
        <time>2016-07-02T04:43:23Z</time>
      </trkpt>
      <trkpt lat="44.04332" lon="3.00787">
        <ele>418.5</ele>
        <time>2016-07-02T04:43:24Z</time>
      </trkpt>
      <trkpt lat="44.04332" lon="3.00791">
        <ele>418.6</ele>
        <time>2016-07-02T04:43:25Z</time>
      </trkpt>
      <trkpt lat="44.04332" lon="3.00794">
        <ele>418.6</ele>
        <time>2016-07-02T04:43:26Z</time>
      </trkpt>
      <trkpt lat="44.04333" lon="3.00797">
        <ele>418.7</ele>
        <time>2016-07-02T04:43:27Z</time>
      </trkpt>
      <trkpt lat="44.04333" lon="3.008">
        <ele>418.8</ele>
        <time>2016-07-02T04:43:28Z</time>
      </trkpt>
      <trkpt lat="44.04333" lon="3.00804">
        <ele>418.8</ele>
        <time>2016-07-02T04:43:29Z</time>
      </trkpt>
      <trkpt lat="44.04334" lon="3.00807">
        <ele>418.9</ele>
        <time>2016-07-02T04:43:30Z</time>
      </trkpt>
      <trkpt lat="44.04334" lon="3.0081">
        <ele>419</ele>
        <time>2016-07-02T04:43:31Z</time>
      </trkpt>
      <trkpt lat="44.04335" lon="3.00813">
        <ele>419</ele>
        <time>2016-07-02T04:43:32Z</time>
      </trkpt>
      <trkpt lat="44.04335" lon="3.00816">
        <ele>419.1</ele>
        <time>2016-07-02T04:43:33Z</time>
      </trkpt>
      <trkpt lat="44.04336" lon="3.00819">
        <ele>419.2</ele>
        <time>2016-07-02T04:43:34Z</time>
      </trkpt>
      <trkpt lat="44.04337" lon="3.00823">
        <ele>419.2</ele>
        <time>2016-07-02T04:43:35Z</time>
      </trkpt>
      <trkpt lat="44.04337" lon="3.00826">
        <ele>419.3</ele>
        <time>2016-07-02T04:43:36Z</time>
      </trkpt>
      <trkpt lat="44.04338" lon="3.00829">
        <ele>419.4</ele>
        <time>2016-07-02T04:43:37Z</time>
      </trkpt>
      <trkpt lat="44.04338" lon="3.00832">
        <ele>419.4</ele>
        <time>2016-07-02T04:43:38Z</time>
      </trkpt>
      <trkpt lat="44.04339" lon="3.00835">
        <ele>419.5</ele>
        <time>2016-07-02T04:43:39Z</time>
      </trkpt>
      <trkpt lat="44.0434" lon="3.00838">
        <ele>419.6</ele>
        <time>2016-07-02T04:43:40Z</time>
      </trkpt>
      <trkpt lat="44.04341" lon="3.00841">
        <ele>419.6</ele>
        <time>2016-07-02T04:43:41Z</time>
      </trkpt>
      <trkpt lat="44.04342" lon="3.00844">
        <ele>419.7</ele>
        <time>2016-07-02T04:43:42Z</time>
      </trkpt>
      <trkpt lat="44.04343" lon="3.00847">
        <ele>419.8</ele>
        <time>2016-07-02T04:43:43Z</time>
      </trkpt>
      <trkpt lat="44.04343" lon="3.0085">
        <ele>419.8</ele>
        <time>2016-07-02T04:43:44Z</time>
      </trkpt>
      <trkpt lat="44.04345" lon="3.00853">
        <ele>419.9</ele>
        <time>2016-07-02T04:43:45Z</time>
      </trkpt>
      <trkpt lat="44.04346" lon="3.00856">
        <ele>420</ele>
        <time>2016-07-02T04:43:46Z</time>
      </trkpt>
      <trkpt lat="44.04347" lon="3.00859">
        <ele>420</ele>
        <time>2016-07-02T04:43:47Z</time>
      </trkpt>
      <trkpt lat="44.04348" lon="3.00862">
        <ele>420.1</ele>
        <time>2016-07-02T04:43:48Z</time>
      </trkpt>
      <trkpt lat="44.04349" lon="3.00865">
        <ele>420.1</ele>
        <time>2016-07-02T04:43:49Z</time>
      </trkpt>
      <trkpt lat="44.04351" lon="3.00868">
        <ele>420.2</ele>
        <time>2016-07-02T04:43:50Z</time>
      </trkpt>
      <trkpt lat="44.04352" lon="3.00871">
        <ele>420.3</ele>
        <time>2016-07-02T04:43:51Z</time>
      </trkpt>
      <trkpt lat="44.04353" lon="3.00874">
        <ele>420.3</ele>
        <time>2016-07-02T04:43:52Z</time>
      </trkpt>
      <trkpt lat="44.04354" lon="3.00877">
        <ele>420.4</ele>
        <time>2016-07-02T04:43:53Z</time>
      </trkpt>
      <trkpt lat="44.04355" lon="3.00881">
        <ele>420.5</ele>
        <time>2016-07-02T04:43:54Z</time>
      </trkpt>
      <trkpt lat="44.04356" lon="3.00884">
        <ele>420.6</ele>
        <time>2016-07-02T04:43:55Z</time>
      </trkpt>
      <trkpt lat="44.04357" lon="3.00887">
        <ele>420.6</ele>
        <time>2016-07-02T04:43:56Z</time>
      </trkpt>
      <trkpt lat="44.04358" lon="3.0089">
        <ele>420.7</ele>
        <time>2016-07-02T04:43:57Z</time>
      </trkpt>
      <trkpt lat="44.04359" lon="3.00893">
        <ele>420.8</ele>
        <time>2016-07-02T04:43:58Z</time>
      </trkpt>
      <trkpt lat="44.04359" lon="3.00897">
        <ele>420.8</ele>
        <time>2016-07-02T04:43:59Z</time>
      </trkpt>
      <trkpt lat="44.0436" lon="3.009">
        <ele>420.9</ele>
        <time>2016-07-02T04:44:00Z</time>
      </trkpt>
      <trkpt lat="44.04361" lon="3.00904">
        <ele>420.9</ele>
        <time>2016-07-02T04:44:01Z</time>
      </trkpt>
      <trkpt lat="44.04361" lon="3.00907">
        <ele>421</ele>
        <time>2016-07-02T04:44:02Z</time>
      </trkpt>
      <trkpt lat="44.04361" lon="3.00911">
        <ele>421</ele>
        <time>2016-07-02T04:44:03Z</time>
      </trkpt>
      <trkpt lat="44.04362" lon="3.00914">
        <ele>421.1</ele>
        <time>2016-07-02T04:44:04Z</time>
      </trkpt>
      <trkpt lat="44.04362" lon="3.00918">
        <ele>421.1</ele>
        <time>2016-07-02T04:44:05Z</time>
      </trkpt>
      <trkpt lat="44.04362" lon="3.00921">
        <ele>421.2</ele>
        <time>2016-07-02T04:44:06Z</time>
      </trkpt>
      <trkpt lat="44.04363" lon="3.00925">
        <ele>421.3</ele>
        <time>2016-07-02T04:44:07Z</time>
      </trkpt>
      <trkpt lat="44.04363" lon="3.00928">
        <ele>421.3</ele>
        <time>2016-07-02T04:44:08Z</time>
      </trkpt>
      <trkpt lat="44.04363" lon="3.00932">
        <ele>421.4</ele>
        <time>2016-07-02T04:44:09Z</time>
      </trkpt>
      <trkpt lat="44.04363" lon="3.00935">
        <ele>421.4</ele>
        <time>2016-07-02T04:44:10Z</time>
      </trkpt>
      <trkpt lat="44.04363" lon="3.00938">
        <ele>421.5</ele>
        <time>2016-07-02T04:44:11Z</time>
      </trkpt>
      <trkpt lat="44.04364" lon="3.00941">
        <ele>421.6</ele>
        <time>2016-07-02T04:44:12Z</time>
      </trkpt>
      <trkpt lat="44.04363" lon="3.00944">
        <ele>421.6</ele>
        <time>2016-07-02T04:44:13Z</time>
      </trkpt>
      <trkpt lat="44.04363" lon="3.00947">
        <ele>421.7</ele>
        <time>2016-07-02T04:44:14Z</time>
      </trkpt>
      <trkpt lat="44.04363" lon="3.0095">
        <ele>421.7</ele>
        <time>2016-07-02T04:44:15Z</time>
      </trkpt>
      <trkpt lat="44.04363" lon="3.00953">
        <ele>421.8</ele>
        <time>2016-07-02T04:44:16Z</time>
      </trkpt>
      <trkpt lat="44.04363" lon="3.00956">
        <ele>421.8</ele>
        <time>2016-07-02T04:44:17Z</time>
      </trkpt>
      <trkpt lat="44.04363" lon="3.00959">
        <ele>421.9</ele>
        <time>2016-07-02T04:44:18Z</time>
      </trkpt>
      <trkpt lat="44.04362" lon="3.00962">
        <ele>422</ele>
        <time>2016-07-02T04:44:19Z</time>
      </trkpt>
      <trkpt lat="44.04362" lon="3.00965">
        <ele>422</ele>
        <time>2016-07-02T04:44:20Z</time>
      </trkpt>
      <trkpt lat="44.04362" lon="3.00968">
        <ele>422.1</ele>
        <time>2016-07-02T04:44:21Z</time>
      </trkpt>
      <trkpt lat="44.04362" lon="3.00971">
        <ele>422.2</ele>
        <time>2016-07-02T04:44:22Z</time>
      </trkpt>
      <trkpt lat="44.04361" lon="3.00974">
        <ele>422.2</ele>
        <time>2016-07-02T04:44:23Z</time>
      </trkpt>
      <trkpt lat="44.04361" lon="3.00978">
        <ele>422.3</ele>
        <time>2016-07-02T04:44:24Z</time>
      </trkpt>
      <trkpt lat="44.04361" lon="3.00981">
        <ele>422.4</ele>
        <time>2016-07-02T04:44:25Z</time>
      </trkpt>
      <trkpt lat="44.04361" lon="3.00984">
        <ele>422.4</ele>
        <time>2016-07-02T04:44:26Z</time>
      </trkpt>
      <trkpt lat="44.0436" lon="3.00987">
        <ele>422.5</ele>
        <time>2016-07-02T04:44:27Z</time>
      </trkpt>
      <trkpt lat="44.04359" lon="3.00991">
        <ele>422.6</ele>
        <time>2016-07-02T04:44:28Z</time>
      </trkpt>
      <trkpt lat="44.04359" lon="3.00994">
        <ele>422.7</ele>
        <time>2016-07-02T04:44:29Z</time>
      </trkpt>
      <trkpt lat="44.04359" lon="3.00997">
        <ele>422.7</ele>
        <time>2016-07-02T04:44:30Z</time>
      </trkpt>
      <trkpt lat="44.04358" lon="3.01001">
        <ele>422.8</ele>
        <time>2016-07-02T04:44:31Z</time>
      </trkpt>
      <trkpt lat="44.04358" lon="3.01004">
        <ele>422.9</ele>
        <time>2016-07-02T04:44:32Z</time>
      </trkpt>
      <trkpt lat="44.04358" lon="3.01007">
        <ele>423</ele>
        <time>2016-07-02T04:44:33Z</time>
      </trkpt>
      <trkpt lat="44.04357" lon="3.0101">
        <ele>423</ele>
        <time>2016-07-02T04:44:34Z</time>
      </trkpt>
      <trkpt lat="44.04356" lon="3.01014">
        <ele>423.1</ele>
        <time>2016-07-02T04:44:35Z</time>
      </trkpt>
      <trkpt lat="44.04356" lon="3.01017">
        <ele>423.2</ele>
        <time>2016-07-02T04:44:36Z</time>
      </trkpt>
      <trkpt lat="44.04356" lon="3.0102">
        <ele>423.3</ele>
        <time>2016-07-02T04:44:37Z</time>
      </trkpt>
      <trkpt lat="44.04355" lon="3.01024">
        <ele>423.3</ele>
        <time>2016-07-02T04:44:38Z</time>
      </trkpt>
      <trkpt lat="44.04354" lon="3.01027">
        <ele>423.4</ele>
        <time>2016-07-02T04:44:39Z</time>
      </trkpt>
      <trkpt lat="44.04354" lon="3.0103">
        <ele>423.5</ele>
        <time>2016-07-02T04:44:40Z</time>
      </trkpt>
      <trkpt lat="44.04354" lon="3.01033">
        <ele>423.5</ele>
        <time>2016-07-02T04:44:41Z</time>
      </trkpt>
      <trkpt lat="44.04353" lon="3.01037">
        <ele>423.6</ele>
        <time>2016-07-02T04:44:42Z</time>
      </trkpt>
      <trkpt lat="44.04353" lon="3.0104">
        <ele>423.7</ele>
        <time>2016-07-02T04:44:43Z</time>
      </trkpt>
      <trkpt lat="44.04352" lon="3.01043">
        <ele>423.7</ele>
        <time>2016-07-02T04:44:44Z</time>
      </trkpt>
      <trkpt lat="44.04352" lon="3.01046">
        <ele>423.8</ele>
        <time>2016-07-02T04:44:45Z</time>
      </trkpt>
      <trkpt lat="44.04351" lon="3.01049">
        <ele>423.9</ele>
        <time>2016-07-02T04:44:46Z</time>
      </trkpt>
      <trkpt lat="44.04351" lon="3.01053">
        <ele>423.9</ele>
        <time>2016-07-02T04:44:47Z</time>
      </trkpt>
      <trkpt lat="44.0435" lon="3.01056">
        <ele>424</ele>
        <time>2016-07-02T04:44:48Z</time>
      </trkpt>
      <trkpt lat="44.0435" lon="3.01059">
        <ele>424</ele>
        <time>2016-07-02T04:44:49Z</time>
      </trkpt>
      <trkpt lat="44.04349" lon="3.01063">
        <ele>424.1</ele>
        <time>2016-07-02T04:44:50Z</time>
      </trkpt>
      <trkpt lat="44.04349" lon="3.01066">
        <ele>424.1</ele>
        <time>2016-07-02T04:44:51Z</time>
      </trkpt>
      <trkpt lat="44.04348" lon="3.01069">
        <ele>424.2</ele>
        <time>2016-07-02T04:44:52Z</time>
      </trkpt>
      <trkpt lat="44.04347" lon="3.01073">
        <ele>424.2</ele>
        <time>2016-07-02T04:44:53Z</time>
      </trkpt>
      <trkpt lat="44.04347" lon="3.01076">
        <ele>424.3</ele>
        <time>2016-07-02T04:44:54Z</time>
      </trkpt>
      <trkpt lat="44.04346" lon="3.01079">
        <ele>424.3</ele>
        <time>2016-07-02T04:44:55Z</time>
      </trkpt>
      <trkpt lat="44.04346" lon="3.01082">
        <ele>424.4</ele>
        <time>2016-07-02T04:44:56Z</time>
      </trkpt>
      <trkpt lat="44.04345" lon="3.01085">
        <ele>424.4</ele>
        <time>2016-07-02T04:44:57Z</time>
      </trkpt>
      <trkpt lat="44.04345" lon="3.01089">
        <ele>424.5</ele>
        <time>2016-07-02T04:44:58Z</time>
      </trkpt>
      <trkpt lat="44.04346" lon="3.01094">
        <ele>424.5</ele>
        <time>2016-07-02T04:44:59Z</time>
      </trkpt>
      <trkpt lat="44.04346" lon="3.01101">
        <ele>424.6</ele>
        <time>2016-07-02T04:45:00Z</time>
      </trkpt>
      <trkpt lat="44.04348" lon="3.01111">
        <ele>424.8</ele>
        <time>2016-07-02T04:45:01Z</time>
      </trkpt>
      <trkpt lat="44.04351" lon="3.01127">
        <ele>425</ele>
        <time>2016-07-02T04:45:02Z</time>
      </trkpt>
      <trkpt lat="44.04358" lon="3.01163">
        <ele>425.4</ele>
        <time>2016-07-02T04:45:03Z</time>
      </trkpt>
      <trkpt lat="44.04365" lon="3.01196">
        <ele>425.9</ele>
        <time>2016-07-02T04:45:04Z</time>
      </trkpt>
      <trkpt lat="44.04365" lon="3.01198">
        <ele>425.9</ele>
        <time>2016-07-02T04:47:11Z</time>
      </trkpt>
      <trkpt lat="44.04372" lon="3.01234">
        <ele>426.6</ele>
        <time>2016-07-02T04:47:12Z</time>
      </trkpt>
      <trkpt lat="44.04379" lon="3.0127">
        <ele>427.2</ele>
        <time>2016-07-02T04:47:13Z</time>
      </trkpt>
      <trkpt lat="44.04383" lon="3.013">
        <ele>427.7</ele>
        <time>2016-07-02T04:47:14Z</time>
      </trkpt>
      <trkpt lat="44.04385" lon="3.01312">
        <ele>427.8</ele>
        <time>2016-07-02T04:47:15Z</time>
      </trkpt>
      <trkpt lat="44.04385" lon="3.01317">
        <ele>427.9</ele>
        <time>2016-07-02T04:47:16Z</time>
      </trkpt>
      <trkpt lat="44.04384" lon="3.01321">
        <ele>427.9</ele>
        <time>2016-07-02T04:47:17Z</time>
      </trkpt>
      <trkpt lat="44.04383" lon="3.01324">
        <ele>428</ele>
        <time>2016-07-02T04:47:18Z</time>
      </trkpt>
      <trkpt lat="44.04383" lon="3.01327">
        <ele>428</ele>
        <time>2016-07-02T04:47:19Z</time>
      </trkpt>
      <trkpt lat="44.04383" lon="3.01331">
        <ele>428.1</ele>
        <time>2016-07-02T04:47:20Z</time>
      </trkpt>
      <trkpt lat="44.04382" lon="3.01335">
        <ele>428.2</ele>
        <time>2016-07-02T04:47:21Z</time>
      </trkpt>
      <trkpt lat="44.04382" lon="3.01339">
        <ele>428.2</ele>
        <time>2016-07-02T04:47:22Z</time>
      </trkpt>
      <trkpt lat="44.04382" lon="3.01342">
        <ele>428.3</ele>
        <time>2016-07-02T04:47:23Z</time>
      </trkpt>
      <trkpt lat="44.04381" lon="3.01346">
        <ele>428.4</ele>
        <time>2016-07-02T04:47:24Z</time>
      </trkpt>
      <trkpt lat="44.0438" lon="3.0135">
        <ele>428.4</ele>
        <time>2016-07-02T04:47:25Z</time>
      </trkpt>
      <trkpt lat="44.0438" lon="3.01353">
        <ele>428.5</ele>
        <time>2016-07-02T04:47:26Z</time>
      </trkpt>
      <trkpt lat="44.0438" lon="3.01357">
        <ele>428.6</ele>
        <time>2016-07-02T04:47:27Z</time>
      </trkpt>
      <trkpt lat="44.04379" lon="3.01361">
        <ele>428.6</ele>
        <time>2016-07-02T04:47:28Z</time>
      </trkpt>
      <trkpt lat="44.04378" lon="3.01364">
        <ele>428.7</ele>
        <time>2016-07-02T04:47:29Z</time>
      </trkpt>
      <trkpt lat="44.04378" lon="3.01367">
        <ele>428.8</ele>
        <time>2016-07-02T04:47:30Z</time>
      </trkpt>
      <trkpt lat="44.04377" lon="3.01371">
        <ele>428.8</ele>
        <time>2016-07-02T04:47:31Z</time>
      </trkpt>
      <trkpt lat="44.04376" lon="3.01374">
        <ele>428.9</ele>
        <time>2016-07-02T04:47:32Z</time>
      </trkpt>
      <trkpt lat="44.04375" lon="3.01377">
        <ele>429</ele>
        <time>2016-07-02T04:47:33Z</time>
      </trkpt>
      <trkpt lat="44.04374" lon="3.0138">
        <ele>429</ele>
        <time>2016-07-02T04:47:34Z</time>
      </trkpt>
      <trkpt lat="44.04374" lon="3.01384">
        <ele>429.1</ele>
        <time>2016-07-02T04:47:35Z</time>
      </trkpt>
      <trkpt lat="44.04373" lon="3.01387">
        <ele>429.2</ele>
        <time>2016-07-02T04:47:36Z</time>
      </trkpt>
      <trkpt lat="44.04372" lon="3.0139">
        <ele>429.2</ele>
        <time>2016-07-02T04:47:37Z</time>
      </trkpt>
      <trkpt lat="44.04371" lon="3.01393">
        <ele>429.3</ele>
        <time>2016-07-02T04:47:38Z</time>
      </trkpt>
      <trkpt lat="44.0437" lon="3.01396">
        <ele>429.4</ele>
        <time>2016-07-02T04:47:39Z</time>
      </trkpt>
      <trkpt lat="44.04369" lon="3.01399">
        <ele>429.5</ele>
        <time>2016-07-02T04:47:40Z</time>
      </trkpt>
      <trkpt lat="44.04367" lon="3.01402">
        <ele>429.5</ele>
        <time>2016-07-02T04:47:41Z</time>
      </trkpt>
      <trkpt lat="44.04366" lon="3.01406">
        <ele>429.6</ele>
        <time>2016-07-02T04:47:42Z</time>
      </trkpt>
      <trkpt lat="44.04365" lon="3.01409">
        <ele>429.7</ele>
        <time>2016-07-02T04:47:43Z</time>
      </trkpt>
      <trkpt lat="44.04364" lon="3.01411">
        <ele>429.8</ele>
        <time>2016-07-02T04:47:44Z</time>
      </trkpt>
      <trkpt lat="44.04363" lon="3.01414">
        <ele>429.9</ele>
        <time>2016-07-02T04:47:45Z</time>
      </trkpt>
      <trkpt lat="44.04361" lon="3.01417">
        <ele>430</ele>
        <time>2016-07-02T04:47:46Z</time>
      </trkpt>
      <trkpt lat="44.0436" lon="3.0142">
        <ele>430</ele>
        <time>2016-07-02T04:47:47Z</time>
      </trkpt>
      <trkpt lat="44.04359" lon="3.01422">
        <ele>430.1</ele>
        <time>2016-07-02T04:47:48Z</time>
      </trkpt>
      <trkpt lat="44.04357" lon="3.01425">
        <ele>430.2</ele>
        <time>2016-07-02T04:47:49Z</time>
      </trkpt>
      <trkpt lat="44.04356" lon="3.01427">
        <ele>430.3</ele>
        <time>2016-07-02T04:47:50Z</time>
      </trkpt>
      <trkpt lat="44.04354" lon="3.0143">
        <ele>430.4</ele>
        <time>2016-07-02T04:47:51Z</time>
      </trkpt>
      <trkpt lat="44.04353" lon="3.01432">
        <ele>430.5</ele>
        <time>2016-07-02T04:47:52Z</time>
      </trkpt>
      <trkpt lat="44.04351" lon="3.01434">
        <ele>430.6</ele>
        <time>2016-07-02T04:47:53Z</time>
      </trkpt>
      <trkpt lat="44.04349" lon="3.01436">
        <ele>430.7</ele>
        <time>2016-07-02T04:47:54Z</time>
      </trkpt>
      <trkpt lat="44.04348" lon="3.01438">
        <ele>430.7</ele>
        <time>2016-07-02T04:47:55Z</time>
      </trkpt>
      <trkpt lat="44.04346" lon="3.0144">
        <ele>430.8</ele>
        <time>2016-07-02T04:47:56Z</time>
      </trkpt>
      <trkpt lat="44.04344" lon="3.01442">
        <ele>430.9</ele>
        <time>2016-07-02T04:47:57Z</time>
      </trkpt>
      <trkpt lat="44.04342" lon="3.01444">
        <ele>431.2</ele>
        <time>2016-07-02T04:47:58Z</time>
      </trkpt>
      <trkpt lat="44.0434" lon="3.01445">
        <ele>431.7</ele>
        <time>2016-07-02T04:47:59Z</time>
      </trkpt>
      <trkpt lat="44.04338" lon="3.01447">
        <ele>432.3</ele>
        <time>2016-07-02T04:48:00Z</time>
      </trkpt>
      <trkpt lat="44.04337" lon="3.01448">
        <ele>432.8</ele>
        <time>2016-07-02T04:48:01Z</time>
      </trkpt>
      <trkpt lat="44.04334" lon="3.01449">
        <ele>433.4</ele>
        <time>2016-07-02T04:48:02Z</time>
      </trkpt>
      <trkpt lat="44.04332" lon="3.01451">
        <ele>434</ele>
        <time>2016-07-02T04:48:03Z</time>
      </trkpt>
      <trkpt lat="44.0433" lon="3.01452">
        <ele>434.5</ele>
        <time>2016-07-02T04:48:04Z</time>
      </trkpt>
      <trkpt lat="44.04329" lon="3.01453">
        <ele>435</ele>
        <time>2016-07-02T04:48:05Z</time>
      </trkpt>
      <trkpt lat="44.04326" lon="3.01455">
        <ele>435</ele>
        <time>2016-07-02T04:48:06Z</time>
      </trkpt>
      <trkpt lat="44.04324" lon="3.01456">
        <ele>435</ele>
        <time>2016-07-02T04:48:07Z</time>
      </trkpt>
      <trkpt lat="44.04322" lon="3.01458">
        <ele>435</ele>
        <time>2016-07-02T04:48:08Z</time>
      </trkpt>
      <trkpt lat="44.04321" lon="3.01459">
        <ele>435</ele>
        <time>2016-07-02T04:48:09Z</time>
      </trkpt>
      <trkpt lat="44.04319" lon="3.01461">
        <ele>435</ele>
        <time>2016-07-02T04:48:10Z</time>
      </trkpt>
      <trkpt lat="44.04317" lon="3.01463">
        <ele>435</ele>
        <time>2016-07-02T04:48:11Z</time>
      </trkpt>
      <trkpt lat="44.04315" lon="3.01465">
        <ele>435</ele>
        <time>2016-07-02T04:48:12Z</time>
      </trkpt>
      <trkpt lat="44.04314" lon="3.01468">
        <ele>435</ele>
        <time>2016-07-02T04:48:13Z</time>
      </trkpt>
      <trkpt lat="44.04312" lon="3.0147">
        <ele>435</ele>
        <time>2016-07-02T04:48:14Z</time>
      </trkpt>
      <trkpt lat="44.0431" lon="3.01473">
        <ele>435</ele>
        <time>2016-07-02T04:48:15Z</time>
      </trkpt>
      <trkpt lat="44.04309" lon="3.01475">
        <ele>435</ele>
        <time>2016-07-02T04:48:16Z</time>
      </trkpt>
      <trkpt lat="44.04308" lon="3.01478">
        <ele>435</ele>
        <time>2016-07-02T04:48:17Z</time>
      </trkpt>
      <trkpt lat="44.04306" lon="3.01481">
        <ele>435.2</ele>
        <time>2016-07-02T04:48:18Z</time>
      </trkpt>
      <trkpt lat="44.04305" lon="3.01484">
        <ele>435.3</ele>
        <time>2016-07-02T04:48:19Z</time>
      </trkpt>
      <trkpt lat="44.04304" lon="3.01487">
        <ele>435.4</ele>
        <time>2016-07-02T04:48:20Z</time>
      </trkpt>
      <trkpt lat="44.04303" lon="3.0149">
        <ele>435.5</ele>
        <time>2016-07-02T04:48:21Z</time>
      </trkpt>
      <trkpt lat="44.04303" lon="3.01493">
        <ele>435.6</ele>
        <time>2016-07-02T04:48:22Z</time>
      </trkpt>
      <trkpt lat="44.04302" lon="3.01496">
        <ele>435.8</ele>
        <time>2016-07-02T04:48:23Z</time>
      </trkpt>
      <trkpt lat="44.04301" lon="3.01499">
        <ele>435.9</ele>
        <time>2016-07-02T04:48:24Z</time>
      </trkpt>
      <trkpt lat="44.04301" lon="3.01502">
        <ele>436</ele>
        <time>2016-07-02T04:48:25Z</time>
      </trkpt>
      <trkpt lat="44.04301" lon="3.01506">
        <ele>436.1</ele>
        <time>2016-07-02T04:48:26Z</time>
      </trkpt>
      <trkpt lat="44.043" lon="3.01511">
        <ele>436.3</ele>
        <time>2016-07-02T04:48:27Z</time>
      </trkpt>
      <trkpt lat="44.043" lon="3.01512">
        <ele>436.3</ele>
        <time>2016-07-02T04:48:28Z</time>
      </trkpt>
      <trkpt lat="44.043" lon="3.01516">
        <ele>436.4</ele>
        <time>2016-07-02T04:48:29Z</time>
      </trkpt>
      <trkpt lat="44.043" lon="3.01519">
        <ele>436.5</ele>
        <time>2016-07-02T04:48:30Z</time>
      </trkpt>
      <trkpt lat="44.043" lon="3.01522">
        <ele>436.6</ele>
        <time>2016-07-02T04:48:31Z</time>
      </trkpt>
      <trkpt lat="44.043" lon="3.01525">
        <ele>436.7</ele>
        <time>2016-07-02T04:48:32Z</time>
      </trkpt>
      <trkpt lat="44.04299" lon="3.01528">
        <ele>436.8</ele>
        <time>2016-07-02T04:48:33Z</time>
      </trkpt>
      <trkpt lat="44.04299" lon="3.01532">
        <ele>436.9</ele>
        <time>2016-07-02T04:48:34Z</time>
      </trkpt>
      <trkpt lat="44.04299" lon="3.01535">
        <ele>437</ele>
        <time>2016-07-02T04:48:35Z</time>
      </trkpt>
      <trkpt lat="44.04298" lon="3.01538">
        <ele>437.1</ele>
        <time>2016-07-02T04:48:36Z</time>
      </trkpt>
      <trkpt lat="44.04298" lon="3.01541">
        <ele>437.2</ele>
        <time>2016-07-02T04:48:37Z</time>
      </trkpt>
      <trkpt lat="44.04297" lon="3.01544">
        <ele>437.3</ele>
        <time>2016-07-02T04:48:38Z</time>
      </trkpt>
      <trkpt lat="44.04297" lon="3.01547">
        <ele>437.4</ele>
        <time>2016-07-02T04:48:39Z</time>
      </trkpt>
      <trkpt lat="44.04296" lon="3.0155">
        <ele>437.4</ele>
        <time>2016-07-02T04:48:40Z</time>
      </trkpt>
      <trkpt lat="44.04296" lon="3.01553">
        <ele>437.5</ele>
        <time>2016-07-02T04:48:41Z</time>
      </trkpt>
      <trkpt lat="44.04295" lon="3.01556">
        <ele>437.6</ele>
        <time>2016-07-02T04:48:42Z</time>
      </trkpt>
      <trkpt lat="44.04295" lon="3.01559">
        <ele>437.7</ele>
        <time>2016-07-02T04:48:43Z</time>
      </trkpt>
      <trkpt lat="44.04294" lon="3.01562">
        <ele>437.7</ele>
        <time>2016-07-02T04:48:44Z</time>
      </trkpt>
      <trkpt lat="44.04293" lon="3.01565">
        <ele>437.8</ele>
        <time>2016-07-02T04:48:45Z</time>
      </trkpt>
      <trkpt lat="44.04293" lon="3.01568">
        <ele>437.9</ele>
        <time>2016-07-02T04:48:46Z</time>
      </trkpt>
      <trkpt lat="44.04292" lon="3.01571">
        <ele>437.9</ele>
        <time>2016-07-02T04:48:47Z</time>
      </trkpt>
      <trkpt lat="44.04291" lon="3.01574">
        <ele>438</ele>
        <time>2016-07-02T04:48:48Z</time>
      </trkpt>
      <trkpt lat="44.0429" lon="3.01577">
        <ele>438.1</ele>
        <time>2016-07-02T04:48:49Z</time>
      </trkpt>
      <trkpt lat="44.0429" lon="3.0158">
        <ele>438.1</ele>
        <time>2016-07-02T04:48:50Z</time>
      </trkpt>
      <trkpt lat="44.04289" lon="3.01583">
        <ele>438.2</ele>
        <time>2016-07-02T04:48:51Z</time>
      </trkpt>
      <trkpt lat="44.04288" lon="3.01585">
        <ele>438.2</ele>
        <time>2016-07-02T04:48:52Z</time>
      </trkpt>
      <trkpt lat="44.04287" lon="3.01588">
        <ele>438.3</ele>
        <time>2016-07-02T04:48:53Z</time>
      </trkpt>
      <trkpt lat="44.04287" lon="3.01591">
        <ele>438.3</ele>
        <time>2016-07-02T04:48:54Z</time>
      </trkpt>
      <trkpt lat="44.04286" lon="3.01594">
        <ele>438.4</ele>
        <time>2016-07-02T04:48:55Z</time>
      </trkpt>
      <trkpt lat="44.04285" lon="3.01597">
        <ele>438.5</ele>
        <time>2016-07-02T04:48:56Z</time>
      </trkpt>
      <trkpt lat="44.04285" lon="3.016">
        <ele>438.5</ele>
        <time>2016-07-02T04:48:57Z</time>
      </trkpt>
      <trkpt lat="44.04285" lon="3.01603">
        <ele>438.6</ele>
        <time>2016-07-02T04:48:58Z</time>
      </trkpt>
      <trkpt lat="44.04284" lon="3.01606">
        <ele>438.6</ele>
        <time>2016-07-02T04:48:59Z</time>
      </trkpt>
      <trkpt lat="44.04284" lon="3.01609">
        <ele>438.7</ele>
        <time>2016-07-02T04:49:00Z</time>
      </trkpt>
      <trkpt lat="44.04284" lon="3.01612">
        <ele>438.7</ele>
        <time>2016-07-02T04:49:01Z</time>
      </trkpt>
      <trkpt lat="44.04284" lon="3.01615">
        <ele>438.8</ele>
        <time>2016-07-02T04:49:02Z</time>
      </trkpt>
      <trkpt lat="44.04283" lon="3.01618">
        <ele>438.8</ele>
        <time>2016-07-02T04:49:03Z</time>
      </trkpt>
      <trkpt lat="44.04283" lon="3.01622">
        <ele>438.9</ele>
        <time>2016-07-02T04:49:04Z</time>
      </trkpt>
      <trkpt lat="44.04283" lon="3.01625">
        <ele>438.9</ele>
        <time>2016-07-02T04:49:05Z</time>
      </trkpt>
      <trkpt lat="44.04283" lon="3.01628">
        <ele>439</ele>
        <time>2016-07-02T04:49:06Z</time>
      </trkpt>
      <trkpt lat="44.04283" lon="3.01631">
        <ele>439</ele>
        <time>2016-07-02T04:49:07Z</time>
      </trkpt>
      <trkpt lat="44.04283" lon="3.01634">
        <ele>439.1</ele>
        <time>2016-07-02T04:49:08Z</time>
      </trkpt>
      <trkpt lat="44.04283" lon="3.01637">
        <ele>439.1</ele>
        <time>2016-07-02T04:49:09Z</time>
      </trkpt>
      <trkpt lat="44.04283" lon="3.0164">
        <ele>439.2</ele>
        <time>2016-07-02T04:49:10Z</time>
      </trkpt>
      <trkpt lat="44.04283" lon="3.01643">
        <ele>439.3</ele>
        <time>2016-07-02T04:49:11Z</time>
      </trkpt>
      <trkpt lat="44.04283" lon="3.01646">
        <ele>439.3</ele>
        <time>2016-07-02T04:49:12Z</time>
      </trkpt>
      <trkpt lat="44.04283" lon="3.01649">
        <ele>439.4</ele>
        <time>2016-07-02T04:49:13Z</time>
      </trkpt>
      <trkpt lat="44.04283" lon="3.01653">
        <ele>439.4</ele>
        <time>2016-07-02T04:49:14Z</time>
      </trkpt>
      <trkpt lat="44.04283" lon="3.01656">
        <ele>439.5</ele>
        <time>2016-07-02T04:49:15Z</time>
      </trkpt>
      <trkpt lat="44.04283" lon="3.01659">
        <ele>439.5</ele>
        <time>2016-07-02T04:49:16Z</time>
      </trkpt>
      <trkpt lat="44.04284" lon="3.01662">
        <ele>439.6</ele>
        <time>2016-07-02T04:49:17Z</time>
      </trkpt>
      <trkpt lat="44.04284" lon="3.01665">
        <ele>439.7</ele>
        <time>2016-07-02T04:49:18Z</time>
      </trkpt>
      <trkpt lat="44.04284" lon="3.01668">
        <ele>439.7</ele>
        <time>2016-07-02T04:49:19Z</time>
      </trkpt>
      <trkpt lat="44.04284" lon="3.01671">
        <ele>439.8</ele>
        <time>2016-07-02T04:49:20Z</time>
      </trkpt>
      <trkpt lat="44.04284" lon="3.01674">
        <ele>439.8</ele>
        <time>2016-07-02T04:49:21Z</time>
      </trkpt>
      <trkpt lat="44.04285" lon="3.01677">
        <ele>439.9</ele>
        <time>2016-07-02T04:49:22Z</time>
      </trkpt>
      <trkpt lat="44.04285" lon="3.0168">
        <ele>440</ele>
        <time>2016-07-02T04:49:23Z</time>
      </trkpt>
      <trkpt lat="44.04285" lon="3.01683">
        <ele>440</ele>
        <time>2016-07-02T04:49:24Z</time>
      </trkpt>
      <trkpt lat="44.04285" lon="3.01686">
        <ele>440.1</ele>
        <time>2016-07-02T04:49:25Z</time>
      </trkpt>
      <trkpt lat="44.04285" lon="3.01689">
        <ele>440.1</ele>
        <time>2016-07-02T04:49:26Z</time>
      </trkpt>
      <trkpt lat="44.04286" lon="3.01692">
        <ele>440.2</ele>
        <time>2016-07-02T04:49:27Z</time>
      </trkpt>
      <trkpt lat="44.04286" lon="3.01695">
        <ele>440.3</ele>
        <time>2016-07-02T04:49:28Z</time>
      </trkpt>
      <trkpt lat="44.04286" lon="3.01698">
        <ele>440.3</ele>
        <time>2016-07-02T04:49:29Z</time>
      </trkpt>
      <trkpt lat="44.04287" lon="3.01701">
        <ele>440.4</ele>
        <time>2016-07-02T04:49:30Z</time>
      </trkpt>
      <trkpt lat="44.04287" lon="3.01705">
        <ele>440.5</ele>
        <time>2016-07-02T04:49:31Z</time>
      </trkpt>
      <trkpt lat="44.04287" lon="3.01708">
        <ele>440.5</ele>
        <time>2016-07-02T04:49:32Z</time>
      </trkpt>
      <trkpt lat="44.04287" lon="3.01711">
        <ele>440.6</ele>
        <time>2016-07-02T04:49:33Z</time>
      </trkpt>
      <trkpt lat="44.04287" lon="3.01714">
        <ele>440.7</ele>
        <time>2016-07-02T04:49:34Z</time>
      </trkpt>
      <trkpt lat="44.04288" lon="3.01717">
        <ele>440.7</ele>
        <time>2016-07-02T04:49:35Z</time>
      </trkpt>
      <trkpt lat="44.04288" lon="3.0172">
        <ele>440.8</ele>
        <time>2016-07-02T04:49:36Z</time>
      </trkpt>
      <trkpt lat="44.04288" lon="3.01723">
        <ele>440.9</ele>
        <time>2016-07-02T04:49:37Z</time>
      </trkpt>
      <trkpt lat="44.04288" lon="3.01726">
        <ele>440.9</ele>
        <time>2016-07-02T04:49:38Z</time>
      </trkpt>
      <trkpt lat="44.04288" lon="3.01729">
        <ele>441</ele>
        <time>2016-07-02T04:49:39Z</time>
      </trkpt>
      <trkpt lat="44.04289" lon="3.01732">
        <ele>441.1</ele>
        <time>2016-07-02T04:49:40Z</time>
      </trkpt>
      <trkpt lat="44.04289" lon="3.01735">
        <ele>441.1</ele>
        <time>2016-07-02T04:49:41Z</time>
      </trkpt>
      <trkpt lat="44.04289" lon="3.01739">
        <ele>441.2</ele>
        <time>2016-07-02T04:49:42Z</time>
      </trkpt>
      <trkpt lat="44.04289" lon="3.01742">
        <ele>441.3</ele>
        <time>2016-07-02T04:49:43Z</time>
      </trkpt>
      <trkpt lat="44.0429" lon="3.01745">
        <ele>441.3</ele>
        <time>2016-07-02T04:49:44Z</time>
      </trkpt>
      <trkpt lat="44.0429" lon="3.01748">
        <ele>441.4</ele>
        <time>2016-07-02T04:49:45Z</time>
      </trkpt>
      <trkpt lat="44.0429" lon="3.01751">
        <ele>441.5</ele>
        <time>2016-07-02T04:49:46Z</time>
      </trkpt>
      <trkpt lat="44.0429" lon="3.01754">
        <ele>441.5</ele>
        <time>2016-07-02T04:49:47Z</time>
      </trkpt>
      <trkpt lat="44.0429" lon="3.01757">
        <ele>441.6</ele>
        <time>2016-07-02T04:49:48Z</time>
      </trkpt>
      <trkpt lat="44.04291" lon="3.0176">
        <ele>441.7</ele>
        <time>2016-07-02T04:49:49Z</time>
      </trkpt>
      <trkpt lat="44.04291" lon="3.01764">
        <ele>441.7</ele>
        <time>2016-07-02T04:49:50Z</time>
      </trkpt>
      <trkpt lat="44.04291" lon="3.01767">
        <ele>441.8</ele>
        <time>2016-07-02T04:49:51Z</time>
      </trkpt>
      <trkpt lat="44.04291" lon="3.0177">
        <ele>441.9</ele>
        <time>2016-07-02T04:49:52Z</time>
      </trkpt>
      <trkpt lat="44.04291" lon="3.01773">
        <ele>441.9</ele>
        <time>2016-07-02T04:49:53Z</time>
      </trkpt>
      <trkpt lat="44.04292" lon="3.01776">
        <ele>442</ele>
        <time>2016-07-02T04:49:54Z</time>
      </trkpt>
      <trkpt lat="44.04292" lon="3.01779">
        <ele>442.1</ele>
        <time>2016-07-02T04:49:55Z</time>
      </trkpt>
      <trkpt lat="44.04292" lon="3.01782">
        <ele>442.1</ele>
        <time>2016-07-02T04:49:56Z</time>
      </trkpt>
      <trkpt lat="44.04292" lon="3.01786">
        <ele>442.2</ele>
        <time>2016-07-02T04:49:57Z</time>
      </trkpt>
      <trkpt lat="44.04292" lon="3.01789">
        <ele>442.3</ele>
        <time>2016-07-02T04:49:58Z</time>
      </trkpt>
      <trkpt lat="44.04292" lon="3.01792">
        <ele>442.3</ele>
        <time>2016-07-02T04:49:59Z</time>
      </trkpt>
      <trkpt lat="44.04292" lon="3.01795">
        <ele>442.4</ele>
        <time>2016-07-02T04:50:00Z</time>
      </trkpt>
      <trkpt lat="44.04292" lon="3.01798">
        <ele>442.5</ele>
        <time>2016-07-02T04:50:01Z</time>
      </trkpt>
      <trkpt lat="44.04292" lon="3.01801">
        <ele>442.5</ele>
        <time>2016-07-02T04:50:02Z</time>
      </trkpt>
      <trkpt lat="44.04293" lon="3.01805">
        <ele>442.6</ele>
        <time>2016-07-02T04:50:03Z</time>
      </trkpt>
      <trkpt lat="44.04293" lon="3.01808">
        <ele>442.7</ele>
        <time>2016-07-02T04:50:04Z</time>
      </trkpt>
      <trkpt lat="44.04293" lon="3.01811">
        <ele>442.7</ele>
        <time>2016-07-02T04:50:05Z</time>
      </trkpt>
      <trkpt lat="44.04293" lon="3.01814">
        <ele>442.8</ele>
        <time>2016-07-02T04:50:06Z</time>
      </trkpt>
      <trkpt lat="44.04293" lon="3.01817">
        <ele>442.9</ele>
        <time>2016-07-02T04:50:07Z</time>
      </trkpt>
      <trkpt lat="44.04293" lon="3.0182">
        <ele>442.9</ele>
        <time>2016-07-02T04:50:08Z</time>
      </trkpt>
      <trkpt lat="44.04293" lon="3.01823">
        <ele>443</ele>
        <time>2016-07-02T04:50:09Z</time>
      </trkpt>
      <trkpt lat="44.04293" lon="3.01827">
        <ele>443.1</ele>
        <time>2016-07-02T04:50:10Z</time>
      </trkpt>
      <trkpt lat="44.04294" lon="3.0183">
        <ele>443.2</ele>
        <time>2016-07-02T04:50:11Z</time>
      </trkpt>
      <trkpt lat="44.04294" lon="3.01833">
        <ele>443.3</ele>
        <time>2016-07-02T04:50:12Z</time>
      </trkpt>
      <trkpt lat="44.04294" lon="3.01836">
        <ele>443.3</ele>
        <time>2016-07-02T04:50:13Z</time>
      </trkpt>
      <trkpt lat="44.04295" lon="3.01839">
        <ele>443.4</ele>
        <time>2016-07-02T04:50:14Z</time>
      </trkpt>
      <trkpt lat="44.04295" lon="3.01842">
        <ele>443.5</ele>
        <time>2016-07-02T04:50:15Z</time>
      </trkpt>
      <trkpt lat="44.04295" lon="3.01845">
        <ele>443.6</ele>
        <time>2016-07-02T04:50:16Z</time>
      </trkpt>
      <trkpt lat="44.04295" lon="3.01849">
        <ele>443.7</ele>
        <time>2016-07-02T04:50:17Z</time>
      </trkpt>
      <trkpt lat="44.04295" lon="3.01852">
        <ele>443.8</ele>
        <time>2016-07-02T04:50:18Z</time>
      </trkpt>
      <trkpt lat="44.04296" lon="3.01855">
        <ele>443.9</ele>
        <time>2016-07-02T04:50:19Z</time>
      </trkpt>
      <trkpt lat="44.04296" lon="3.01858">
        <ele>444.1</ele>
        <time>2016-07-02T04:50:20Z</time>
      </trkpt>
      <trkpt lat="44.04296" lon="3.01861">
        <ele>444.2</ele>
        <time>2016-07-02T04:50:21Z</time>
      </trkpt>
      <trkpt lat="44.04296" lon="3.01864">
        <ele>444.3</ele>
        <time>2016-07-02T04:50:22Z</time>
      </trkpt>
      <trkpt lat="44.04297" lon="3.01867">
        <ele>444.4</ele>
        <time>2016-07-02T04:50:23Z</time>
      </trkpt>
      <trkpt lat="44.04297" lon="3.0187">
        <ele>444.5</ele>
        <time>2016-07-02T04:50:24Z</time>
      </trkpt>
      <trkpt lat="44.04297" lon="3.01873">
        <ele>444.7</ele>
        <time>2016-07-02T04:50:25Z</time>
      </trkpt>
      <trkpt lat="44.04298" lon="3.01876">
        <ele>444.8</ele>
        <time>2016-07-02T04:50:26Z</time>
      </trkpt>
      <trkpt lat="44.04298" lon="3.01879">
        <ele>445</ele>
        <time>2016-07-02T04:50:27Z</time>
      </trkpt>
      <trkpt lat="44.04298" lon="3.01882">
        <ele>445.1</ele>
        <time>2016-07-02T04:50:28Z</time>
      </trkpt>
      <trkpt lat="44.04298" lon="3.01885">
        <ele>445.3</ele>
        <time>2016-07-02T04:50:29Z</time>
      </trkpt>
      <trkpt lat="44.04298" lon="3.01888">
        <ele>445.4</ele>
        <time>2016-07-02T04:50:30Z</time>
      </trkpt>
      <trkpt lat="44.04299" lon="3.01891">
        <ele>445.6</ele>
        <time>2016-07-02T04:50:31Z</time>
      </trkpt>
      <trkpt lat="44.04299" lon="3.01894">
        <ele>445.8</ele>
        <time>2016-07-02T04:50:32Z</time>
      </trkpt>
      <trkpt lat="44.04299" lon="3.01897">
        <ele>445.9</ele>
        <time>2016-07-02T04:50:33Z</time>
      </trkpt>
      <trkpt lat="44.04299" lon="3.019">
        <ele>446.1</ele>
        <time>2016-07-02T04:50:34Z</time>
      </trkpt>
      <trkpt lat="44.043" lon="3.01903">
        <ele>446.2</ele>
        <time>2016-07-02T04:50:35Z</time>
      </trkpt>
      <trkpt lat="44.043" lon="3.01906">
        <ele>446.3</ele>
        <time>2016-07-02T04:50:36Z</time>
      </trkpt>
      <trkpt lat="44.043" lon="3.01909">
        <ele>446.5</ele>
        <time>2016-07-02T04:50:37Z</time>
      </trkpt>
      <trkpt lat="44.043" lon="3.01912">
        <ele>446.6</ele>
        <time>2016-07-02T04:50:38Z</time>
      </trkpt>
      <trkpt lat="44.04301" lon="3.01916">
        <ele>446.8</ele>
        <time>2016-07-02T04:50:39Z</time>
      </trkpt>
      <trkpt lat="44.04301" lon="3.01919">
        <ele>446.9</ele>
        <time>2016-07-02T04:50:40Z</time>
      </trkpt>
      <trkpt lat="44.04301" lon="3.01922">
        <ele>447.1</ele>
        <time>2016-07-02T04:50:41Z</time>
      </trkpt>
      <trkpt lat="44.04302" lon="3.01925">
        <ele>447.3</ele>
        <time>2016-07-02T04:50:42Z</time>
      </trkpt>
      <trkpt lat="44.04302" lon="3.01928">
        <ele>447.4</ele>
        <time>2016-07-02T04:50:43Z</time>
      </trkpt>
      <trkpt lat="44.04303" lon="3.01931">
        <ele>447.6</ele>
        <time>2016-07-02T04:50:44Z</time>
      </trkpt>
      <trkpt lat="44.04303" lon="3.01934">
        <ele>447.7</ele>
        <time>2016-07-02T04:50:45Z</time>
      </trkpt>
      <trkpt lat="44.04304" lon="3.01937">
        <ele>447.9</ele>
        <time>2016-07-02T04:50:46Z</time>
      </trkpt>
      <trkpt lat="44.04305" lon="3.0194">
        <ele>448</ele>
        <time>2016-07-02T04:50:47Z</time>
      </trkpt>
      <trkpt lat="44.04305" lon="3.01943">
        <ele>448.2</ele>
        <time>2016-07-02T04:50:48Z</time>
      </trkpt>
      <trkpt lat="44.04306" lon="3.01946">
        <ele>448.4</ele>
        <time>2016-07-02T04:50:49Z</time>
      </trkpt>
      <trkpt lat="44.04306" lon="3.01949">
        <ele>448.5</ele>
        <time>2016-07-02T04:50:50Z</time>
      </trkpt>
      <trkpt lat="44.04306" lon="3.01952">
        <ele>448.7</ele>
        <time>2016-07-02T04:50:51Z</time>
      </trkpt>
      <trkpt lat="44.04307" lon="3.01955">
        <ele>448.8</ele>
        <time>2016-07-02T04:50:52Z</time>
      </trkpt>
      <trkpt lat="44.04307" lon="3.01958">
        <ele>449</ele>
        <time>2016-07-02T04:50:53Z</time>
      </trkpt>
      <trkpt lat="44.04308" lon="3.01961">
        <ele>449.1</ele>
        <time>2016-07-02T04:50:54Z</time>
      </trkpt>
      <trkpt lat="44.04308" lon="3.01964">
        <ele>449.2</ele>
        <time>2016-07-02T04:50:55Z</time>
      </trkpt>
      <trkpt lat="44.04308" lon="3.01967">
        <ele>449.4</ele>
        <time>2016-07-02T04:50:56Z</time>
      </trkpt>
      <trkpt lat="44.04309" lon="3.01969">
        <ele>449.5</ele>
        <time>2016-07-02T04:50:57Z</time>
      </trkpt>
      <trkpt lat="44.04309" lon="3.01972">
        <ele>449.6</ele>
        <time>2016-07-02T04:50:58Z</time>
      </trkpt>
      <trkpt lat="44.04309" lon="3.01975">
        <ele>449.7</ele>
        <time>2016-07-02T04:50:59Z</time>
      </trkpt>
      <trkpt lat="44.0431" lon="3.01978">
        <ele>449.9</ele>
        <time>2016-07-02T04:51:00Z</time>
      </trkpt>
      <trkpt lat="44.0431" lon="3.01981">
        <ele>450</ele>
        <time>2016-07-02T04:51:01Z</time>
      </trkpt>
      <trkpt lat="44.04311" lon="3.01984">
        <ele>450.1</ele>
        <time>2016-07-02T04:51:02Z</time>
      </trkpt>
      <trkpt lat="44.04311" lon="3.01987">
        <ele>450.2</ele>
        <time>2016-07-02T04:51:03Z</time>
      </trkpt>
      <trkpt lat="44.04312" lon="3.0199">
        <ele>450.4</ele>
        <time>2016-07-02T04:51:04Z</time>
      </trkpt>
      <trkpt lat="44.04313" lon="3.01993">
        <ele>450.5</ele>
        <time>2016-07-02T04:51:05Z</time>
      </trkpt>
      <trkpt lat="44.04314" lon="3.01996">
        <ele>450.6</ele>
        <time>2016-07-02T04:51:06Z</time>
      </trkpt>
      <trkpt lat="44.04314" lon="3.01999">
        <ele>450.7</ele>
        <time>2016-07-02T04:51:07Z</time>
      </trkpt>
      <trkpt lat="44.04315" lon="3.02002">
        <ele>450.8</ele>
        <time>2016-07-02T04:51:08Z</time>
      </trkpt>
      <trkpt lat="44.04316" lon="3.02006">
        <ele>451</ele>
        <time>2016-07-02T04:51:09Z</time>
      </trkpt>
      <trkpt lat="44.04317" lon="3.02009">
        <ele>451.1</ele>
        <time>2016-07-02T04:51:10Z</time>
      </trkpt>
      <trkpt lat="44.04317" lon="3.02012">
        <ele>451.2</ele>
        <time>2016-07-02T04:51:11Z</time>
      </trkpt>
      <trkpt lat="44.04318" lon="3.02015">
        <ele>451.3</ele>
        <time>2016-07-02T04:51:12Z</time>
      </trkpt>
      <trkpt lat="44.04319" lon="3.02018">
        <ele>451.4</ele>
        <time>2016-07-02T04:51:13Z</time>
      </trkpt>
      <trkpt lat="44.04319" lon="3.02022">
        <ele>451.6</ele>
        <time>2016-07-02T04:51:14Z</time>
      </trkpt>
      <trkpt lat="44.04319" lon="3.02025">
        <ele>451.7</ele>
        <time>2016-07-02T04:51:15Z</time>
      </trkpt>
      <trkpt lat="44.0432" lon="3.02028">
        <ele>451.8</ele>
        <time>2016-07-02T04:51:16Z</time>
      </trkpt>
      <trkpt lat="44.0432" lon="3.02031">
        <ele>451.9</ele>
        <time>2016-07-02T04:51:17Z</time>
      </trkpt>
      <trkpt lat="44.04321" lon="3.02035">
        <ele>452.1</ele>
        <time>2016-07-02T04:51:18Z</time>
      </trkpt>
      <trkpt lat="44.04321" lon="3.02038">
        <ele>452.2</ele>
        <time>2016-07-02T04:51:19Z</time>
      </trkpt>
      <trkpt lat="44.04321" lon="3.02041">
        <ele>452.3</ele>
        <time>2016-07-02T04:51:20Z</time>
      </trkpt>
      <trkpt lat="44.04321" lon="3.02044">
        <ele>452.4</ele>
        <time>2016-07-02T04:51:21Z</time>
      </trkpt>
      <trkpt lat="44.04321" lon="3.02047">
        <ele>452.6</ele>
        <time>2016-07-02T04:51:22Z</time>
      </trkpt>
      <trkpt lat="44.04321" lon="3.02051">
        <ele>452.7</ele>
        <time>2016-07-02T04:51:23Z</time>
      </trkpt>
      <trkpt lat="44.04321" lon="3.02054">
        <ele>452.8</ele>
        <time>2016-07-02T04:51:24Z</time>
      </trkpt>
      <trkpt lat="44.04321" lon="3.02057">
        <ele>453</ele>
        <time>2016-07-02T04:51:25Z</time>
      </trkpt>
      <trkpt lat="44.04321" lon="3.0206">
        <ele>453.1</ele>
        <time>2016-07-02T04:51:26Z</time>
      </trkpt>
      <trkpt lat="44.0432" lon="3.02063">
        <ele>453.2</ele>
        <time>2016-07-02T04:51:27Z</time>
      </trkpt>
      <trkpt lat="44.0432" lon="3.02066">
        <ele>453.4</ele>
        <time>2016-07-02T04:51:28Z</time>
      </trkpt>
      <trkpt lat="44.0432" lon="3.02069">
        <ele>453.5</ele>
        <time>2016-07-02T04:51:29Z</time>
      </trkpt>
      <trkpt lat="44.0432" lon="3.02072">
        <ele>453.6</ele>
        <time>2016-07-02T04:51:30Z</time>
      </trkpt>
      <trkpt lat="44.0432" lon="3.02075">
        <ele>453.8</ele>
        <time>2016-07-02T04:51:31Z</time>
      </trkpt>
      <trkpt lat="44.04319" lon="3.02078">
        <ele>453.9</ele>
        <time>2016-07-02T04:51:32Z</time>
      </trkpt>
      <trkpt lat="44.04319" lon="3.02081">
        <ele>454.1</ele>
        <time>2016-07-02T04:51:33Z</time>
      </trkpt>
      <trkpt lat="44.04319" lon="3.02084">
        <ele>454.2</ele>
        <time>2016-07-02T04:51:34Z</time>
      </trkpt>
      <trkpt lat="44.04318" lon="3.02087">
        <ele>454.4</ele>
        <time>2016-07-02T04:51:35Z</time>
      </trkpt>
      <trkpt lat="44.04318" lon="3.0209">
        <ele>454.5</ele>
        <time>2016-07-02T04:51:36Z</time>
      </trkpt>
      <trkpt lat="44.04317" lon="3.02093">
        <ele>454.7</ele>
        <time>2016-07-02T04:51:37Z</time>
      </trkpt>
      <trkpt lat="44.04317" lon="3.02096">
        <ele>454.8</ele>
        <time>2016-07-02T04:51:38Z</time>
      </trkpt>
      <trkpt lat="44.04317" lon="3.02099">
        <ele>455</ele>
        <time>2016-07-02T04:51:39Z</time>
      </trkpt>
      <trkpt lat="44.04316" lon="3.02102">
        <ele>455.2</ele>
        <time>2016-07-02T04:51:40Z</time>
      </trkpt>
      <trkpt lat="44.04316" lon="3.02105">
        <ele>455.3</ele>
        <time>2016-07-02T04:51:41Z</time>
      </trkpt>
      <trkpt lat="44.04315" lon="3.02108">
        <ele>455.5</ele>
        <time>2016-07-02T04:51:42Z</time>
      </trkpt>
      <trkpt lat="44.04314" lon="3.02111">
        <ele>455.6</ele>
        <time>2016-07-02T04:51:43Z</time>
      </trkpt>
      <trkpt lat="44.04313" lon="3.02114">
        <ele>455.8</ele>
        <time>2016-07-02T04:51:44Z</time>
      </trkpt>
      <trkpt lat="44.04312" lon="3.02116">
        <ele>456</ele>
        <time>2016-07-02T04:51:45Z</time>
      </trkpt>
      <trkpt lat="44.04311" lon="3.02119">
        <ele>456.1</ele>
        <time>2016-07-02T04:51:46Z</time>
      </trkpt>
      <trkpt lat="44.04309" lon="3.02121">
        <ele>456.3</ele>
        <time>2016-07-02T04:51:47Z</time>
      </trkpt>
      <trkpt lat="44.04308" lon="3.02124">
        <ele>456.5</ele>
        <time>2016-07-02T04:51:48Z</time>
      </trkpt>
      <trkpt lat="44.04307" lon="3.02127">
        <ele>456.6</ele>
        <time>2016-07-02T04:51:49Z</time>
      </trkpt>
      <trkpt lat="44.04306" lon="3.0213">
        <ele>456.8</ele>
        <time>2016-07-02T04:51:50Z</time>
      </trkpt>
      <trkpt lat="44.04305" lon="3.02132">
        <ele>457</ele>
        <time>2016-07-02T04:51:51Z</time>
      </trkpt>
      <trkpt lat="44.04305" lon="3.02135">
        <ele>457.2</ele>
        <time>2016-07-02T04:51:52Z</time>
      </trkpt>
      <trkpt lat="44.04304" lon="3.02138">
        <ele>457.4</ele>
        <time>2016-07-02T04:51:53Z</time>
      </trkpt>
      <trkpt lat="44.04303" lon="3.02142">
        <ele>457.6</ele>
        <time>2016-07-02T04:51:54Z</time>
      </trkpt>
      <trkpt lat="44.04302" lon="3.02145">
        <ele>457.9</ele>
        <time>2016-07-02T04:51:55Z</time>
      </trkpt>
      <trkpt lat="44.04302" lon="3.02148">
        <ele>458.1</ele>
        <time>2016-07-02T04:51:56Z</time>
      </trkpt>
      <trkpt lat="44.04301" lon="3.02151">
        <ele>458.3</ele>
        <time>2016-07-02T04:51:57Z</time>
      </trkpt>
      <trkpt lat="44.04301" lon="3.02154">
        <ele>458.5</ele>
        <time>2016-07-02T04:51:58Z</time>
      </trkpt>
      <trkpt lat="44.04301" lon="3.02157">
        <ele>458.7</ele>
        <time>2016-07-02T04:51:59Z</time>
      </trkpt>
      <trkpt lat="44.04301" lon="3.0216">
        <ele>459</ele>
        <time>2016-07-02T04:52:00Z</time>
      </trkpt>
      <trkpt lat="44.04301" lon="3.02163">
        <ele>459.4</ele>
        <time>2016-07-02T04:52:01Z</time>
      </trkpt>
      <trkpt lat="44.04302" lon="3.02166">
        <ele>459.8</ele>
        <time>2016-07-02T04:52:02Z</time>
      </trkpt>
      <trkpt lat="44.04302" lon="3.02169">
        <ele>460.3</ele>
        <time>2016-07-02T04:52:03Z</time>
      </trkpt>
      <trkpt lat="44.04302" lon="3.02172">
        <ele>460.8</ele>
        <time>2016-07-02T04:52:04Z</time>
      </trkpt>
      <trkpt lat="44.04303" lon="3.02175">
        <ele>461.2</ele>
        <time>2016-07-02T04:52:05Z</time>
      </trkpt>
      <trkpt lat="44.04303" lon="3.02178">
        <ele>461.7</ele>
        <time>2016-07-02T04:52:06Z</time>
      </trkpt>
      <trkpt lat="44.04304" lon="3.02181">
        <ele>462.2</ele>
        <time>2016-07-02T04:52:07Z</time>
      </trkpt>
      <trkpt lat="44.04305" lon="3.02184">
        <ele>462.6</ele>
        <time>2016-07-02T04:52:08Z</time>
      </trkpt>
      <trkpt lat="44.04305" lon="3.02187">
        <ele>463.1</ele>
        <time>2016-07-02T04:52:09Z</time>
      </trkpt>
      <trkpt lat="44.04306" lon="3.02191">
        <ele>463.6</ele>
        <time>2016-07-02T04:52:10Z</time>
      </trkpt>
      <trkpt lat="44.04306" lon="3.02194">
        <ele>464.1</ele>
        <time>2016-07-02T04:52:11Z</time>
      </trkpt>
      <trkpt lat="44.04306" lon="3.02197">
        <ele>464.6</ele>
        <time>2016-07-02T04:52:12Z</time>
      </trkpt>
      <trkpt lat="44.04307" lon="3.022">
        <ele>465.1</ele>
        <time>2016-07-02T04:52:13Z</time>
      </trkpt>
      <trkpt lat="44.04307" lon="3.02204">
        <ele>465.6</ele>
        <time>2016-07-02T04:52:14Z</time>
      </trkpt>
      <trkpt lat="44.04308" lon="3.02207">
        <ele>466.2</ele>
        <time>2016-07-02T04:52:15Z</time>
      </trkpt>
      <trkpt lat="44.04308" lon="3.0221">
        <ele>466.7</ele>
        <time>2016-07-02T04:52:16Z</time>
      </trkpt>
      <trkpt lat="44.04308" lon="3.02214">
        <ele>467.3</ele>
        <time>2016-07-02T04:52:17Z</time>
      </trkpt>
      <trkpt lat="44.04308" lon="3.02217">
        <ele>467.8</ele>
        <time>2016-07-02T04:52:18Z</time>
      </trkpt>
      <trkpt lat="44.04308" lon="3.02221">
        <ele>468.3</ele>
        <time>2016-07-02T04:52:19Z</time>
      </trkpt>
      <trkpt lat="44.04308" lon="3.02224">
        <ele>468.8</ele>
        <time>2016-07-02T04:52:20Z</time>
      </trkpt>
      <trkpt lat="44.04308" lon="3.02227">
        <ele>469.3</ele>
        <time>2016-07-02T04:52:21Z</time>
      </trkpt>
      <trkpt lat="44.04308" lon="3.0223">
        <ele>469.7</ele>
        <time>2016-07-02T04:52:22Z</time>
      </trkpt>
      <trkpt lat="44.04308" lon="3.02233">
        <ele>470.1</ele>
        <time>2016-07-02T04:52:23Z</time>
      </trkpt>
      <trkpt lat="44.04308" lon="3.02237">
        <ele>470.5</ele>
        <time>2016-07-02T04:52:24Z</time>
      </trkpt>
      <trkpt lat="44.04308" lon="3.02239">
        <ele>470.9</ele>
        <time>2016-07-02T04:52:25Z</time>
      </trkpt>
      <trkpt lat="44.04308" lon="3.02242">
        <ele>471.3</ele>
        <time>2016-07-02T04:52:26Z</time>
      </trkpt>
      <trkpt lat="44.04308" lon="3.02245">
        <ele>471.6</ele>
        <time>2016-07-02T04:52:27Z</time>
      </trkpt>
      <trkpt lat="44.04308" lon="3.02248">
        <ele>471.9</ele>
        <time>2016-07-02T04:52:28Z</time>
      </trkpt>
      <trkpt lat="44.04308" lon="3.0225">
        <ele>472.3</ele>
        <time>2016-07-02T04:52:29Z</time>
      </trkpt>
      <trkpt lat="44.04308" lon="3.02253">
        <ele>472.5</ele>
        <time>2016-07-02T04:52:30Z</time>
      </trkpt>
      <trkpt lat="44.04308" lon="3.02255">
        <ele>472.8</ele>
        <time>2016-07-02T04:52:31Z</time>
      </trkpt>
      <trkpt lat="44.04308" lon="3.02257">
        <ele>473.1</ele>
        <time>2016-07-02T04:52:32Z</time>
      </trkpt>
      <trkpt lat="44.04308" lon="3.02259">
        <ele>473.3</ele>
        <time>2016-07-02T04:52:33Z</time>
      </trkpt>
      <trkpt lat="44.04308" lon="3.02261">
        <ele>473.5</ele>
        <time>2016-07-02T04:52:34Z</time>
      </trkpt>
      <trkpt lat="44.04308" lon="3.02263">
        <ele>473.7</ele>
        <time>2016-07-02T04:52:35Z</time>
      </trkpt>
      <trkpt lat="44.04308" lon="3.02265">
        <ele>473.9</ele>
        <time>2016-07-02T04:52:36Z</time>
      </trkpt>
      <trkpt lat="44.04309" lon="3.02267">
        <ele>474.1</ele>
        <time>2016-07-02T04:52:37Z</time>
      </trkpt>
      <trkpt lat="44.04309" lon="3.02268">
        <ele>474.3</ele>
        <time>2016-07-02T04:52:38Z</time>
      </trkpt>
      <trkpt lat="44.04309" lon="3.0227">
        <ele>474.5</ele>
        <time>2016-07-02T04:52:39Z</time>
      </trkpt>
      <trkpt lat="44.04309" lon="3.02272">
        <ele>474.6</ele>
        <time>2016-07-02T04:52:40Z</time>
      </trkpt>
      <trkpt lat="44.04309" lon="3.02274">
        <ele>474.8</ele>
        <time>2016-07-02T04:52:41Z</time>
      </trkpt>
      <trkpt lat="44.04309" lon="3.02275">
        <ele>475</ele>
        <time>2016-07-02T04:52:42Z</time>
      </trkpt>
      <trkpt lat="44.04309" lon="3.02277">
        <ele>475.2</ele>
        <time>2016-07-02T04:52:43Z</time>
      </trkpt>
      <trkpt lat="44.04308" lon="3.02279">
        <ele>475.4</ele>
        <time>2016-07-02T04:52:44Z</time>
      </trkpt>
      <trkpt lat="44.04308" lon="3.02281">
        <ele>475.6</ele>
        <time>2016-07-02T04:52:45Z</time>
      </trkpt>
      <trkpt lat="44.04308" lon="3.02283">
        <ele>475.8</ele>
        <time>2016-07-02T04:52:46Z</time>
      </trkpt>
      <trkpt lat="44.04308" lon="3.02285">
        <ele>476</ele>
        <time>2016-07-02T04:52:47Z</time>
      </trkpt>
      <trkpt lat="44.04308" lon="3.02287">
        <ele>476.2</ele>
        <time>2016-07-02T04:52:48Z</time>
      </trkpt>
      <trkpt lat="44.04307" lon="3.02289">
        <ele>476.4</ele>
        <time>2016-07-02T04:52:49Z</time>
      </trkpt>
      <trkpt lat="44.04307" lon="3.02291">
        <ele>476.6</ele>
        <time>2016-07-02T04:52:50Z</time>
      </trkpt>
      <trkpt lat="44.04307" lon="3.02292">
        <ele>476.8</ele>
        <time>2016-07-02T04:52:51Z</time>
      </trkpt>
      <trkpt lat="44.04307" lon="3.02294">
        <ele>477</ele>
        <time>2016-07-02T04:52:52Z</time>
      </trkpt>
      <trkpt lat="44.04307" lon="3.02296">
        <ele>477.1</ele>
        <time>2016-07-02T04:52:53Z</time>
      </trkpt>
      <trkpt lat="44.04306" lon="3.02297">
        <ele>477.3</ele>
        <time>2016-07-02T04:52:54Z</time>
      </trkpt>
      <trkpt lat="44.04306" lon="3.02299">
        <ele>477.5</ele>
        <time>2016-07-02T04:52:55Z</time>
      </trkpt>
      <trkpt lat="44.04306" lon="3.02301">
        <ele>477.7</ele>
        <time>2016-07-02T04:52:56Z</time>
      </trkpt>
      <trkpt lat="44.04306" lon="3.02302">
        <ele>477.8</ele>
        <time>2016-07-02T04:52:57Z</time>
      </trkpt>
      <trkpt lat="44.04306" lon="3.02304">
        <ele>478</ele>
        <time>2016-07-02T04:52:58Z</time>
      </trkpt>
      <trkpt lat="44.04305" lon="3.02306">
        <ele>478.2</ele>
        <time>2016-07-02T04:52:59Z</time>
      </trkpt>
      <trkpt lat="44.04305" lon="3.02308">
        <ele>478.4</ele>
        <time>2016-07-02T04:53:00Z</time>
      </trkpt>
      <trkpt lat="44.04305" lon="3.02309">
        <ele>478.6</ele>
        <time>2016-07-02T04:53:01Z</time>
      </trkpt>
      <trkpt lat="44.04304" lon="3.02311">
        <ele>478.7</ele>
        <time>2016-07-02T04:53:02Z</time>
      </trkpt>
      <trkpt lat="44.04304" lon="3.02313">
        <ele>478.9</ele>
        <time>2016-07-02T04:53:03Z</time>
      </trkpt>
      <trkpt lat="44.04303" lon="3.02315">
        <ele>479.1</ele>
        <time>2016-07-02T04:53:04Z</time>
      </trkpt>
      <trkpt lat="44.04303" lon="3.02316">
        <ele>479.3</ele>
        <time>2016-07-02T04:53:05Z</time>
      </trkpt>
      <trkpt lat="44.04302" lon="3.02318">
        <ele>479.5</ele>
        <time>2016-07-02T04:53:06Z</time>
      </trkpt>
      <trkpt lat="44.04302" lon="3.0232">
        <ele>479.7</ele>
        <time>2016-07-02T04:53:07Z</time>
      </trkpt>
      <trkpt lat="44.04301" lon="3.02322">
        <ele>479.9</ele>
        <time>2016-07-02T04:53:08Z</time>
      </trkpt>
      <trkpt lat="44.04301" lon="3.02324">
        <ele>480.1</ele>
        <time>2016-07-02T04:53:09Z</time>
      </trkpt>
      <trkpt lat="44.043" lon="3.02326">
        <ele>480.3</ele>
        <time>2016-07-02T04:53:10Z</time>
      </trkpt>
      <trkpt lat="44.043" lon="3.02327">
        <ele>480.5</ele>
        <time>2016-07-02T04:53:11Z</time>
      </trkpt>
      <trkpt lat="44.04299" lon="3.02329">
        <ele>480.7</ele>
        <time>2016-07-02T04:53:12Z</time>
      </trkpt>
      <trkpt lat="44.04299" lon="3.02331">
        <ele>480.9</ele>
        <time>2016-07-02T04:53:13Z</time>
      </trkpt>
      <trkpt lat="44.04298" lon="3.02333">
        <ele>481.1</ele>
        <time>2016-07-02T04:53:14Z</time>
      </trkpt>
      <trkpt lat="44.04298" lon="3.02334">
        <ele>481.3</ele>
        <time>2016-07-02T04:53:15Z</time>
      </trkpt>
      <trkpt lat="44.04297" lon="3.02336">
        <ele>481.5</ele>
        <time>2016-07-02T04:53:16Z</time>
      </trkpt>
      <trkpt lat="44.04296" lon="3.02338">
        <ele>481.7</ele>
        <time>2016-07-02T04:53:17Z</time>
      </trkpt>
      <trkpt lat="44.04296" lon="3.0234">
        <ele>481.9</ele>
        <time>2016-07-02T04:53:18Z</time>
      </trkpt>
      <trkpt lat="44.04296" lon="3.02342">
        <ele>482.1</ele>
        <time>2016-07-02T04:53:19Z</time>
      </trkpt>
      <trkpt lat="44.04295" lon="3.02343">
        <ele>482.3</ele>
        <time>2016-07-02T04:53:20Z</time>
      </trkpt>
      <trkpt lat="44.04295" lon="3.02345">
        <ele>482.5</ele>
        <time>2016-07-02T04:53:21Z</time>
      </trkpt>
      <trkpt lat="44.04295" lon="3.02347">
        <ele>482.7</ele>
        <time>2016-07-02T04:53:22Z</time>
      </trkpt>
      <trkpt lat="44.04294" lon="3.02348">
        <ele>482.9</ele>
        <time>2016-07-02T04:53:23Z</time>
      </trkpt>
      <trkpt lat="44.04294" lon="3.0235">
        <ele>483.1</ele>
        <time>2016-07-02T04:53:24Z</time>
      </trkpt>
      <trkpt lat="44.04293" lon="3.02352">
        <ele>483.3</ele>
        <time>2016-07-02T04:53:25Z</time>
      </trkpt>
      <trkpt lat="44.04293" lon="3.02354">
        <ele>483.5</ele>
        <time>2016-07-02T04:53:26Z</time>
      </trkpt>
      <trkpt lat="44.04293" lon="3.02355">
        <ele>483.7</ele>
        <time>2016-07-02T04:53:27Z</time>
      </trkpt>
      <trkpt lat="44.04293" lon="3.02357">
        <ele>483.9</ele>
        <time>2016-07-02T04:53:28Z</time>
      </trkpt>
      <trkpt lat="44.04292" lon="3.02359">
        <ele>484.1</ele>
        <time>2016-07-02T04:53:29Z</time>
      </trkpt>
      <trkpt lat="44.04292" lon="3.02361">
        <ele>484.3</ele>
        <time>2016-07-02T04:53:30Z</time>
      </trkpt>
      <trkpt lat="44.04292" lon="3.02363">
        <ele>484.5</ele>
        <time>2016-07-02T04:53:31Z</time>
      </trkpt>
      <trkpt lat="44.04292" lon="3.02365">
        <ele>484.7</ele>
        <time>2016-07-02T04:53:32Z</time>
      </trkpt>
      <trkpt lat="44.04292" lon="3.02367">
        <ele>484.9</ele>
        <time>2016-07-02T04:53:33Z</time>
      </trkpt>
      <trkpt lat="44.04291" lon="3.02369">
        <ele>484.9</ele>
        <time>2016-07-02T04:53:34Z</time>
      </trkpt>
      <trkpt lat="44.04291" lon="3.02371">
        <ele>484.8</ele>
        <time>2016-07-02T04:53:35Z</time>
      </trkpt>
      <trkpt lat="44.0429" lon="3.02373">
        <ele>484.8</ele>
        <time>2016-07-02T04:53:36Z</time>
      </trkpt>
      <trkpt lat="44.0429" lon="3.02375">
        <ele>484.7</ele>
        <time>2016-07-02T04:53:37Z</time>
      </trkpt>
      <trkpt lat="44.04289" lon="3.02376">
        <ele>484.7</ele>
        <time>2016-07-02T04:53:38Z</time>
      </trkpt>
      <trkpt lat="44.04288" lon="3.02378">
        <ele>484.6</ele>
        <time>2016-07-02T04:53:39Z</time>
      </trkpt>
      <trkpt lat="44.04287" lon="3.02381">
        <ele>484.5</ele>
        <time>2016-07-02T04:53:40Z</time>
      </trkpt>
      <trkpt lat="44.04287" lon="3.02383">
        <ele>484.4</ele>
        <time>2016-07-02T04:53:41Z</time>
      </trkpt>
      <trkpt lat="44.04271" lon="3.02417">
        <ele>483.3</ele>
        <time>2016-07-02T04:54:48Z</time>
      </trkpt>
      <trkpt lat="44.04265" lon="3.0243">
        <ele>480.2</ele>
        <time>2016-07-02T04:54:49Z</time>
      </trkpt>
      <trkpt lat="44.04265" lon="3.02428">
        <ele>480.2</ele>
        <time>2016-07-02T04:54:50Z</time>
      </trkpt>
      <trkpt lat="44.04266" lon="3.02425">
        <ele>480.1</ele>
        <time>2016-07-02T04:54:51Z</time>
      </trkpt>
      <trkpt lat="44.04266" lon="3.02422">
        <ele>480.1</ele>
        <time>2016-07-02T04:54:52Z</time>
      </trkpt>
      <trkpt lat="44.04266" lon="3.02419">
        <ele>480.1</ele>
        <time>2016-07-02T04:54:53Z</time>
      </trkpt>
      <trkpt lat="44.04267" lon="3.02416">
        <ele>480</ele>
        <time>2016-07-02T04:54:54Z</time>
      </trkpt>
      <trkpt lat="44.04267" lon="3.02413">
        <ele>480</ele>
        <time>2016-07-02T04:54:55Z</time>
      </trkpt>
      <trkpt lat="44.04267" lon="3.02409">
        <ele>480</ele>
        <time>2016-07-02T04:54:56Z</time>
      </trkpt>
      <trkpt lat="44.04267" lon="3.02405">
        <ele>479.9</ele>
        <time>2016-07-02T04:54:57Z</time>
      </trkpt>
      <trkpt lat="44.04267" lon="3.02399">
        <ele>479.8</ele>
        <time>2016-07-02T04:54:58Z</time>
      </trkpt>
      <trkpt lat="44.04268" lon="3.02396">
        <ele>479.8</ele>
        <time>2016-07-02T04:54:59Z</time>
      </trkpt>
      <trkpt lat="44.04268" lon="3.02393">
        <ele>479.7</ele>
        <time>2016-07-02T04:55:00Z</time>
      </trkpt>
      <trkpt lat="44.04268" lon="3.0239">
        <ele>479.7</ele>
        <time>2016-07-02T04:55:01Z</time>
      </trkpt>
      <trkpt lat="44.04268" lon="3.02387">
        <ele>479.7</ele>
        <time>2016-07-02T04:55:02Z</time>
      </trkpt>
      <trkpt lat="44.04268" lon="3.02383">
        <ele>479.6</ele>
        <time>2016-07-02T04:55:03Z</time>
      </trkpt>
      <trkpt lat="44.04268" lon="3.0238">
        <ele>479.6</ele>
        <time>2016-07-02T04:55:04Z</time>
      </trkpt>
      <trkpt lat="44.04269" lon="3.02377">
        <ele>479.6</ele>
        <time>2016-07-02T04:55:05Z</time>
      </trkpt>
      <trkpt lat="44.04269" lon="3.02373">
        <ele>479.6</ele>
        <time>2016-07-02T04:55:06Z</time>
      </trkpt>
      <trkpt lat="44.04269" lon="3.0237">
        <ele>479.5</ele>
        <time>2016-07-02T04:55:07Z</time>
      </trkpt>
      <trkpt lat="44.04269" lon="3.02367">
        <ele>479.5</ele>
        <time>2016-07-02T04:55:08Z</time>
      </trkpt>
      <trkpt lat="44.04269" lon="3.02364">
        <ele>479.5</ele>
        <time>2016-07-02T04:55:09Z</time>
      </trkpt>
      <trkpt lat="44.04269" lon="3.0236">
        <ele>479.5</ele>
        <time>2016-07-02T04:55:10Z</time>
      </trkpt>
      <trkpt lat="44.0427" lon="3.02357">
        <ele>479.5</ele>
        <time>2016-07-02T04:55:11Z</time>
      </trkpt>
      <trkpt lat="44.04269" lon="3.02354">
        <ele>479.6</ele>
        <time>2016-07-02T04:55:12Z</time>
      </trkpt>
      <trkpt lat="44.04269" lon="3.0235">
        <ele>479.6</ele>
        <time>2016-07-02T04:55:13Z</time>
      </trkpt>
      <trkpt lat="44.04269" lon="3.02347">
        <ele>479.6</ele>
        <time>2016-07-02T04:55:14Z</time>
      </trkpt>
      <trkpt lat="44.04269" lon="3.02343">
        <ele>479.6</ele>
        <time>2016-07-02T04:55:15Z</time>
      </trkpt>
      <trkpt lat="44.0427" lon="3.0234">
        <ele>479.6</ele>
        <time>2016-07-02T04:55:16Z</time>
      </trkpt>
      <trkpt lat="44.0427" lon="3.02337">
        <ele>479.6</ele>
        <time>2016-07-02T04:55:17Z</time>
      </trkpt>
      <trkpt lat="44.0427" lon="3.02333">
        <ele>479.6</ele>
        <time>2016-07-02T04:55:18Z</time>
      </trkpt>
      <trkpt lat="44.0427" lon="3.0233">
        <ele>479.6</ele>
        <time>2016-07-02T04:55:19Z</time>
      </trkpt>
      <trkpt lat="44.04271" lon="3.02326">
        <ele>479.6</ele>
        <time>2016-07-02T04:55:20Z</time>
      </trkpt>
      <trkpt lat="44.04271" lon="3.02323">
        <ele>479.6</ele>
        <time>2016-07-02T04:55:21Z</time>
      </trkpt>
      <trkpt lat="44.04271" lon="3.0232">
        <ele>479.5</ele>
        <time>2016-07-02T04:55:22Z</time>
      </trkpt>
      <trkpt lat="44.04271" lon="3.02317">
        <ele>479.5</ele>
        <time>2016-07-02T04:55:23Z</time>
      </trkpt>
    </trkseg>
  </trk>
</gpx>